PWSweather.com
Personal Weather Stations
Station Observations
HVALPSUND
Hvalpsund, FarsoeDK 9640

HvalpsundFarsoeDK 9640

Lat: 56.705311, Lon: 9.203638

Elevation: 5

Station Type: Vantage Pro2

http://hvalpsundvejr.dk

High Low Average
Temperature 74.0°F23.3°C 65.0°F18.3°C 69.9°F21.1°C
Dew Point 63.5°F17.5°C 58.9°F14.9°C 60.9°F16.1°C
Winds 20.0 mph 32.2 kmh 1.0 mph 1.6 kmh 9.0 mph E14.5 kmh E
Wind Gusts 25.0 mph40.2 kmh 2.0 mph3.2 kmh 12.0 mph19.3 kmh
Humidity 82% 65% 73%
Pressure 30.12 in1020.0 mb 30.03 in1016.9 mb -
Precipitation 0.11 in2.8 mm - -
Hour Temp Dew Point Humidity Winds Wind Gusts Pressure Precip Precip Rate Daily Precip Total
08:34 AM 68.9°F20.5°C 60.3°F15.7°C 74% 10.5 mph ENE16.9 kmh ENE 16.0 mph25.7 kmh 30.12 in1020.0 mb 0.00 in0.0 mm 0.00 in0.0 mm 0.00 in0.0 mm
08:35 AM 69.0°F20.6°C 60.0°F15.6°C 73% 12.6 mph E20.3 kmh E 17.0 mph27.4 kmh 30.12 in1020.0 mb 0.00 in0.0 mm 0.00 in0.0 mm 0.00 in0.0 mm
08:36 AM 69.2°F20.7°C 60.2°F15.7°C 73% 13.0 mph E20.9 kmh E 17.0 mph27.4 kmh 30.11 in1019.6 mb 0.00 in0.0 mm 0.00 in0.0 mm 0.00 in0.0 mm
08:37 AM 69.2°F20.7°C 59.8°F15.4°C 72% 14.0 mph E22.5 kmh E 18.0 mph29.0 kmh 30.11 in1019.6 mb 0.00 in0.0 mm 0.00 in0.0 mm 0.00 in0.0 mm
08:38 AM 69.4°F20.8°C 60.0°F15.6°C 72% 11.7 mph E18.8 kmh E 12.0 mph19.3 kmh 30.11 in1019.6 mb 0.00 in0.0 mm 0.00 in0.0 mm 0.00 in0.0 mm
08:39 AM 69.4°F20.8°C 60.0°F15.6°C 72% 13.8 mph E22.2 kmh E 17.0 mph27.4 kmh 30.11 in1019.6 mb 0.00 in0.0 mm 0.00 in0.0 mm 0.00 in0.0 mm
08:40 AM 69.5°F20.8°C 59.7°F15.4°C 71% 13.9 mph E22.4 kmh E 18.0 mph29.0 kmh 30.11 in1019.6 mb 0.00 in0.0 mm 0.00 in0.0 mm 0.00 in0.0 mm
08:41 AM 69.5°F20.8°C 59.7°F15.4°C 71% 12.0 mph ENE19.3 kmh ENE 16.0 mph25.7 kmh 30.11 in1019.6 mb 0.00 in0.0 mm 0.00 in0.0 mm 0.00 in0.0 mm
08:42 AM 69.6°F20.9°C 59.8°F15.4°C 71% 13.0 mph E20.9 kmh E 16.0 mph25.7 kmh 30.11 in1019.6 mb 0.00 in0.0 mm 0.00 in0.0 mm 0.00 in0.0 mm
08:44 AM 69.7°F20.9°C 59.9°F15.5°C 71% 13.9 mph E22.4 kmh E 17.0 mph27.4 kmh 30.11 in1019.6 mb 0.00 in0.0 mm 0.00 in0.0 mm 0.00 in0.0 mm
08:45 AM 69.7°F20.9°C 59.5°F15.3°C 70% 15.0 mph E24.1 kmh E 20.0 mph32.2 kmh 30.11 in1019.6 mb 0.00 in0.0 mm 0.00 in0.0 mm 0.00 in0.0 mm
08:46 AM 69.7°F20.9°C 59.5°F15.3°C 70% 12.0 mph E19.3 kmh E 20.0 mph32.2 kmh 30.11 in1019.6 mb 0.00 in0.0 mm 0.00 in0.0 mm 0.00 in0.0 mm
08:47 AM 69.8°F21.0°C 60.0°F15.6°C 71% 10.0 mph ESE16.1 kmh ESE 12.0 mph19.3 kmh 30.11 in1019.6 mb 0.00 in0.0 mm 0.00 in0.0 mm 0.00 in0.0 mm
08:48 AM 69.8°F21.0°C 60.0°F15.6°C 71% 14.0 mph E22.5 kmh E 17.0 mph27.4 kmh 30.11 in1019.6 mb 0.00 in0.0 mm 0.00 in0.0 mm 0.00 in0.0 mm
08:49 AM 69.8°F21.0°C 59.6°F15.3°C 70% 13.0 mph E20.9 kmh E 16.0 mph25.7 kmh 30.11 in1019.6 mb 0.00 in0.0 mm 0.00 in0.0 mm 0.00 in0.0 mm
08:50 AM 69.8°F21.0°C 59.6°F15.3°C 70% 10.3 mph E16.6 kmh E 13.0 mph20.9 kmh 30.11 in1019.6 mb 0.00 in0.0 mm 0.00 in0.0 mm 0.00 in0.0 mm
08:51 AM 69.9°F21.1°C 59.7°F15.4°C 70% 9.0 mph E14.5 kmh E 13.0 mph20.9 kmh 30.11 in1019.6 mb 0.00 in0.0 mm 0.00 in0.0 mm 0.00 in0.0 mm
08:52 AM 70.0°F21.1°C 60.2°F15.7°C 71% 8.8 mph ESE14.2 kmh ESE 13.0 mph20.9 kmh 30.11 in1019.6 mb 0.00 in0.0 mm 0.00 in0.0 mm 0.00 in0.0 mm
08:53 AM 70.1°F21.2°C 59.9°F15.5°C 70% 10.4 mph ESE16.7 kmh ESE 15.0 mph24.1 kmh 30.11 in1019.6 mb 0.00 in0.0 mm 0.00 in0.0 mm 0.00 in0.0 mm
08:54 AM 70.1°F21.2°C 59.9°F15.5°C 70% 9.9 mph ESE15.9 kmh ESE 15.0 mph24.1 kmh 30.11 in1019.6 mb 0.00 in0.0 mm 0.00 in0.0 mm 0.00 in0.0 mm
08:55 AM 70.2°F21.2°C 59.9°F15.5°C 70% 9.7 mph ESE15.6 kmh ESE 14.0 mph22.5 kmh 30.11 in1019.6 mb 0.00 in0.0 mm 0.00 in0.0 mm 0.00 in0.0 mm
08:56 AM 70.2°F21.2°C 59.9°F15.5°C 70% 8.0 mph E12.9 kmh E 12.0 mph19.3 kmh 30.11 in1019.6 mb 0.00 in0.0 mm 0.00 in0.0 mm 0.00 in0.0 mm
08:57 AM 70.2°F21.2°C 59.9°F15.5°C 70% 8.0 mph E12.9 kmh E 11.0 mph17.7 kmh 30.11 in1019.6 mb 0.00 in0.0 mm 0.00 in0.0 mm 0.00 in0.0 mm
08:58 AM 70.2°F21.2°C 59.9°F15.5°C 70% 13.0 mph ENE20.9 kmh ENE 16.0 mph25.7 kmh 30.11 in1019.6 mb 0.00 in0.0 mm 0.00 in0.0 mm 0.00 in0.0 mm
08:59 AM 70.1°F21.2°C 59.9°F15.5°C 70% 15.0 mph E24.1 kmh E 18.0 mph29.0 kmh 30.11 in1019.6 mb 0.00 in0.0 mm 0.00 in0.0 mm 0.00 in0.0 mm
09:00 AM 69.9°F21.1°C 59.3°F15.2°C 69% 16.0 mph E25.7 kmh E 20.0 mph32.2 kmh 30.11 in1019.6 mb 0.00 in0.0 mm 0.00 in0.0 mm 0.00 in0.0 mm
09:01 AM 69.7°F20.9°C 59.5°F15.3°C 70% 13.0 mph E20.9 kmh E 16.0 mph25.7 kmh 30.11 in1019.6 mb 0.00 in0.0 mm 0.00 in0.0 mm 0.00 in0.0 mm
09:02 AM 69.6°F20.9°C 59.4°F15.2°C 70% 10.0 mph E16.1 kmh E 13.0 mph20.9 kmh 30.11 in1019.6 mb 0.00 in0.0 mm 0.00 in0.0 mm 0.00 in0.0 mm
09:03 AM 69.5°F20.8°C 59.7°F15.4°C 71% 14.7 mph E23.7 kmh E 18.0 mph29.0 kmh 30.11 in1019.6 mb 0.00 in0.0 mm 0.00 in0.0 mm 0.00 in0.0 mm
09:04 AM 69.4°F20.8°C 59.6°F15.3°C 71% 12.0 mph E19.3 kmh E 14.0 mph22.5 kmh 30.11 in1019.6 mb 0.00 in0.0 mm 0.00 in0.0 mm 0.00 in0.0 mm
09:05 AM 69.4°F20.8°C 59.6°F15.3°C 71% 10.0 mph E16.1 kmh E 15.0 mph24.1 kmh 30.11 in1019.6 mb 0.00 in0.0 mm 0.00 in0.0 mm 0.00 in0.0 mm
09:06 AM 69.4°F20.8°C 59.6°F15.3°C 71% 12.0 mph E19.3 kmh E 15.0 mph24.1 kmh 30.11 in1019.6 mb 0.00 in0.0 mm 0.00 in0.0 mm 0.00 in0.0 mm
09:07 AM 69.4°F20.8°C 59.6°F15.3°C 71% 11.0 mph E17.7 kmh E 15.0 mph24.1 kmh 30.11 in1019.6 mb 0.00 in0.0 mm 0.00 in0.0 mm 0.00 in0.0 mm
09:08 AM 69.4°F20.8°C 59.6°F15.3°C 71% 10.0 mph E16.1 kmh E 14.0 mph22.5 kmh 30.11 in1019.6 mb 0.00 in0.0 mm 0.00 in0.0 mm 0.00 in0.0 mm
09:09 AM 69.4°F20.8°C 60.0°F15.6°C 72% 6.7 mph E10.8 kmh E 8.0 mph12.9 kmh 30.11 in1019.6 mb 0.00 in0.0 mm 0.00 in0.0 mm 0.00 in0.0 mm
09:10 AM 69.5°F20.8°C 60.1°F15.6°C 72% 6.1 mph E9.8 kmh E 10.0 mph16.1 kmh 30.11 in1019.6 mb 0.00 in0.0 mm 0.00 in0.0 mm 0.00 in0.0 mm
09:11 AM 69.6°F20.9°C 60.2°F15.7°C 72% 8.3 mph E13.4 kmh E 12.0 mph19.3 kmh 30.11 in1019.6 mb 0.00 in0.0 mm 0.00 in0.0 mm 0.00 in0.0 mm
09:12 AM 69.7°F20.9°C 59.9°F15.5°C 71% 12.4 mph E20.0 kmh E 15.0 mph24.1 kmh 30.11 in1019.6 mb 0.00 in0.0 mm 0.00 in0.0 mm 0.00 in0.0 mm
09:13 AM 69.7°F20.9°C 59.9°F15.5°C 71% 10.0 mph E16.1 kmh E 13.0 mph20.9 kmh 30.11 in1019.6 mb 0.00 in0.0 mm 0.00 in0.0 mm 0.00 in0.0 mm
09:14 AM 69.8°F21.0°C 60.0°F15.6°C 71% 10.0 mph ENE16.1 kmh ENE 14.0 mph22.5 kmh 30.11 in1019.6 mb 0.00 in0.0 mm 0.00 in0.0 mm 0.00 in0.0 mm
09:15 AM 69.8°F21.0°C 60.0°F15.6°C 71% 12.1 mph E19.5 kmh E 14.0 mph22.5 kmh 30.11 in1019.6 mb 0.00 in0.0 mm 0.00 in0.0 mm 0.00 in0.0 mm
09:16 AM 69.9°F21.1°C 60.1°F15.6°C 71% 12.0 mph E19.3 kmh E 14.0 mph22.5 kmh 30.11 in1019.6 mb 0.00 in0.0 mm 0.00 in0.0 mm 0.00 in0.0 mm
09:17 AM 69.9°F21.1°C 60.1°F15.6°C 71% 12.0 mph E19.3 kmh E 14.0 mph22.5 kmh 30.11 in1019.6 mb 0.00 in0.0 mm 0.00 in0.0 mm 0.00 in0.0 mm
09:18 AM 69.9°F21.1°C 60.1°F15.6°C 71% 11.1 mph E17.9 kmh E 12.0 mph19.3 kmh 30.11 in1019.6 mb 0.00 in0.0 mm 0.00 in0.0 mm 0.00 in0.0 mm
09:19 AM 70.0°F21.1°C 60.2°F15.7°C 71% 8.6 mph E13.8 kmh E 13.0 mph20.9 kmh 30.11 in1019.6 mb 0.00 in0.0 mm 0.00 in0.0 mm 0.00 in0.0 mm
09:20 AM 70.1°F21.2°C 60.2°F15.7°C 71% 9.0 mph E14.5 kmh E 11.0 mph17.7 kmh 30.11 in1019.6 mb 0.00 in0.0 mm 0.00 in0.0 mm 0.00 in0.0 mm
09:21 AM 70.2°F21.2°C 60.3°F15.7°C 71% 10.0 mph E16.1 kmh E 14.0 mph22.5 kmh 30.11 in1019.6 mb 0.00 in0.0 mm 0.00 in0.0 mm 0.00 in0.0 mm
09:22 AM 70.3°F21.3°C 60.0°F15.6°C 70% 11.0 mph ESE17.7 kmh ESE 14.0 mph22.5 kmh 30.11 in1019.6 mb 0.00 in0.0 mm 0.00 in0.0 mm 0.00 in0.0 mm
09:23 AM 70.3°F21.3°C 60.0°F15.6°C 70% 11.0 mph ENE17.7 kmh ENE 14.0 mph22.5 kmh 30.11 in1019.6 mb 0.00 in0.0 mm 0.00 in0.0 mm 0.00 in0.0 mm
09:24 AM 70.4°F21.3°C 60.1°F15.6°C 70% 10.4 mph ENE16.7 kmh ENE 12.0 mph19.3 kmh 30.11 in1019.6 mb 0.00 in0.0 mm 0.00 in0.0 mm 0.00 in0.0 mm
09:25 AM 70.4°F21.3°C 59.7°F15.4°C 69% 13.0 mph ENE20.9 kmh ENE 15.0 mph24.1 kmh 30.11 in1019.6 mb 0.00 in0.0 mm 0.00 in0.0 mm 0.00 in0.0 mm
09:26 AM 70.5°F21.4°C 59.8°F15.4°C 69% 15.0 mph E24.1 kmh E 18.0 mph29.0 kmh 30.11 in1019.6 mb 0.00 in0.0 mm 0.00 in0.0 mm 0.00 in0.0 mm
09:27 AM 70.6°F21.4°C 59.9°F15.5°C 69% 11.0 mph E17.7 kmh E 12.0 mph19.3 kmh 30.11 in1019.6 mb 0.00 in0.0 mm 0.00 in0.0 mm 0.00 in0.0 mm
09:28 AM 70.6°F21.4°C 59.9°F15.5°C 69% 9.0 mph E14.5 kmh E 12.0 mph19.3 kmh 30.11 in1019.6 mb 0.00 in0.0 mm 0.00 in0.0 mm 0.00 in0.0 mm
09:29 AM 70.8°F21.6°C 60.1°F15.6°C 69% 9.0 mph ESE14.5 kmh ESE 13.0 mph20.9 kmh 30.11 in1019.6 mb 0.00 in0.0 mm 0.00 in0.0 mm 0.00 in0.0 mm
09:30 AM 71.0°F21.7°C 60.3°F15.7°C 69% 9.0 mph E14.5 kmh E 11.0 mph17.7 kmh 30.11 in1019.6 mb 0.00 in0.0 mm 0.00 in0.0 mm 0.00 in0.0 mm
09:31 AM 71.1°F21.7°C 60.4°F15.8°C 69% 11.7 mph E18.8 kmh E 13.0 mph20.9 kmh 30.11 in1019.6 mb 0.00 in0.0 mm 0.00 in0.0 mm 0.00 in0.0 mm
09:32 AM 71.3°F21.8°C 60.2°F15.7°C 68% 13.4 mph E21.6 kmh E 19.0 mph30.6 kmh 30.11 in1019.6 mb 0.00 in0.0 mm 0.00 in0.0 mm 0.00 in0.0 mm
09:33 AM 71.3°F21.8°C 59.3°F15.2°C 66% 15.4 mph E24.8 kmh E 19.0 mph30.6 kmh 30.11 in1019.6 mb 0.00 in0.0 mm 0.00 in0.0 mm 0.00 in0.0 mm
09:34 AM 71.4°F21.9°C 59.0°F15.0°C 65% 16.0 mph E25.7 kmh E 20.0 mph32.2 kmh 30.11 in1019.6 mb 0.00 in0.0 mm 0.00 in0.0 mm 0.00 in0.0 mm
09:35 AM 71.3°F21.8°C 58.9°F14.9°C 65% 15.0 mph E24.1 kmh E 20.0 mph32.2 kmh 30.11 in1019.6 mb 0.00 in0.0 mm 0.00 in0.0 mm 0.00 in0.0 mm
09:36 AM 71.3°F21.8°C 58.9°F14.9°C 65% 14.0 mph E22.5 kmh E 19.0 mph30.6 kmh 30.11 in1019.6 mb 0.00 in0.0 mm 0.00 in0.0 mm 0.00 in0.0 mm
09:37 AM 71.3°F21.8°C 58.9°F14.9°C 65% 14.0 mph E22.5 kmh E 20.0 mph32.2 kmh 30.11 in1019.6 mb 0.00 in0.0 mm 0.00 in0.0 mm 0.00 in0.0 mm
09:38 AM 71.3°F21.8°C 59.3°F15.2°C 66% 13.8 mph E22.2 kmh E 17.0 mph27.4 kmh 30.11 in1019.6 mb 0.00 in0.0 mm 0.00 in0.0 mm 0.00 in0.0 mm
09:39 AM 71.3°F21.8°C 59.3°F15.2°C 66% 15.0 mph E24.1 kmh E 19.0 mph30.6 kmh 30.11 in1019.6 mb 0.00 in0.0 mm 0.00 in0.0 mm 0.00 in0.0 mm
09:40 AM 71.3°F21.8°C 58.9°F14.9°C 65% 17.0 mph E27.4 kmh E 24.0 mph38.6 kmh 30.11 in1019.6 mb 0.00 in0.0 mm 0.00 in0.0 mm 0.00 in0.0 mm
09:41 AM 71.3°F21.8°C 58.9°F14.9°C 65% 14.5 mph E23.3 kmh E 19.0 mph30.6 kmh 30.11 in1019.6 mb 0.00 in0.0 mm 0.00 in0.0 mm 0.00 in0.0 mm
09:42 AM 71.3°F21.8°C 58.9°F14.9°C 65% 20.0 mph E32.2 kmh E 23.0 mph37.0 kmh 30.10 in1019.3 mb 0.00 in0.0 mm 0.00 in0.0 mm 0.00 in0.0 mm
09:43 AM 71.3°F21.8°C 58.9°F14.9°C 65% 14.0 mph ESE22.5 kmh ESE 20.0 mph32.2 kmh 30.11 in1019.6 mb 0.00 in0.0 mm 0.00 in0.0 mm 0.00 in0.0 mm
09:44 AM 71.3°F21.8°C 58.9°F14.9°C 65% 18.4 mph ESE29.6 kmh ESE 23.0 mph37.0 kmh 30.11 in1019.6 mb 0.00 in0.0 mm 0.00 in0.0 mm 0.00 in0.0 mm
09:45 AM 71.4°F21.9°C 59.0°F15.0°C 65% 15.4 mph E24.8 kmh E 23.0 mph37.0 kmh 30.11 in1019.6 mb 0.00 in0.0 mm 0.00 in0.0 mm 0.00 in0.0 mm
09:46 AM 71.4°F21.9°C 59.0°F15.0°C 65% 15.0 mph E24.1 kmh E 18.0 mph29.0 kmh 30.11 in1019.6 mb 0.00 in0.0 mm 0.00 in0.0 mm 0.00 in0.0 mm
09:47 AM 71.4°F21.9°C 59.0°F15.0°C 65% 16.0 mph ESE25.7 kmh ESE 19.0 mph30.6 kmh 30.11 in1019.6 mb 0.00 in0.0 mm 0.00 in0.0 mm 0.00 in0.0 mm
09:48 AM 71.5°F21.9°C 59.5°F15.3°C 66% 18.1 mph E29.1 kmh E 20.0 mph32.2 kmh 30.11 in1019.6 mb 0.00 in0.0 mm 0.00 in0.0 mm 0.00 in0.0 mm
09:49 AM 71.5°F21.9°C 59.1°F15.1°C 65% 14.0 mph E22.5 kmh E 18.0 mph29.0 kmh 30.11 in1019.6 mb 0.00 in0.0 mm 0.00 in0.0 mm 0.00 in0.0 mm
09:50 AM 71.6°F22.0°C 59.2°F15.1°C 65% 14.0 mph E22.5 kmh E 18.0 mph29.0 kmh 30.11 in1019.6 mb 0.00 in0.0 mm 0.00 in0.0 mm 0.00 in0.0 mm
09:51 AM 71.7°F22.1°C 59.7°F15.4°C 66% 13.4 mph E21.6 kmh E 16.0 mph25.7 kmh 30.11 in1019.6 mb 0.00 in0.0 mm 0.00 in0.0 mm 0.00 in0.0 mm
09:52 AM 71.7°F22.1°C 59.7°F15.4°C 66% 12.9 mph E20.8 kmh E 16.0 mph25.7 kmh 30.11 in1019.6 mb 0.00 in0.0 mm 0.00 in0.0 mm 0.00 in0.0 mm
09:53 AM 71.8°F22.1°C 59.8°F15.4°C 66% 10.1 mph E16.3 kmh E 15.0 mph24.1 kmh 30.11 in1019.6 mb 0.00 in0.0 mm 0.00 in0.0 mm 0.00 in0.0 mm
09:54 AM 71.9°F22.2°C 59.9°F15.5°C 66% 14.0 mph ESE22.5 kmh ESE 21.0 mph33.8 kmh 30.11 in1019.6 mb 0.00 in0.0 mm 0.00 in0.0 mm 0.00 in0.0 mm
09:55 AM 72.1°F22.3°C 60.1°F15.6°C 66% 11.0 mph ESE17.7 kmh ESE 15.0 mph24.1 kmh 30.11 in1019.6 mb 0.00 in0.0 mm 0.00 in0.0 mm 0.00 in0.0 mm
09:56 AM 72.2°F22.3°C 60.2°F15.7°C 66% 13.0 mph ESE20.9 kmh ESE 16.0 mph25.7 kmh 30.11 in1019.6 mb 0.00 in0.0 mm 0.00 in0.0 mm 0.00 in0.0 mm
09:57 AM 72.2°F22.3°C 59.8°F15.4°C 65% 14.0 mph ESE22.5 kmh ESE 17.0 mph27.4 kmh 30.11 in1019.6 mb 0.00 in0.0 mm 0.00 in0.0 mm 0.00 in0.0 mm
09:58 AM 72.2°F22.3°C 59.8°F15.4°C 65% 13.0 mph ESE20.9 kmh ESE 18.0 mph29.0 kmh 30.11 in1019.6 mb 0.00 in0.0 mm 0.00 in0.0 mm 0.00 in0.0 mm
09:59 AM 72.2°F22.3°C 59.8°F15.4°C 65% 15.4 mph E24.8 kmh E 16.0 mph25.7 kmh 30.11 in1019.6 mb 0.00 in0.0 mm 0.00 in0.0 mm 0.00 in0.0 mm
10:00 AM 72.1°F22.3°C 59.7°F15.4°C 65% 14.2 mph E22.9 kmh E 19.0 mph30.6 kmh 30.11 in1019.6 mb 0.00 in0.0 mm 0.00 in0.0 mm 0.00 in0.0 mm
10:01 AM 72.0°F22.2°C 59.6°F15.3°C 65% 13.0 mph ESE20.9 kmh ESE 15.0 mph24.1 kmh 30.11 in1019.6 mb 0.00 in0.0 mm 0.00 in0.0 mm 0.00 in0.0 mm
10:02 AM 71.9°F22.2°C 59.9°F15.5°C 66% 11.0 mph E17.7 kmh E 16.0 mph25.7 kmh 30.11 in1019.6 mb 0.00 in0.0 mm 0.00 in0.0 mm 0.00 in0.0 mm
10:03 AM 71.9°F22.2°C 60.3°F15.7°C 67% 13.2 mph E21.2 kmh E 15.0 mph24.1 kmh 30.11 in1019.6 mb 0.00 in0.0 mm 0.00 in0.0 mm 0.00 in0.0 mm
10:04 AM 71.9°F22.2°C 60.3°F15.7°C 67% 13.0 mph E20.9 kmh E 15.0 mph24.1 kmh 30.11 in1019.6 mb 0.00 in0.0 mm 0.00 in0.0 mm 0.00 in0.0 mm
10:05 AM 71.9°F22.2°C 60.3°F15.7°C 67% 10.0 mph ESE16.1 kmh ESE 14.0 mph22.5 kmh 30.10 in1019.3 mb 0.00 in0.0 mm 0.00 in0.0 mm 0.00 in0.0 mm
10:06 AM 72.0°F22.2°C 60.4°F15.8°C 67% 11.0 mph E17.7 kmh E 13.0 mph20.9 kmh 30.11 in1019.6 mb 0.00 in0.0 mm 0.00 in0.0 mm 0.00 in0.0 mm
10:07 AM 72.1°F22.3°C 60.5°F15.8°C 67% 10.0 mph E16.1 kmh E 15.0 mph24.1 kmh 30.10 in1019.3 mb 0.00 in0.0 mm 0.00 in0.0 mm 0.00 in0.0 mm
10:08 AM 72.1°F22.3°C 60.5°F15.8°C 67% 15.0 mph ESE24.1 kmh ESE 20.0 mph32.2 kmh 30.10 in1019.3 mb 0.00 in0.0 mm 0.00 in0.0 mm 0.00 in0.0 mm
10:09 AM 72.0°F22.2°C 60.4°F15.8°C 67% 11.0 mph ESE17.7 kmh ESE 15.0 mph24.1 kmh 30.10 in1019.3 mb 0.00 in0.0 mm 0.00 in0.0 mm 0.00 in0.0 mm
10:10 AM 72.1°F22.3°C 60.1°F15.6°C 66% 14.0 mph E22.5 kmh E 18.0 mph29.0 kmh 30.10 in1019.3 mb 0.00 in0.0 mm 0.00 in0.0 mm 0.00 in0.0 mm
10:11 AM 72.0°F22.2°C 60.4°F15.8°C 67% 11.1 mph ESE17.9 kmh ESE 13.0 mph20.9 kmh 30.10 in1019.3 mb 0.00 in0.0 mm 0.00 in0.0 mm 0.00 in0.0 mm
10:12 AM 72.0°F22.2°C 60.4°F15.8°C 67% 13.5 mph ESE21.7 kmh ESE 18.0 mph29.0 kmh 30.10 in1019.3 mb 0.00 in0.0 mm 0.00 in0.0 mm 0.00 in0.0 mm
10:13 AM 72.0°F22.2°C 60.4°F15.8°C 67% 13.0 mph E20.9 kmh E 16.0 mph25.7 kmh 30.10 in1019.3 mb 0.00 in0.0 mm 0.00 in0.0 mm 0.00 in0.0 mm
10:14 AM 71.9°F22.2°C 60.3°F15.7°C 67% 13.0 mph E20.9 kmh E 16.0 mph25.7 kmh 30.10 in1019.3 mb 0.00 in0.0 mm 0.00 in0.0 mm 0.00 in0.0 mm
10:30 AM 72.3°F22.4°C 61.1°F16.2°C 68% 14.0 mph ESE22.5 kmh ESE 19.0 mph30.6 kmh 30.10 in1019.3 mb 0.00 in0.0 mm 0.00 in0.0 mm 0.00 in0.0 mm
10:31 AM 72.1°F22.3°C 60.9°F16.1°C 68% 11.0 mph ESE17.7 kmh ESE 15.0 mph24.1 kmh 30.10 in1019.3 mb 0.00 in0.0 mm 0.00 in0.0 mm 0.00 in0.0 mm
10:32 AM 72.1°F22.3°C 60.9°F16.1°C 68% 13.0 mph ESE20.9 kmh ESE 18.0 mph29.0 kmh 30.10 in1019.3 mb 0.00 in0.0 mm 0.00 in0.0 mm 0.00 in0.0 mm
10:33 AM 72.0°F22.2°C 60.8°F16.0°C 68% 11.0 mph E17.7 kmh E 13.0 mph20.9 kmh 30.10 in1019.3 mb 0.00 in0.0 mm 0.00 in0.0 mm 0.00 in0.0 mm
10:34 AM 72.0°F22.2°C 60.4°F15.8°C 67% 16.0 mph E25.7 kmh E 21.0 mph33.8 kmh 30.10 in1019.3 mb 0.00 in0.0 mm 0.00 in0.0 mm 0.00 in0.0 mm
10:35 AM 71.8°F22.1°C 60.7°F15.9°C 68% 11.0 mph E17.7 kmh E 15.0 mph24.1 kmh 30.10 in1019.3 mb 0.00 in0.0 mm 0.00 in0.0 mm 0.00 in0.0 mm
10:36 AM 71.7°F22.1°C 60.6°F15.9°C 68% 14.0 mph E22.5 kmh E 19.0 mph30.6 kmh 30.10 in1019.3 mb 0.00 in0.0 mm 0.00 in0.0 mm 0.00 in0.0 mm
10:37 AM 71.5°F21.9°C 60.4°F15.8°C 68% 13.0 mph E20.9 kmh E 18.0 mph29.0 kmh 30.10 in1019.3 mb 0.00 in0.0 mm 0.00 in0.0 mm 0.00 in0.0 mm
10:38 AM 71.5°F21.9°C 60.8°F16.0°C 69% 11.0 mph E17.7 kmh E 19.0 mph30.6 kmh 30.10 in1019.3 mb 0.00 in0.0 mm 0.00 in0.0 mm 0.00 in0.0 mm
10:39 AM 71.3°F21.8°C 60.2°F15.7°C 68% 17.5 mph E28.2 kmh E 19.0 mph30.6 kmh 30.10 in1019.3 mb 0.00 in0.0 mm 0.00 in0.0 mm 0.00 in0.0 mm
10:40 AM 71.3°F21.8°C 60.6°F15.9°C 69% 14.0 mph E22.5 kmh E 19.0 mph30.6 kmh 30.10 in1019.3 mb 0.00 in0.0 mm 0.00 in0.0 mm 0.00 in0.0 mm
10:41 AM 71.1°F21.7°C 60.4°F15.8°C 69% 15.0 mph E24.1 kmh E 23.0 mph37.0 kmh 30.10 in1019.3 mb 0.00 in0.0 mm 0.00 in0.0 mm 0.00 in0.0 mm
10:42 AM 71.0°F21.7°C 59.9°F15.5°C 68% 16.3 mph E26.2 kmh E 19.0 mph30.6 kmh 30.10 in1019.3 mb 0.00 in0.0 mm 0.00 in0.0 mm 0.00 in0.0 mm
11:04 AM 72.1°F22.3°C 60.5°F15.8°C 67% 18.0 mph E29.0 kmh E 21.0 mph33.8 kmh 30.09 in1019.0 mb 0.00 in0.0 mm 0.00 in0.0 mm 0.00 in0.0 mm
11:05 AM 72.1°F22.3°C 60.5°F15.8°C 67% 14.0 mph E22.5 kmh E 17.0 mph27.4 kmh 30.09 in1019.0 mb 0.00 in0.0 mm 0.00 in0.0 mm 0.00 in0.0 mm
11:06 AM 72.1°F22.3°C 60.5°F15.8°C 67% 13.0 mph E20.9 kmh E 17.0 mph27.4 kmh 30.09 in1019.0 mb 0.00 in0.0 mm 0.00 in0.0 mm 0.00 in0.0 mm
11:07 AM 72.1°F22.3°C 60.5°F15.8°C 67% 13.0 mph ESE20.9 kmh ESE 16.0 mph25.7 kmh 30.09 in1019.0 mb 0.00 in0.0 mm 0.00 in0.0 mm 0.00 in0.0 mm
11:08 AM 72.2°F22.3°C 60.2°F15.7°C 66% 15.0 mph E24.1 kmh E 17.0 mph27.4 kmh 30.09 in1019.0 mb 0.00 in0.0 mm 0.00 in0.0 mm 0.00 in0.0 mm
11:09 AM 72.2°F22.3°C 60.6°F15.9°C 67% 12.0 mph ESE19.3 kmh ESE 17.0 mph27.4 kmh 30.09 in1019.0 mb 0.00 in0.0 mm 0.00 in0.0 mm 0.00 in0.0 mm
11:10 AM 72.3°F22.4°C 60.7°F15.9°C 67% 10.0 mph ESE16.1 kmh ESE 15.0 mph24.1 kmh 30.09 in1019.0 mb 0.00 in0.0 mm 0.00 in0.0 mm 0.00 in0.0 mm
11:11 AM 72.4°F22.4°C 60.8°F16.0°C 67% 11.0 mph E17.7 kmh E 14.0 mph22.5 kmh 30.10 in1019.3 mb 0.00 in0.0 mm 0.00 in0.0 mm 0.00 in0.0 mm
11:12 AM 72.5°F22.5°C 60.9°F16.1°C 67% 12.0 mph E19.3 kmh E 16.0 mph25.7 kmh 30.09 in1019.0 mb 0.00 in0.0 mm 0.00 in0.0 mm 0.00 in0.0 mm
11:13 AM 72.6°F22.6°C 61.0°F16.1°C 67% 11.7 mph E18.8 kmh E 14.0 mph22.5 kmh 30.09 in1019.0 mb 0.00 in0.0 mm 0.00 in0.0 mm 0.00 in0.0 mm
11:14 AM 72.6°F22.6°C 61.0°F16.1°C 67% 14.6 mph E23.5 kmh E 19.0 mph30.6 kmh 30.09 in1019.0 mb 0.00 in0.0 mm 0.00 in0.0 mm 0.00 in0.0 mm
11:15 AM 72.6°F22.6°C 60.1°F15.6°C 65% 20.0 mph E32.2 kmh E 25.0 mph40.2 kmh 30.09 in1019.0 mb 0.00 in0.0 mm 0.00 in0.0 mm 0.00 in0.0 mm
11:16 AM 72.4°F22.4°C 60.0°F15.6°C 65% 19.0 mph E30.6 kmh E 24.0 mph38.6 kmh 30.09 in1019.0 mb 0.00 in0.0 mm 0.00 in0.0 mm 0.00 in0.0 mm
11:41 AM 72.9°F22.7°C 60.4°F15.8°C 65% 14.0 mph ESE22.5 kmh ESE 17.0 mph27.4 kmh 30.10 in1019.3 mb 0.00 in0.0 mm 0.00 in0.0 mm 0.00 in0.0 mm
11:42 AM 72.8°F22.7°C 60.3°F15.7°C 65% 14.0 mph ESE22.5 kmh ESE 17.0 mph27.4 kmh 30.10 in1019.3 mb 0.00 in0.0 mm 0.00 in0.0 mm 0.00 in0.0 mm
11:43 AM 72.7°F22.6°C 60.2°F15.7°C 65% 12.0 mph ESE19.3 kmh ESE 16.0 mph25.7 kmh 30.10 in1019.3 mb 0.00 in0.0 mm 0.00 in0.0 mm 0.00 in0.0 mm
11:44 AM 72.6°F22.6°C 60.1°F15.6°C 65% 11.8 mph E19.0 kmh E 13.0 mph20.9 kmh 30.10 in1019.3 mb 0.00 in0.0 mm 0.00 in0.0 mm 0.00 in0.0 mm
11:45 AM 72.5°F22.5°C 60.5°F15.8°C 66% 13.0 mph ESE20.9 kmh ESE 16.0 mph25.7 kmh 30.10 in1019.3 mb 0.00 in0.0 mm 0.00 in0.0 mm 0.00 in0.0 mm
11:46 AM 72.4°F22.4°C 60.4°F15.8°C 66% 12.0 mph E19.3 kmh E 14.0 mph22.5 kmh 30.10 in1019.3 mb 0.00 in0.0 mm 0.00 in0.0 mm 0.00 in0.0 mm
11:47 AM 72.3°F22.4°C 60.3°F15.7°C 66% 14.0 mph E22.5 kmh E 18.0 mph29.0 kmh 30.10 in1019.3 mb 0.00 in0.0 mm 0.00 in0.0 mm 0.00 in0.0 mm
11:48 AM 72.1°F22.3°C 60.1°F15.6°C 66% 12.0 mph E19.3 kmh E 16.0 mph25.7 kmh 30.10 in1019.3 mb 0.00 in0.0 mm 0.00 in0.0 mm 0.00 in0.0 mm
11:49 AM 72.0°F22.2°C 60.4°F15.8°C 67% 11.0 mph ESE17.7 kmh ESE 15.0 mph24.1 kmh 30.10 in1019.3 mb 0.00 in0.0 mm 0.00 in0.0 mm 0.00 in0.0 mm
11:50 AM 72.0°F22.2°C 60.4°F15.8°C 67% 12.0 mph E19.3 kmh E 17.0 mph27.4 kmh 30.10 in1019.3 mb 0.00 in0.0 mm 0.00 in0.0 mm 0.00 in0.0 mm
11:51 AM 71.9°F22.2°C 60.3°F15.7°C 67% 16.0 mph E25.7 kmh E 20.0 mph32.2 kmh 30.10 in1019.3 mb 0.00 in0.0 mm 0.00 in0.0 mm 0.00 in0.0 mm
11:52 AM 71.7°F22.1°C 60.1°F15.6°C 67% 15.8 mph E25.4 kmh E 20.0 mph32.2 kmh 30.10 in1019.3 mb 0.00 in0.0 mm 0.00 in0.0 mm 0.00 in0.0 mm
11:53 AM 71.6°F22.0°C 60.0°F15.6°C 67% 14.8 mph E23.8 kmh E 20.0 mph32.2 kmh 30.10 in1019.3 mb 0.00 in0.0 mm 0.00 in0.0 mm 0.00 in0.0 mm
12:15 PM 70.7°F21.5°C 59.6°F15.3°C 68% 15.0 mph E24.1 kmh E 16.0 mph25.7 kmh 30.09 in1019.0 mb 0.00 in0.0 mm 0.00 in0.0 mm 0.00 in0.0 mm
12:16 PM 70.5°F21.4°C 59.4°F15.2°C 68% 16.0 mph E25.7 kmh E 20.0 mph32.2 kmh 30.09 in1019.0 mb 0.00 in0.0 mm 0.00 in0.0 mm 0.00 in0.0 mm
12:17 PM 70.3°F21.3°C 59.2°F15.1°C 68% 15.0 mph E24.1 kmh E 18.0 mph29.0 kmh 30.09 in1019.0 mb 0.00 in0.0 mm 0.00 in0.0 mm 0.00 in0.0 mm
12:18 PM 70.2°F21.2°C 59.5°F15.3°C 69% 13.0 mph E20.9 kmh E 16.0 mph25.7 kmh 30.09 in1019.0 mb 0.00 in0.0 mm 0.00 in0.0 mm 0.00 in0.0 mm
12:19 PM 70.2°F21.2°C 59.5°F15.3°C 69% 14.0 mph E22.5 kmh E 16.0 mph25.7 kmh 30.09 in1019.0 mb 0.00 in0.0 mm 0.00 in0.0 mm 0.00 in0.0 mm
12:20 PM 70.1°F21.2°C 59.4°F15.2°C 69% 15.1 mph E24.3 kmh E 19.0 mph30.6 kmh 30.09 in1019.0 mb 0.00 in0.0 mm 0.00 in0.0 mm 0.00 in0.0 mm
12:21 PM 70.0°F21.1°C 59.4°F15.2°C 69% 15.0 mph E24.1 kmh E 18.0 mph29.0 kmh 30.09 in1019.0 mb 0.00 in0.0 mm 0.00 in0.0 mm 0.00 in0.0 mm
12:22 PM 70.0°F21.1°C 59.4°F15.2°C 69% 13.0 mph E20.9 kmh E 18.0 mph29.0 kmh 30.09 in1019.0 mb 0.00 in0.0 mm 0.00 in0.0 mm 0.00 in0.0 mm
12:23 PM 70.0°F21.1°C 59.4°F15.2°C 69% 8.7 mph ESE14.0 kmh ESE 10.0 mph16.1 kmh 30.09 in1019.0 mb 0.00 in0.0 mm 0.00 in0.0 mm 0.00 in0.0 mm
12:24 PM 70.0°F21.1°C 59.8°F15.4°C 70% 9.0 mph ESE14.5 kmh ESE 11.0 mph17.7 kmh 30.09 in1019.0 mb 0.00 in0.0 mm 0.00 in0.0 mm 0.00 in0.0 mm
12:25 PM 70.0°F21.1°C 59.8°F15.4°C 70% 8.0 mph ESE12.9 kmh ESE 10.0 mph16.1 kmh 30.09 in1019.0 mb 0.00 in0.0 mm 0.00 in0.0 mm 0.00 in0.0 mm
12:26 PM 70.0°F21.1°C 59.8°F15.4°C 70% 9.5 mph E15.3 kmh E 14.0 mph22.5 kmh 30.09 in1019.0 mb 0.00 in0.0 mm 0.00 in0.0 mm 0.00 in0.0 mm
12:27 PM 70.0°F21.1°C 59.8°F15.4°C 70% 10.0 mph E16.1 kmh E 12.0 mph19.3 kmh 30.09 in1019.0 mb 0.00 in0.0 mm 0.00 in0.0 mm 0.00 in0.0 mm
12:28 PM 69.9°F21.1°C 59.7°F15.4°C 70% 11.0 mph ENE17.7 kmh ENE 15.0 mph24.1 kmh 30.09 in1019.0 mb 0.00 in0.0 mm 0.00 in0.0 mm 0.00 in0.0 mm
12:43 PM 68.1°F20.1°C 59.9°F15.5°C 75% 12.0 mph E19.3 kmh E 16.0 mph25.7 kmh 30.08 in1018.6 mb 0.03 in0.8 mm 0.12 in3.0 mm 0.03 in0.8 mm
12:44 PM 67.9°F19.9°C 60.0°F15.6°C 76% 10.0 mph ENE16.1 kmh ENE 12.0 mph19.3 kmh 30.08 in1018.6 mb 0.03 in0.8 mm 0.00 in0.0 mm 0.03 in0.8 mm
12:45 PM 67.7°F19.8°C 59.9°F15.5°C 76% 12.2 mph E19.6 kmh E 13.0 mph20.9 kmh 30.08 in1018.6 mb 0.04 in1.0 mm 0.60 in15.2 mm 0.04 in1.0 mm
12:46 PM 67.6°F19.8°C 60.1°F15.6°C 77% 11.0 mph ENE17.7 kmh ENE 14.0 mph22.5 kmh 30.08 in1018.6 mb 0.04 in1.0 mm 0.00 in0.0 mm 0.04 in1.0 mm
12:47 PM 67.4°F19.7°C 60.3°F15.7°C 78% 11.0 mph ENE17.7 kmh ENE 13.0 mph20.9 kmh 30.08 in1018.6 mb 0.04 in1.0 mm 0.00 in0.0 mm 0.04 in1.0 mm
12:48 PM 67.3°F19.6°C 60.2°F15.7°C 78% 13.6 mph ENE21.9 kmh ENE 14.0 mph22.5 kmh 30.08 in1018.6 mb 0.04 in1.0 mm 0.00 in0.0 mm 0.04 in1.0 mm
12:49 PM 67.2°F19.6°C 60.1°F15.6°C 78% 10.3 mph ENE16.6 kmh ENE 14.0 mph22.5 kmh 30.08 in1018.6 mb 0.04 in1.0 mm 0.00 in0.0 mm 0.04 in1.0 mm
12:50 PM 67.1°F19.5°C 60.0°F15.6°C 78% 10.3 mph E16.6 kmh E 14.0 mph22.5 kmh 30.08 in1018.6 mb 0.05 in1.3 mm 0.60 in15.2 mm 0.05 in1.3 mm
12:51 PM 67.0°F19.4°C 60.3°F15.7°C 79% 10.0 mph E16.1 kmh E 16.0 mph25.7 kmh 30.08 in1018.6 mb 0.05 in1.3 mm 0.00 in0.0 mm 0.05 in1.3 mm
12:52 PM 67.0°F19.4°C 60.3°F15.7°C 79% 13.0 mph ENE20.9 kmh ENE 17.0 mph27.4 kmh 30.08 in1018.6 mb 0.06 in1.5 mm 0.60 in15.2 mm 0.06 in1.5 mm
12:53 PM 66.8°F19.3°C 60.1°F15.6°C 79% 12.6 mph E20.3 kmh E 15.0 mph24.1 kmh 30.08 in1018.6 mb 0.06 in1.5 mm 0.00 in0.0 mm 0.06 in1.5 mm
12:54 PM 66.7°F19.3°C 60.0°F15.6°C 79% 12.0 mph ENE19.3 kmh ENE 16.0 mph25.7 kmh 30.08 in1018.6 mb 0.07 in1.8 mm 0.60 in15.2 mm 0.07 in1.8 mm
12:55 PM 66.6°F19.2°C 60.2°F15.7°C 80% 12.0 mph ENE19.3 kmh ENE 15.0 mph24.1 kmh 30.08 in1018.6 mb 0.07 in1.8 mm 0.00 in0.0 mm 0.07 in1.8 mm
01:10 PM 66.3°F19.1°C 60.3°F15.7°C 81% 8.0 mph E12.9 kmh E 11.0 mph17.7 kmh 30.08 in1018.6 mb 0.07 in1.8 mm 0.00 in0.0 mm 0.07 in1.8 mm
01:11 PM 66.3°F19.1°C 60.3°F15.7°C 81% 7.0 mph ENE11.3 kmh ENE 9.0 mph14.5 kmh 30.08 in1018.6 mb 0.07 in1.8 mm 0.00 in0.0 mm 0.07 in1.8 mm
01:12 PM 66.3°F19.1°C 60.3°F15.7°C 81% 9.0 mph ENE14.5 kmh ENE 12.0 mph19.3 kmh 30.08 in1018.6 mb 0.07 in1.8 mm 0.00 in0.0 mm 0.07 in1.8 mm
01:13 PM 66.2°F19.0°C 60.2°F15.7°C 81% 8.0 mph E12.9 kmh E 11.0 mph17.7 kmh 30.08 in1018.6 mb 0.07 in1.8 mm 0.00 in0.0 mm 0.07 in1.8 mm
01:14 PM 66.4°F19.1°C 60.4°F15.8°C 81% 9.0 mph E14.5 kmh E 12.0 mph19.3 kmh 30.08 in1018.6 mb 0.07 in1.8 mm 0.00 in0.0 mm 0.07 in1.8 mm
01:15 PM 66.4°F19.1°C 60.4°F15.8°C 81% 9.8 mph E15.8 kmh E 11.0 mph17.7 kmh 30.08 in1018.6 mb 0.07 in1.8 mm 0.00 in0.0 mm 0.07 in1.8 mm
01:16 PM 66.4°F19.1°C 60.4°F15.8°C 81% 8.8 mph E14.2 kmh E 11.0 mph17.7 kmh 30.08 in1018.6 mb 0.07 in1.8 mm 0.00 in0.0 mm 0.07 in1.8 mm
01:17 PM 66.4°F19.1°C 60.4°F15.8°C 81% 8.0 mph E12.9 kmh E 10.0 mph16.1 kmh 30.08 in1018.6 mb 0.07 in1.8 mm 0.00 in0.0 mm 0.07 in1.8 mm
01:18 PM 66.3°F19.1°C 60.3°F15.7°C 81% 8.0 mph E12.9 kmh E 12.0 mph19.3 kmh 30.08 in1018.6 mb 0.07 in1.8 mm 0.00 in0.0 mm 0.07 in1.8 mm
01:19 PM 66.4°F19.1°C 60.4°F15.8°C 81% 6.0 mph ENE9.7 kmh ENE 10.0 mph16.1 kmh 30.08 in1018.6 mb 0.07 in1.8 mm 0.00 in0.0 mm 0.07 in1.8 mm
01:20 PM 66.5°F19.2°C 60.5°F15.8°C 81% 7.0 mph ENE11.3 kmh ENE 12.0 mph19.3 kmh 30.08 in1018.6 mb 0.07 in1.8 mm 0.00 in0.0 mm 0.07 in1.8 mm
01:21 PM 66.5°F19.2°C 60.5°F15.8°C 81% 8.0 mph ENE12.9 kmh ENE 10.0 mph16.1 kmh 30.08 in1018.6 mb 0.07 in1.8 mm 0.00 in0.0 mm 0.07 in1.8 mm
01:22 PM 66.5°F19.2°C 60.5°F15.8°C 81% 8.0 mph E12.9 kmh E 11.0 mph17.7 kmh 30.08 in1018.6 mb 0.07 in1.8 mm 0.00 in0.0 mm 0.07 in1.8 mm
01:23 PM 66.5°F19.2°C 60.5°F15.8°C 81% 7.0 mph ENE11.3 kmh ENE 9.0 mph14.5 kmh 30.08 in1018.6 mb 0.07 in1.8 mm 0.00 in0.0 mm 0.07 in1.8 mm
01:51 PM 68.2°F20.1°C 61.1°F16.2°C 78% 4.0 mph E6.4 kmh E 5.0 mph8.0 kmh 30.08 in1018.6 mb 0.02 in0.5 mm 0.00 in0.0 mm 0.07 in1.8 mm
01:52 PM 68.4°F20.2°C 61.3°F16.3°C 78% 4.0 mph E6.4 kmh E 7.0 mph11.3 kmh 30.08 in1018.6 mb 0.02 in0.5 mm 0.00 in0.0 mm 0.07 in1.8 mm
01:53 PM 68.5°F20.3°C 61.0°F16.1°C 77% 6.0 mph E9.7 kmh E 8.0 mph12.9 kmh 30.09 in1019.0 mb 0.01 in0.3 mm 0.00 in0.0 mm 0.07 in1.8 mm
01:54 PM 68.5°F20.3°C 60.6°F15.9°C 76% 5.0 mph ENE8.0 kmh ENE 8.0 mph12.9 kmh 30.08 in1018.6 mb 0.00 in0.0 mm 0.00 in0.0 mm 0.07 in1.8 mm
01:55 PM 68.7°F20.4°C 60.8°F16.0°C 76% 4.1 mph E6.6 kmh E 6.0 mph9.7 kmh 30.08 in1018.6 mb 0.00 in0.0 mm 0.00 in0.0 mm 0.07 in1.8 mm
02:12 PM 69.9°F21.1°C 61.6°F16.4°C 75% 6.0 mph ENE9.7 kmh ENE 8.0 mph12.9 kmh 30.08 in1018.6 mb 0.00 in0.0 mm 0.00 in0.0 mm 0.07 in1.8 mm
02:13 PM 69.9°F21.1°C 61.2°F16.2°C 74% 7.0 mph ENE11.3 kmh ENE 9.0 mph14.5 kmh 30.08 in1018.6 mb 0.00 in0.0 mm 0.00 in0.0 mm 0.07 in1.8 mm
02:14 PM 70.0°F21.1°C 61.3°F16.3°C 74% 5.7 mph NE9.2 kmh NE 9.0 mph14.5 kmh 30.08 in1018.6 mb 0.00 in0.0 mm 0.00 in0.0 mm 0.07 in1.8 mm
02:15 PM 70.0°F21.1°C 61.7°F16.5°C 75% 4.0 mph NE6.4 kmh NE 10.0 mph16.1 kmh 30.08 in1018.6 mb 0.00 in0.0 mm 0.00 in0.0 mm 0.07 in1.8 mm
02:16 PM 70.1°F21.2°C 61.8°F16.6°C 75% 7.0 mph ENE11.3 kmh ENE 10.0 mph16.1 kmh 30.08 in1018.6 mb 0.00 in0.0 mm 0.00 in0.0 mm 0.07 in1.8 mm
02:17 PM 70.1°F21.2°C 61.8°F16.6°C 75% 7.0 mph NE11.3 kmh NE 10.0 mph16.1 kmh 30.08 in1018.6 mb 0.00 in0.0 mm 0.00 in0.0 mm 0.07 in1.8 mm
02:18 PM 70.1°F21.2°C 61.8°F16.6°C 75% 7.0 mph ENE11.3 kmh ENE 11.0 mph17.7 kmh 30.08 in1018.6 mb 0.00 in0.0 mm 0.00 in0.0 mm 0.07 in1.8 mm
02:19 PM 70.2°F21.2°C 61.9°F16.6°C 75% 6.0 mph NE9.7 kmh NE 9.0 mph14.5 kmh 30.08 in1018.6 mb 0.00 in0.0 mm 0.00 in0.0 mm 0.07 in1.8 mm
02:20 PM 70.2°F21.2°C 61.9°F16.6°C 75% 6.0 mph NE9.7 kmh NE 11.0 mph17.7 kmh 30.08 in1018.6 mb 0.00 in0.0 mm 0.00 in0.0 mm 0.07 in1.8 mm
02:21 PM 70.2°F21.2°C 62.3°F16.8°C 76% 9.0 mph NE14.5 kmh NE 13.0 mph20.9 kmh 30.08 in1018.6 mb 0.00 in0.0 mm 0.00 in0.0 mm 0.07 in1.8 mm
02:22 PM 70.2°F21.2°C 62.3°F16.8°C 76% 7.0 mph NE11.3 kmh NE 10.0 mph16.1 kmh 30.08 in1018.6 mb 0.00 in0.0 mm 0.00 in0.0 mm 0.07 in1.8 mm
02:23 PM 70.3°F21.3°C 62.4°F16.9°C 76% 7.0 mph NE11.3 kmh NE 9.0 mph14.5 kmh 30.08 in1018.6 mb 0.00 in0.0 mm 0.00 in0.0 mm 0.07 in1.8 mm
02:24 PM 70.3°F21.3°C 62.4°F16.9°C 76% 6.0 mph ENE9.7 kmh ENE 8.0 mph12.9 kmh 30.08 in1018.6 mb 0.00 in0.0 mm 0.00 in0.0 mm 0.07 in1.8 mm
02:25 PM 70.3°F21.3°C 62.4°F16.9°C 76% 5.0 mph NE8.0 kmh NE 9.0 mph14.5 kmh 30.08 in1018.6 mb 0.00 in0.0 mm 0.00 in0.0 mm 0.07 in1.8 mm
02:26 PM 70.3°F21.3°C 62.4°F16.9°C 76% 7.0 mph NE11.3 kmh NE 10.0 mph16.1 kmh 30.07 in1018.3 mb 0.00 in0.0 mm 0.00 in0.0 mm 0.07 in1.8 mm
02:27 PM 70.4°F21.3°C 62.5°F16.9°C 76% 10.0 mph NE16.1 kmh NE 13.0 mph20.9 kmh 30.07 in1018.3 mb 0.00 in0.0 mm 0.00 in0.0 mm 0.07 in1.8 mm
02:28 PM 70.4°F21.3°C 62.5°F16.9°C 76% 9.0 mph NE14.5 kmh NE 12.0 mph19.3 kmh 30.07 in1018.3 mb 0.00 in0.0 mm 0.00 in0.0 mm 0.07 in1.8 mm
02:29 PM 70.4°F21.3°C 62.5°F16.9°C 76% 9.0 mph NE14.5 kmh NE 11.0 mph17.7 kmh 30.07 in1018.3 mb 0.00 in0.0 mm 0.00 in0.0 mm 0.07 in1.8 mm
02:30 PM 70.4°F21.3°C 62.5°F16.9°C 76% 6.0 mph NE9.7 kmh NE 9.0 mph14.5 kmh 30.07 in1018.3 mb 0.00 in0.0 mm 0.00 in0.0 mm 0.07 in1.8 mm
02:31 PM 70.5°F21.4°C 62.6°F17.0°C 76% 5.0 mph NE8.0 kmh NE 6.0 mph9.7 kmh 30.07 in1018.3 mb 0.00 in0.0 mm 0.00 in0.0 mm 0.07 in1.8 mm
02:32 PM 70.5°F21.4°C 62.6°F17.0°C 76% 9.0 mph NE14.5 kmh NE 11.0 mph17.7 kmh 30.07 in1018.3 mb 0.00 in0.0 mm 0.00 in0.0 mm 0.07 in1.8 mm
02:33 PM 70.5°F21.4°C 62.6°F17.0°C 76% 7.0 mph NE11.3 kmh NE 10.0 mph16.1 kmh 30.07 in1018.3 mb 0.00 in0.0 mm 0.00 in0.0 mm 0.07 in1.8 mm
02:34 PM 70.5°F21.4°C 62.6°F17.0°C 76% 5.0 mph E8.0 kmh E 10.0 mph16.1 kmh 30.07 in1018.3 mb 0.00 in0.0 mm 0.00 in0.0 mm 0.07 in1.8 mm
02:35 PM 70.5°F21.4°C 62.6°F17.0°C 76% 7.0 mph ENE11.3 kmh ENE 9.0 mph14.5 kmh 30.07 in1018.3 mb 0.00 in0.0 mm 0.00 in0.0 mm 0.07 in1.8 mm
02:36 PM 70.6°F21.4°C 62.3°F16.8°C 75% 4.0 mph ENE6.4 kmh ENE 7.0 mph11.3 kmh 30.07 in1018.3 mb 0.00 in0.0 mm 0.00 in0.0 mm 0.07 in1.8 mm
02:37 PM 70.6°F21.4°C 62.7°F17.1°C 76% 6.8 mph ENE10.9 kmh ENE 9.0 mph14.5 kmh 30.08 in1018.6 mb 0.00 in0.0 mm 0.00 in0.0 mm 0.07 in1.8 mm
02:38 PM 70.6°F21.4°C 61.9°F16.6°C 74% 8.0 mph ENE12.9 kmh ENE 10.0 mph16.1 kmh 30.08 in1018.6 mb 0.00 in0.0 mm 0.00 in0.0 mm 0.07 in1.8 mm
02:39 PM 70.6°F21.4°C 61.9°F16.6°C 74% 5.0 mph ENE8.0 kmh ENE 10.0 mph16.1 kmh 30.08 in1018.6 mb 0.00 in0.0 mm 0.00 in0.0 mm 0.07 in1.8 mm
02:40 PM 70.6°F21.4°C 61.9°F16.6°C 74% 6.0 mph ENE9.7 kmh ENE 9.0 mph14.5 kmh 30.08 in1018.6 mb 0.00 in0.0 mm 0.00 in0.0 mm 0.07 in1.8 mm
02:41 PM 70.6°F21.4°C 61.9°F16.6°C 74% 8.0 mph E12.9 kmh E 9.0 mph14.5 kmh 30.08 in1018.6 mb 0.00 in0.0 mm 0.00 in0.0 mm 0.07 in1.8 mm
02:42 PM 70.6°F21.4°C 61.5°F16.4°C 73% 11.1 mph NE17.9 kmh NE 12.0 mph19.3 kmh 30.08 in1018.6 mb 0.00 in0.0 mm 0.00 in0.0 mm 0.07 in1.8 mm
02:43 PM 70.5°F21.4°C 61.4°F16.3°C 73% 9.5 mph ENE15.3 kmh ENE 12.0 mph19.3 kmh 30.08 in1018.6 mb 0.00 in0.0 mm 0.00 in0.0 mm 0.07 in1.8 mm
02:44 PM 70.6°F21.4°C 61.5°F16.4°C 73% 8.0 mph E12.9 kmh E 11.0 mph17.7 kmh 30.08 in1018.6 mb 0.00 in0.0 mm 0.00 in0.0 mm 0.07 in1.8 mm
02:45 PM 70.5°F21.4°C 61.0°F16.1°C 72% 9.0 mph ENE14.5 kmh ENE 10.0 mph16.1 kmh 30.08 in1018.6 mb 0.00 in0.0 mm 0.00 in0.0 mm 0.07 in1.8 mm
02:46 PM 70.5°F21.4°C 61.0°F16.1°C 72% 9.8 mph E15.8 kmh E 13.0 mph20.9 kmh 30.08 in1018.6 mb 0.00 in0.0 mm 0.00 in0.0 mm 0.07 in1.8 mm
02:47 PM 70.4°F21.3°C 60.9°F16.1°C 72% 7.0 mph ENE11.3 kmh ENE 9.0 mph14.5 kmh 30.08 in1018.6 mb 0.00 in0.0 mm 0.00 in0.0 mm 0.07 in1.8 mm
02:48 PM 70.4°F21.3°C 60.9°F16.1°C 72% 7.0 mph ENE11.3 kmh ENE 10.0 mph16.1 kmh 30.08 in1018.6 mb 0.00 in0.0 mm 0.00 in0.0 mm 0.07 in1.8 mm
02:49 PM 70.4°F21.3°C 60.9°F16.1°C 72% 7.3 mph ENE11.7 kmh ENE 9.0 mph14.5 kmh 30.08 in1018.6 mb 0.00 in0.0 mm 0.00 in0.0 mm 0.07 in1.8 mm
02:50 PM 70.4°F21.3°C 60.9°F16.1°C 72% 7.0 mph E11.3 kmh E 9.0 mph14.5 kmh 30.08 in1018.6 mb 0.00 in0.0 mm 0.00 in0.0 mm 0.07 in1.8 mm
02:51 PM 70.4°F21.3°C 60.9°F16.1°C 72% 8.0 mph ENE12.9 kmh ENE 12.0 mph19.3 kmh 30.08 in1018.6 mb 0.00 in0.0 mm 0.00 in0.0 mm 0.07 in1.8 mm
02:52 PM 70.4°F21.3°C 60.5°F15.8°C 71% 11.0 mph E17.7 kmh E 14.0 mph22.5 kmh 30.08 in1018.6 mb 0.00 in0.0 mm 0.00 in0.0 mm 0.07 in1.8 mm
02:53 PM 70.2°F21.2°C 60.3°F15.7°C 71% 11.0 mph E17.7 kmh E 14.0 mph22.5 kmh 30.08 in1018.6 mb 0.00 in0.0 mm 0.00 in0.0 mm 0.07 in1.8 mm
02:54 PM 70.2°F21.2°C 60.3°F15.7°C 71% 6.5 mph ESE10.5 kmh ESE 8.0 mph12.9 kmh 30.08 in1018.6 mb 0.00 in0.0 mm 0.00 in0.0 mm 0.07 in1.8 mm
02:55 PM 70.2°F21.2°C 60.3°F15.7°C 71% 7.8 mph E12.6 kmh E 10.0 mph16.1 kmh 30.08 in1018.6 mb 0.00 in0.0 mm 0.00 in0.0 mm 0.07 in1.8 mm
02:56 PM 70.2°F21.2°C 60.3°F15.7°C 71% 8.0 mph E12.9 kmh E 12.0 mph19.3 kmh 30.08 in1018.6 mb 0.00 in0.0 mm 0.00 in0.0 mm 0.07 in1.8 mm
02:57 PM 70.2°F21.2°C 60.3°F15.7°C 71% 7.0 mph E11.3 kmh E 9.0 mph14.5 kmh 30.08 in1018.6 mb 0.00 in0.0 mm 0.00 in0.0 mm 0.07 in1.8 mm
02:58 PM 70.2°F21.2°C 60.7°F15.9°C 72% 7.8 mph E12.6 kmh E 8.0 mph12.9 kmh 30.08 in1018.6 mb 0.00 in0.0 mm 0.00 in0.0 mm 0.07 in1.8 mm
02:59 PM 70.2°F21.2°C 60.3°F15.7°C 71% 9.0 mph E14.5 kmh E 11.0 mph17.7 kmh 30.08 in1018.6 mb 0.00 in0.0 mm 0.00 in0.0 mm 0.07 in1.8 mm
03:00 PM 70.2°F21.2°C 60.3°F15.7°C 71% 7.0 mph E11.3 kmh E 9.0 mph14.5 kmh 30.08 in1018.6 mb 0.00 in0.0 mm 0.00 in0.0 mm 0.07 in1.8 mm
03:01 PM 70.2°F21.2°C 60.3°F15.7°C 71% 7.0 mph E11.3 kmh E 9.0 mph14.5 kmh 30.08 in1018.6 mb 0.00 in0.0 mm 0.00 in0.0 mm 0.07 in1.8 mm
03:02 PM 70.1°F21.2°C 60.6°F15.9°C 72% 7.0 mph E11.3 kmh E 10.0 mph16.1 kmh 30.08 in1018.6 mb 0.00 in0.0 mm 0.00 in0.0 mm 0.07 in1.8 mm
03:03 PM 70.1°F21.2°C 60.6°F15.9°C 72% 7.0 mph E11.3 kmh E 8.0 mph12.9 kmh 30.08 in1018.6 mb 0.00 in0.0 mm 0.00 in0.0 mm 0.07 in1.8 mm
03:04 PM 70.1°F21.2°C 60.6°F15.9°C 72% 7.0 mph E11.3 kmh E 10.0 mph16.1 kmh 30.08 in1018.6 mb 0.00 in0.0 mm 0.00 in0.0 mm 0.07 in1.8 mm
03:05 PM 70.1°F21.2°C 60.6°F15.9°C 72% 5.0 mph E8.0 kmh E 7.0 mph11.3 kmh 30.08 in1018.6 mb 0.00 in0.0 mm 0.00 in0.0 mm 0.07 in1.8 mm
03:06 PM 70.1°F21.2°C 60.6°F15.9°C 72% 4.0 mph ESE6.4 kmh ESE 6.0 mph9.7 kmh 30.08 in1018.6 mb 0.00 in0.0 mm 0.00 in0.0 mm 0.07 in1.8 mm
03:07 PM 70.1°F21.2°C 60.6°F15.9°C 72% 2.0 mph E3.2 kmh E 4.0 mph6.4 kmh 30.08 in1018.6 mb 0.00 in0.0 mm 0.00 in0.0 mm 0.07 in1.8 mm
03:08 PM 70.0°F21.1°C 60.5°F15.8°C 72% 6.5 mph E10.5 kmh E 7.0 mph11.3 kmh 30.08 in1018.6 mb 0.00 in0.0 mm 0.00 in0.0 mm 0.07 in1.8 mm
03:09 PM 70.0°F21.1°C 60.9°F16.1°C 73% 3.0 mph ESE4.8 kmh ESE 5.0 mph8.0 kmh 30.08 in1018.6 mb 0.00 in0.0 mm 0.00 in0.0 mm 0.07 in1.8 mm
03:10 PM 70.0°F21.1°C 60.9°F16.1°C 73% 3.0 mph ESE4.8 kmh ESE 6.0 mph9.7 kmh 30.08 in1018.6 mb 0.00 in0.0 mm 0.00 in0.0 mm 0.07 in1.8 mm
03:11 PM 69.9°F21.1°C 60.8°F16.0°C 73% 3.0 mph ESE4.8 kmh ESE 4.0 mph6.4 kmh 30.08 in1018.6 mb 0.00 in0.0 mm 0.00 in0.0 mm 0.07 in1.8 mm
03:12 PM 70.0°F21.1°C 60.9°F16.1°C 73% 1.0 mph ESE1.6 kmh ESE 3.0 mph4.8 kmh 30.08 in1018.6 mb 0.00 in0.0 mm 0.00 in0.0 mm 0.07 in1.8 mm
03:13 PM 70.0°F21.1°C 61.3°F16.3°C 74% 2.0 mph ESE3.2 kmh ESE 3.0 mph4.8 kmh 30.09 in1019.0 mb 0.00 in0.0 mm 0.00 in0.0 mm 0.07 in1.8 mm
03:14 PM 70.0°F21.1°C 60.9°F16.1°C 73% 6.0 mph ESE9.7 kmh ESE 8.0 mph12.9 kmh 30.09 in1019.0 mb 0.01 in0.3 mm 0.60 in15.2 mm 0.08 in2.0 mm
03:15 PM 69.9°F21.1°C 60.8°F16.0°C 73% 1.9 mph SE3.1 kmh SE 3.0 mph4.8 kmh 30.09 in1019.0 mb 0.02 in0.5 mm 0.60 in15.2 mm 0.09 in2.3 mm
03:16 PM 69.9°F21.1°C 61.2°F16.2°C 74% 2.1 mph SE3.4 kmh SE 3.0 mph4.8 kmh 30.09 in1019.0 mb 0.03 in0.8 mm 0.60 in15.2 mm 0.10 in2.5 mm
03:17 PM 69.9°F21.1°C 61.2°F16.2°C 74% 5.0 mph ESE8.0 kmh ESE 7.0 mph11.3 kmh 30.09 in1019.0 mb 0.03 in0.8 mm 0.00 in0.0 mm 0.10 in2.5 mm
03:18 PM 69.8°F21.0°C 61.1°F16.2°C 74% 6.0 mph ESE9.7 kmh ESE 8.0 mph12.9 kmh 30.09 in1019.0 mb 0.03 in0.8 mm 0.00 in0.0 mm 0.10 in2.5 mm
03:19 PM 69.7°F20.9°C 61.0°F16.1°C 74% 3.0 mph E4.8 kmh E 6.0 mph9.7 kmh 30.09 in1019.0 mb 0.03 in0.8 mm 0.00 in0.0 mm 0.10 in2.5 mm
03:20 PM 69.6°F20.9°C 61.3°F16.3°C 75% 2.6 mph ESE4.2 kmh ESE 7.0 mph11.3 kmh 30.09 in1019.0 mb 0.03 in0.8 mm 0.00 in0.0 mm 0.10 in2.5 mm
03:21 PM 69.5°F20.8°C 61.2°F16.2°C 75% 4.0 mph ESE6.4 kmh ESE 5.0 mph8.0 kmh 30.09 in1019.0 mb 0.03 in0.8 mm 0.00 in0.0 mm 0.10 in2.5 mm
03:22 PM 69.5°F20.8°C 61.2°F16.2°C 75% 5.0 mph ESE8.0 kmh ESE 7.0 mph11.3 kmh 30.09 in1019.0 mb 0.03 in0.8 mm 0.00 in0.0 mm 0.10 in2.5 mm
03:23 PM 69.4°F20.8°C 60.7°F15.9°C 74% 3.0 mph SE4.8 kmh SE 4.0 mph6.4 kmh 30.09 in1019.0 mb 0.03 in0.8 mm 0.00 in0.0 mm 0.10 in2.5 mm
03:24 PM 69.4°F20.8°C 61.1°F16.2°C 75% 5.0 mph SE8.0 kmh SE 5.0 mph8.0 kmh 30.09 in1019.0 mb 0.03 in0.8 mm 0.00 in0.0 mm 0.10 in2.5 mm
03:25 PM 69.3°F20.7°C 61.0°F16.1°C 75% 4.0 mph ESE6.4 kmh ESE 6.0 mph9.7 kmh 30.09 in1019.0 mb 0.03 in0.8 mm 0.00 in0.0 mm 0.10 in2.5 mm
03:26 PM 69.2°F20.7°C 60.9°F16.1°C 75% 3.0 mph SE4.8 kmh SE 4.0 mph6.4 kmh 30.09 in1019.0 mb 0.03 in0.8 mm 0.00 in0.0 mm 0.10 in2.5 mm
03:27 PM 69.2°F20.7°C 61.3°F16.3°C 76% 4.0 mph SE6.4 kmh SE 4.0 mph6.4 kmh 30.09 in1019.0 mb 0.03 in0.8 mm 0.00 in0.0 mm 0.10 in2.5 mm
03:28 PM 69.1°F20.6°C 61.2°F16.2°C 76% 3.0 mph ESE4.8 kmh ESE 5.0 mph8.0 kmh 30.09 in1019.0 mb 0.03 in0.8 mm 0.00 in0.0 mm 0.10 in2.5 mm
03:29 PM 69.1°F20.6°C 61.2°F16.2°C 76% 1.0 mph ESE1.6 kmh ESE 3.0 mph4.8 kmh 30.09 in1019.0 mb 0.03 in0.8 mm 0.00 in0.0 mm 0.10 in2.5 mm
03:30 PM 69.1°F20.6°C 61.6°F16.4°C 77% 2.0 mph ESE3.2 kmh ESE 3.0 mph4.8 kmh 30.09 in1019.0 mb 0.03 in0.8 mm 0.00 in0.0 mm 0.10 in2.5 mm
03:31 PM 69.1°F20.6°C 61.6°F16.4°C 77% 3.0 mph ESE4.8 kmh ESE 4.0 mph6.4 kmh 30.09 in1019.0 mb 0.03 in0.8 mm 0.00 in0.0 mm 0.10 in2.5 mm
03:32 PM 69.0°F20.6°C 61.5°F16.4°C 77% 3.0 mph ESE4.8 kmh ESE 3.0 mph4.8 kmh 30.09 in1019.0 mb 0.03 in0.8 mm 0.00 in0.0 mm 0.10 in2.5 mm
03:33 PM 69.0°F20.6°C 61.1°F16.2°C 76% 2.0 mph ESE3.2 kmh ESE 3.0 mph4.8 kmh 30.09 in1019.0 mb 0.03 in0.8 mm 0.00 in0.0 mm 0.10 in2.5 mm
03:34 PM 68.9°F20.5°C 61.0°F16.1°C 76% 3.0 mph ESE4.8 kmh ESE 4.0 mph6.4 kmh 30.09 in1019.0 mb 0.03 in0.8 mm 0.00 in0.0 mm 0.10 in2.5 mm
03:35 PM 68.9°F20.5°C 61.0°F16.1°C 76% 3.0 mph ESE4.8 kmh ESE 3.0 mph4.8 kmh 30.09 in1019.0 mb 0.03 in0.8 mm 0.00 in0.0 mm 0.10 in2.5 mm
03:36 PM 68.9°F20.5°C 61.0°F16.1°C 76% 4.0 mph ESE6.4 kmh ESE 6.0 mph9.7 kmh 30.09 in1019.0 mb 0.03 in0.8 mm 0.00 in0.0 mm 0.10 in2.5 mm
03:37 PM 68.9°F20.5°C 61.0°F16.1°C 76% 2.0 mph ESE3.2 kmh ESE 3.0 mph4.8 kmh 30.09 in1019.0 mb 0.03 in0.8 mm 0.00 in0.0 mm 0.10 in2.5 mm
03:38 PM 68.9°F20.5°C 61.0°F16.1°C 76% 3.0 mph ESE4.8 kmh ESE 3.0 mph4.8 kmh 30.09 in1019.0 mb 0.03 in0.8 mm 0.00 in0.0 mm 0.10 in2.5 mm
03:39 PM 68.9°F20.5°C 61.0°F16.1°C 76% 2.0 mph ESE3.2 kmh ESE 3.0 mph4.8 kmh 30.09 in1019.0 mb 0.03 in0.8 mm 0.00 in0.0 mm 0.10 in2.5 mm
03:40 PM 68.9°F20.5°C 61.0°F16.1°C 76% 3.6 mph ESE5.8 kmh ESE 4.0 mph6.4 kmh 30.09 in1019.0 mb 0.03 in0.8 mm 0.00 in0.0 mm 0.10 in2.5 mm
03:41 PM 68.9°F20.5°C 60.6°F15.9°C 75% 4.0 mph ESE6.4 kmh ESE 6.0 mph9.7 kmh 30.09 in1019.0 mb 0.03 in0.8 mm 0.00 in0.0 mm 0.10 in2.5 mm
03:42 PM 68.9°F20.5°C 60.6°F15.9°C 75% 3.0 mph ESE4.8 kmh ESE 4.0 mph6.4 kmh 30.09 in1019.0 mb 0.03 in0.8 mm 0.00 in0.0 mm 0.10 in2.5 mm
03:43 PM 68.9°F20.5°C 60.6°F15.9°C 75% 3.0 mph ESE4.8 kmh ESE 4.0 mph6.4 kmh 30.09 in1019.0 mb 0.03 in0.8 mm 0.00 in0.0 mm 0.10 in2.5 mm
03:44 PM 68.9°F20.5°C 60.6°F15.9°C 75% 2.0 mph ESE3.2 kmh ESE 3.0 mph4.8 kmh 30.09 in1019.0 mb 0.03 in0.8 mm 0.00 in0.0 mm 0.10 in2.5 mm
03:45 PM 68.9°F20.5°C 61.0°F16.1°C 76% 3.0 mph ESE4.8 kmh ESE 4.0 mph6.4 kmh 30.09 in1019.0 mb 0.03 in0.8 mm 0.00 in0.0 mm 0.10 in2.5 mm
03:46 PM 68.9°F20.5°C 61.0°F16.1°C 76% 2.6 mph ESE4.2 kmh ESE 3.0 mph4.8 kmh 30.09 in1019.0 mb 0.03 in0.8 mm 0.00 in0.0 mm 0.10 in2.5 mm
03:47 PM 68.9°F20.5°C 61.0°F16.1°C 76% 3.0 mph ESE4.8 kmh ESE 4.0 mph6.4 kmh 30.09 in1019.0 mb 0.03 in0.8 mm 0.00 in0.0 mm 0.10 in2.5 mm
03:48 PM 69.0°F20.6°C 61.1°F16.2°C 76% 2.0 mph ESE3.2 kmh ESE 3.0 mph4.8 kmh 30.09 in1019.0 mb 0.03 in0.8 mm 0.00 in0.0 mm 0.10 in2.5 mm
03:49 PM 69.0°F20.6°C 61.1°F16.2°C 76% 3.0 mph ESE4.8 kmh ESE 4.0 mph6.4 kmh 30.09 in1019.0 mb 0.03 in0.8 mm 0.00 in0.0 mm 0.10 in2.5 mm
03:50 PM 69.0°F20.6°C 61.1°F16.2°C 76% 3.0 mph ESE4.8 kmh ESE 3.0 mph4.8 kmh 30.09 in1019.0 mb 0.03 in0.8 mm 0.00 in0.0 mm 0.10 in2.5 mm
03:51 PM 69.1°F20.6°C 60.8°F16.0°C 75% 3.0 mph ESE4.8 kmh ESE 4.0 mph6.4 kmh 30.09 in1019.0 mb 0.03 in0.8 mm 0.00 in0.0 mm 0.10 in2.5 mm
03:52 PM 69.1°F20.6°C 60.8°F16.0°C 75% 2.9 mph ESE4.7 kmh ESE 3.0 mph4.8 kmh 30.09 in1019.0 mb 0.03 in0.8 mm 0.00 in0.0 mm 0.10 in2.5 mm
03:53 PM 69.1°F20.6°C 61.2°F16.2°C 76% 2.5 mph ESE4.0 kmh ESE 3.0 mph4.8 kmh 30.09 in1019.0 mb 0.03 in0.8 mm 0.00 in0.0 mm 0.10 in2.5 mm
03:54 PM 69.2°F20.7°C 61.3°F16.3°C 76% 3.0 mph E4.8 kmh E 4.0 mph6.4 kmh 30.08 in1018.6 mb 0.03 in0.8 mm 0.00 in0.0 mm 0.10 in2.5 mm
03:55 PM 69.2°F20.7°C 60.9°F16.1°C 75% 5.0 mph E8.0 kmh E 8.0 mph12.9 kmh 30.09 in1019.0 mb 0.03 in0.8 mm 0.00 in0.0 mm 0.10 in2.5 mm
03:56 PM 69.2°F20.7°C 60.9°F16.1°C 75% 4.0 mph E6.4 kmh E 8.0 mph12.9 kmh 30.08 in1018.6 mb 0.03 in0.8 mm 0.00 in0.0 mm 0.10 in2.5 mm
03:57 PM 69.2°F20.7°C 60.9°F16.1°C 75% 4.0 mph E6.4 kmh E 6.0 mph9.7 kmh 30.08 in1018.6 mb 0.03 in0.8 mm 0.00 in0.0 mm 0.10 in2.5 mm
03:58 PM 69.3°F20.7°C 61.0°F16.1°C 75% 2.0 mph E3.2 kmh E 3.0 mph4.8 kmh 30.08 in1018.6 mb 0.03 in0.8 mm 0.00 in0.0 mm 0.10 in2.5 mm
03:59 PM 69.3°F20.7°C 61.0°F16.1°C 75% 2.0 mph E3.2 kmh E 3.0 mph4.8 kmh 30.08 in1018.6 mb 0.03 in0.8 mm 0.00 in0.0 mm 0.10 in2.5 mm
04:00 PM 69.4°F20.8°C 61.5°F16.4°C 76% 2.0 mph ENE3.2 kmh ENE 3.0 mph4.8 kmh 30.08 in1018.6 mb 0.03 in0.8 mm 0.00 in0.0 mm 0.10 in2.5 mm
04:01 PM 69.4°F20.8°C 61.5°F16.4°C 76% 2.0 mph ENE3.2 kmh ENE 3.0 mph4.8 kmh 30.08 in1018.6 mb 0.03 in0.8 mm 0.00 in0.0 mm 0.10 in2.5 mm
04:02 PM 69.5°F20.8°C 62.0°F16.7°C 77% 1.0 mph ENE1.6 kmh ENE 2.0 mph3.2 kmh 30.08 in1018.6 mb 0.03 in0.8 mm 0.00 in0.0 mm 0.10 in2.5 mm
04:03 PM 69.5°F20.8°C 62.0°F16.7°C 77% 1.0 mph ENE1.6 kmh ENE 3.0 mph4.8 kmh 30.08 in1018.6 mb 0.03 in0.8 mm 0.00 in0.0 mm 0.10 in2.5 mm
04:04 PM 69.5°F20.8°C 62.3°F16.8°C 78% 3.0 mph ENE4.8 kmh ENE 4.0 mph6.4 kmh 30.08 in1018.6 mb 0.03 in0.8 mm 0.00 in0.0 mm 0.10 in2.5 mm
04:05 PM 69.5°F20.8°C 62.3°F16.8°C 78% 3.0 mph NE4.8 kmh NE 4.0 mph6.4 kmh 30.08 in1018.6 mb 0.03 in0.8 mm 0.00 in0.0 mm 0.10 in2.5 mm
04:06 PM 69.5°F20.8°C 62.3°F16.8°C 78% 4.5 mph NE7.2 kmh NE 5.0 mph8.0 kmh 30.08 in1018.6 mb 0.03 in0.8 mm 0.00 in0.0 mm 0.10 in2.5 mm
04:07 PM 69.5°F20.8°C 62.3°F16.8°C 78% 4.0 mph NE6.4 kmh NE 5.0 mph8.0 kmh 30.08 in1018.6 mb 0.03 in0.8 mm 0.00 in0.0 mm 0.10 in2.5 mm
04:08 PM 69.5°F20.8°C 62.3°F16.8°C 78% 4.0 mph NE6.4 kmh NE 5.0 mph8.0 kmh 30.08 in1018.6 mb 0.03 in0.8 mm 0.00 in0.0 mm 0.10 in2.5 mm
04:09 PM 69.4°F20.8°C 62.2°F16.8°C 78% 3.0 mph NE4.8 kmh NE 4.0 mph6.4 kmh 30.08 in1018.6 mb 0.03 in0.8 mm 0.00 in0.0 mm 0.10 in2.5 mm
04:10 PM 69.4°F20.8°C 61.9°F16.6°C 77% 3.0 mph NE4.8 kmh NE 4.0 mph6.4 kmh 30.08 in1018.6 mb 0.03 in0.8 mm 0.00 in0.0 mm 0.10 in2.5 mm
04:11 PM 69.4°F20.8°C 62.2°F16.8°C 78% 3.0 mph NE4.8 kmh NE 3.0 mph4.8 kmh 30.08 in1018.6 mb 0.03 in0.8 mm 0.00 in0.0 mm 0.10 in2.5 mm
04:12 PM 69.4°F20.8°C 61.9°F16.6°C 77% 3.0 mph NE4.8 kmh NE 4.0 mph6.4 kmh 30.08 in1018.6 mb 0.03 in0.8 mm 0.00 in0.0 mm 0.10 in2.5 mm
04:13 PM 69.4°F20.8°C 62.2°F16.8°C 78% 3.0 mph NE4.8 kmh NE 4.0 mph6.4 kmh 30.08 in1018.6 mb 0.03 in0.8 mm 0.00 in0.0 mm 0.10 in2.5 mm
04:14 PM 69.4°F20.8°C 62.2°F16.8°C 78% 4.5 mph NE7.2 kmh NE 5.0 mph8.0 kmh 30.08 in1018.6 mb 0.02 in0.5 mm 0.00 in0.0 mm 0.10 in2.5 mm
04:15 PM 69.4°F20.8°C 62.2°F16.8°C 78% 3.0 mph NNE4.8 kmh NNE 5.0 mph8.0 kmh 30.08 in1018.6 mb 0.01 in0.3 mm 0.00 in0.0 mm 0.10 in2.5 mm
04:16 PM 69.4°F20.8°C 62.2°F16.8°C 78% 4.0 mph NNE6.4 kmh NNE 5.0 mph8.0 kmh 30.08 in1018.6 mb 0.00 in0.0 mm 0.00 in0.0 mm 0.10 in2.5 mm
04:17 PM 69.4°F20.8°C 61.9°F16.6°C 77% 4.0 mph NNE6.4 kmh NNE 5.0 mph8.0 kmh 30.08 in1018.6 mb 0.00 in0.0 mm 0.00 in0.0 mm 0.10 in2.5 mm
04:18 PM 69.4°F20.8°C 62.2°F16.8°C 78% 3.0 mph NE4.8 kmh NE 4.0 mph6.4 kmh 30.08 in1018.6 mb 0.00 in0.0 mm 0.00 in0.0 mm 0.10 in2.5 mm
04:19 PM 69.4°F20.8°C 62.2°F16.8°C 78% 4.1 mph NE6.6 kmh NE 5.0 mph8.0 kmh 30.08 in1018.6 mb 0.00 in0.0 mm 0.00 in0.0 mm 0.10 in2.5 mm
04:20 PM 69.4°F20.8°C 62.2°F16.8°C 78% 4.0 mph NE6.4 kmh NE 5.0 mph8.0 kmh 30.08 in1018.6 mb 0.00 in0.0 mm 0.00 in0.0 mm 0.10 in2.5 mm
04:21 PM 69.5°F20.8°C 62.3°F16.8°C 78% 3.0 mph NE4.8 kmh NE 4.0 mph6.4 kmh 30.08 in1018.6 mb 0.00 in0.0 mm 0.00 in0.0 mm 0.10 in2.5 mm
04:22 PM 69.5°F20.8°C 62.3°F16.8°C 78% 3.0 mph NE4.8 kmh NE 4.0 mph6.4 kmh 30.08 in1018.6 mb 0.00 in0.0 mm 0.00 in0.0 mm 0.10 in2.5 mm
04:23 PM 69.5°F20.8°C 62.3°F16.8°C 78% 3.0 mph NE4.8 kmh NE 5.0 mph8.0 kmh 30.08 in1018.6 mb 0.00 in0.0 mm 0.00 in0.0 mm 0.10 in2.5 mm
04:24 PM 69.6°F20.9°C 62.8°F17.1°C 79% 3.0 mph NNE4.8 kmh NNE 4.0 mph6.4 kmh 30.08 in1018.6 mb 0.00 in0.0 mm 0.00 in0.0 mm 0.10 in2.5 mm
04:25 PM 69.7°F20.9°C 62.9°F17.2°C 79% 3.0 mph NNE4.8 kmh NNE 4.0 mph6.4 kmh 30.08 in1018.6 mb 0.00 in0.0 mm 0.00 in0.0 mm 0.10 in2.5 mm
04:26 PM 69.8°F21.0°C 63.0°F17.2°C 79% 3.0 mph NNE4.8 kmh NNE 4.0 mph6.4 kmh 30.08 in1018.6 mb 0.00 in0.0 mm 0.00 in0.0 mm 0.10 in2.5 mm
04:27 PM 69.9°F21.1°C 63.1°F17.3°C 79% 2.0 mph NNE3.2 kmh NNE 3.0 mph4.8 kmh 30.07 in1018.3 mb 0.00 in0.0 mm 0.00 in0.0 mm 0.10 in2.5 mm
04:28 PM 70.0°F21.1°C 63.2°F17.3°C 79% 2.0 mph NNE3.2 kmh NNE 3.0 mph4.8 kmh 30.07 in1018.3 mb 0.00 in0.0 mm 0.00 in0.0 mm 0.10 in2.5 mm
04:29 PM 70.1°F21.2°C 63.3°F17.4°C 79% 4.0 mph NNE6.4 kmh NNE 5.0 mph8.0 kmh 30.07 in1018.3 mb 0.00 in0.0 mm 0.00 in0.0 mm 0.10 in2.5 mm
04:30 PM 70.2°F21.2°C 63.4°F17.4°C 79% 2.0 mph NE3.2 kmh NE 4.0 mph6.4 kmh 30.07 in1018.3 mb 0.00 in0.0 mm 0.00 in0.0 mm 0.10 in2.5 mm
04:31 PM 70.3°F21.3°C 63.5°F17.5°C 79% 3.0 mph NNE4.8 kmh NNE 5.0 mph8.0 kmh 30.07 in1018.3 mb 0.00 in0.0 mm 0.00 in0.0 mm 0.10 in2.5 mm
04:32 PM 70.3°F21.3°C 63.1°F17.3°C 78% 3.9 mph NE6.3 kmh NE 5.0 mph8.0 kmh 30.07 in1018.3 mb 0.00 in0.0 mm 0.00 in0.0 mm 0.10 in2.5 mm
04:33 PM 70.3°F21.3°C 63.1°F17.3°C 78% 3.0 mph NE4.8 kmh NE 5.0 mph8.0 kmh 30.07 in1018.3 mb 0.00 in0.0 mm 0.00 in0.0 mm 0.10 in2.5 mm
04:34 PM 70.4°F21.3°C 63.2°F17.3°C 78% 2.0 mph NE3.2 kmh NE 4.0 mph6.4 kmh 30.07 in1018.3 mb 0.00 in0.0 mm 0.00 in0.0 mm 0.10 in2.5 mm
04:35 PM 70.5°F21.4°C 63.3°F17.4°C 78% 4.0 mph NE6.4 kmh NE 6.0 mph9.7 kmh 30.07 in1018.3 mb 0.00 in0.0 mm 0.00 in0.0 mm 0.10 in2.5 mm
04:36 PM 70.6°F21.4°C 63.0°F17.2°C 77% 4.5 mph NE7.2 kmh NE 5.0 mph8.0 kmh 30.07 in1018.3 mb 0.00 in0.0 mm 0.00 in0.0 mm 0.10 in2.5 mm
04:37 PM 70.7°F21.5°C 63.1°F17.3°C 77% 2.0 mph NE3.2 kmh NE 4.0 mph6.4 kmh 30.07 in1018.3 mb 0.00 in0.0 mm 0.00 in0.0 mm 0.10 in2.5 mm
04:38 PM 70.8°F21.6°C 63.2°F17.3°C 77% 4.0 mph NE6.4 kmh NE 8.0 mph12.9 kmh 30.07 in1018.3 mb 0.00 in0.0 mm 0.00 in0.0 mm 0.10 in2.5 mm
04:39 PM 70.9°F21.6°C 63.3°F17.4°C 77% 5.0 mph NE8.0 kmh NE 7.0 mph11.3 kmh 30.07 in1018.3 mb 0.00 in0.0 mm 0.00 in0.0 mm 0.10 in2.5 mm
04:40 PM 71.0°F21.7°C 63.4°F17.4°C 77% 6.0 mph NE9.7 kmh NE 7.0 mph11.3 kmh 30.07 in1018.3 mb 0.00 in0.0 mm 0.00 in0.0 mm 0.10 in2.5 mm
04:41 PM 71.2°F21.8°C 63.2°F17.3°C 76% 5.0 mph NE8.0 kmh NE 7.0 mph11.3 kmh 30.07 in1018.3 mb 0.00 in0.0 mm 0.00 in0.0 mm 0.10 in2.5 mm
04:42 PM 71.2°F21.8°C 63.2°F17.3°C 76% 5.0 mph NE8.0 kmh NE 6.0 mph9.7 kmh 30.07 in1018.3 mb 0.00 in0.0 mm 0.00 in0.0 mm 0.10 in2.5 mm
04:43 PM 71.3°F21.8°C 63.0°F17.2°C 75% 5.0 mph ENE8.0 kmh ENE 7.0 mph11.3 kmh 30.07 in1018.3 mb 0.00 in0.0 mm 0.00 in0.0 mm 0.10 in2.5 mm
04:44 PM 71.4°F21.9°C 63.1°F17.3°C 75% 6.0 mph NE9.7 kmh NE 8.0 mph12.9 kmh 30.07 in1018.3 mb 0.00 in0.0 mm 0.00 in0.0 mm 0.10 in2.5 mm
04:45 PM 71.5°F21.9°C 63.1°F17.3°C 75% 7.0 mph NE11.3 kmh NE 10.0 mph16.1 kmh 30.07 in1018.3 mb 0.00 in0.0 mm 0.00 in0.0 mm 0.10 in2.5 mm
04:46 PM 71.6°F22.0°C 62.9°F17.2°C 74% 6.0 mph NNE9.7 kmh NNE 9.0 mph14.5 kmh 30.07 in1018.3 mb 0.00 in0.0 mm 0.00 in0.0 mm 0.10 in2.5 mm
04:47 PM 71.7°F22.1°C 62.6°F17.0°C 73% 4.4 mph NE7.1 kmh NE 6.0 mph9.7 kmh 30.07 in1018.3 mb 0.00 in0.0 mm 0.00 in0.0 mm 0.10 in2.5 mm
04:48 PM 71.8°F22.1°C 62.7°F17.1°C 73% 4.0 mph NE6.4 kmh NE 6.0 mph9.7 kmh 30.07 in1018.3 mb 0.00 in0.0 mm 0.00 in0.0 mm 0.10 in2.5 mm
04:49 PM 71.8°F22.1°C 63.1°F17.3°C 74% 5.0 mph ENE8.0 kmh ENE 8.0 mph12.9 kmh 30.07 in1018.3 mb 0.00 in0.0 mm 0.00 in0.0 mm 0.10 in2.5 mm
04:50 PM 71.9°F22.2°C 62.8°F17.1°C 73% 5.0 mph NNE8.0 kmh NNE 8.0 mph12.9 kmh 30.07 in1018.3 mb 0.00 in0.0 mm 0.00 in0.0 mm 0.10 in2.5 mm
04:51 PM 71.9°F22.2°C 63.2°F17.3°C 74% 5.0 mph NE8.0 kmh NE 7.0 mph11.3 kmh 30.07 in1018.3 mb 0.00 in0.0 mm 0.00 in0.0 mm 0.10 in2.5 mm
04:52 PM 71.9°F22.2°C 62.8°F17.1°C 73% 3.1 mph NE5.0 kmh NE 4.0 mph6.4 kmh 30.07 in1018.3 mb 0.01 in0.3 mm 0.60 in15.2 mm 0.11 in2.8 mm
04:53 PM 72.0°F22.2°C 62.9°F17.2°C 73% 4.0 mph NE6.4 kmh NE 6.0 mph9.7 kmh 30.07 in1018.3 mb 0.01 in0.3 mm 0.00 in0.0 mm 0.11 in2.8 mm
04:54 PM 72.0°F22.2°C 62.5°F16.9°C 72% 6.0 mph ENE9.7 kmh ENE 10.0 mph16.1 kmh 30.06 in1017.9 mb 0.01 in0.3 mm 0.00 in0.0 mm 0.11 in2.8 mm
04:55 PM 72.1°F22.3°C 62.6°F17.0°C 72% 7.0 mph ENE11.3 kmh ENE 9.0 mph14.5 kmh 30.06 in1017.9 mb 0.01 in0.3 mm 0.00 in0.0 mm 0.11 in2.8 mm
04:56 PM 72.1°F22.3°C 62.6°F17.0°C 72% 6.0 mph ENE9.7 kmh ENE 8.0 mph12.9 kmh 30.06 in1017.9 mb 0.01 in0.3 mm 0.00 in0.0 mm 0.11 in2.8 mm
04:57 PM 72.3°F22.4°C 62.4°F16.9°C 71% 6.0 mph NE9.7 kmh NE 8.0 mph12.9 kmh 30.06 in1017.9 mb 0.01 in0.3 mm 0.00 in0.0 mm 0.11 in2.8 mm
04:58 PM 72.3°F22.4°C 62.8°F17.1°C 72% 8.0 mph ENE12.9 kmh ENE 11.0 mph17.7 kmh 30.06 in1017.9 mb 0.01 in0.3 mm 0.00 in0.0 mm 0.11 in2.8 mm
04:59 PM 72.5°F22.5°C 62.5°F16.9°C 71% 8.0 mph ENE12.9 kmh ENE 10.0 mph16.1 kmh 30.06 in1017.9 mb 0.01 in0.3 mm 0.00 in0.0 mm 0.11 in2.8 mm
05:00 PM 72.6°F22.6°C 62.6°F17.0°C 71% 9.0 mph ENE14.5 kmh ENE 11.0 mph17.7 kmh 30.06 in1017.9 mb 0.01 in0.3 mm 0.00 in0.0 mm 0.11 in2.8 mm
05:01 PM 72.6°F22.6°C 62.2°F16.8°C 70% 10.0 mph ENE16.1 kmh ENE 12.0 mph19.3 kmh 30.06 in1017.9 mb 0.01 in0.3 mm 0.00 in0.0 mm 0.11 in2.8 mm
05:02 PM 72.6°F22.6°C 62.2°F16.8°C 70% 9.0 mph ENE14.5 kmh ENE 12.0 mph19.3 kmh 30.06 in1017.9 mb 0.01 in0.3 mm 0.00 in0.0 mm 0.11 in2.8 mm
05:03 PM 72.6°F22.6°C 62.2°F16.8°C 70% 8.0 mph NE12.9 kmh NE 11.0 mph17.7 kmh 30.06 in1017.9 mb 0.01 in0.3 mm 0.00 in0.0 mm 0.11 in2.8 mm
05:04 PM 72.7°F22.6°C 61.9°F16.6°C 69% 9.0 mph ENE14.5 kmh ENE 12.0 mph19.3 kmh 30.06 in1017.9 mb 0.01 in0.3 mm 0.00 in0.0 mm 0.11 in2.8 mm
05:05 PM 72.7°F22.6°C 61.9°F16.6°C 69% 10.0 mph ENE16.1 kmh ENE 12.0 mph19.3 kmh 30.06 in1017.9 mb 0.01 in0.3 mm 0.00 in0.0 mm 0.11 in2.8 mm
05:06 PM 72.7°F22.6°C 61.9°F16.6°C 69% 10.0 mph ENE16.1 kmh ENE 12.0 mph19.3 kmh 30.06 in1017.9 mb 0.01 in0.3 mm 0.00 in0.0 mm 0.11 in2.8 mm
05:07 PM 72.7°F22.6°C 61.9°F16.6°C 69% 8.0 mph ENE12.9 kmh ENE 10.0 mph16.1 kmh 30.06 in1017.9 mb 0.01 in0.3 mm 0.00 in0.0 mm 0.11 in2.8 mm
05:08 PM 72.7°F22.6°C 61.5°F16.4°C 68% 6.0 mph ENE9.7 kmh ENE 8.0 mph12.9 kmh 30.06 in1017.9 mb 0.01 in0.3 mm 0.00 in0.0 mm 0.11 in2.8 mm
05:09 PM 72.7°F22.6°C 61.5°F16.4°C 68% 7.0 mph ENE11.3 kmh ENE 11.0 mph17.7 kmh 30.06 in1017.9 mb 0.01 in0.3 mm 0.00 in0.0 mm 0.11 in2.8 mm
05:10 PM 72.7°F22.6°C 61.5°F16.4°C 68% 10.0 mph E16.1 kmh E 12.0 mph19.3 kmh 30.06 in1017.9 mb 0.01 in0.3 mm 0.00 in0.0 mm 0.11 in2.8 mm
05:11 PM 72.8°F22.7°C 61.6°F16.4°C 68% 6.0 mph ENE9.7 kmh ENE 9.0 mph14.5 kmh 30.06 in1017.9 mb 0.01 in0.3 mm 0.00 in0.0 mm 0.11 in2.8 mm
05:12 PM 72.8°F22.7°C 61.6°F16.4°C 68% 7.0 mph E11.3 kmh E 9.0 mph14.5 kmh 30.06 in1017.9 mb 0.01 in0.3 mm 0.00 in0.0 mm 0.11 in2.8 mm
05:13 PM 72.8°F22.7°C 61.6°F16.4°C 68% 6.0 mph ENE9.7 kmh ENE 7.0 mph11.3 kmh 30.06 in1017.9 mb 0.01 in0.3 mm 0.00 in0.0 mm 0.11 in2.8 mm
05:14 PM 72.8°F22.7°C 61.6°F16.4°C 68% 8.9 mph ENE14.3 kmh ENE 11.0 mph17.7 kmh 30.06 in1017.9 mb 0.01 in0.3 mm 0.00 in0.0 mm 0.11 in2.8 mm
05:15 PM 72.8°F22.7°C 61.6°F16.4°C 68% 10.0 mph ENE16.1 kmh ENE 14.0 mph22.5 kmh 30.06 in1017.9 mb 0.01 in0.3 mm 0.00 in0.0 mm 0.11 in2.8 mm
05:16 PM 72.9°F22.7°C 61.3°F16.3°C 67% 10.0 mph ENE16.1 kmh ENE 13.0 mph20.9 kmh 30.06 in1017.9 mb 0.01 in0.3 mm 0.00 in0.0 mm 0.11 in2.8 mm
05:17 PM 72.9°F22.7°C 61.3°F16.3°C 67% 9.0 mph ENE14.5 kmh ENE 12.0 mph19.3 kmh 30.06 in1017.9 mb 0.01 in0.3 mm 0.00 in0.0 mm 0.11 in2.8 mm
05:18 PM 72.9°F22.7°C 61.3°F16.3°C 67% 7.0 mph ENE11.3 kmh ENE 10.0 mph16.1 kmh 30.06 in1017.9 mb 0.01 in0.3 mm 0.00 in0.0 mm 0.11 in2.8 mm
05:19 PM 73.0°F22.8°C 61.4°F16.3°C 67% 5.0 mph ENE8.0 kmh ENE 8.0 mph12.9 kmh 30.06 in1017.9 mb 0.01 in0.3 mm 0.00 in0.0 mm 0.11 in2.8 mm
05:20 PM 73.1°F22.8°C 61.9°F16.6°C 68% 9.0 mph ENE14.5 kmh ENE 12.0 mph19.3 kmh 30.06 in1017.9 mb 0.01 in0.3 mm 0.00 in0.0 mm 0.11 in2.8 mm
05:21 PM 73.1°F22.8°C 61.5°F16.4°C 67% 10.0 mph ENE16.1 kmh ENE 13.0 mph20.9 kmh 30.06 in1017.9 mb 0.01 in0.3 mm 0.00 in0.0 mm 0.11 in2.8 mm
05:22 PM 73.2°F22.9°C 61.6°F16.4°C 67% 10.0 mph ENE16.1 kmh ENE 12.0 mph19.3 kmh 30.06 in1017.9 mb 0.01 in0.3 mm 0.00 in0.0 mm 0.11 in2.8 mm
05:23 PM 73.3°F22.9°C 61.7°F16.5°C 67% 10.0 mph ENE16.1 kmh ENE 10.0 mph16.1 kmh 30.05 in1017.6 mb 0.01 in0.3 mm 0.00 in0.0 mm 0.11 in2.8 mm
05:24 PM 73.4°F23.0°C 61.8°F16.6°C 67% 7.9 mph E12.7 kmh E 12.0 mph19.3 kmh 30.05 in1017.6 mb 0.01 in0.3 mm 0.00 in0.0 mm 0.11 in2.8 mm
05:25 PM 73.4°F23.0°C 61.8°F16.6°C 67% 10.0 mph ENE16.1 kmh ENE 14.0 mph22.5 kmh 30.05 in1017.6 mb 0.01 in0.3 mm 0.00 in0.0 mm 0.11 in2.8 mm
05:26 PM 73.6°F23.1°C 62.0°F16.7°C 67% 5.0 mph ENE8.0 kmh ENE 8.0 mph12.9 kmh 30.06 in1017.9 mb 0.01 in0.3 mm 0.00 in0.0 mm 0.11 in2.8 mm
05:27 PM 73.6°F23.1°C 62.0°F16.7°C 67% 6.0 mph ENE9.7 kmh ENE 10.0 mph16.1 kmh 30.05 in1017.6 mb 0.01 in0.3 mm 0.00 in0.0 mm 0.11 in2.8 mm
05:28 PM 73.7°F23.2°C 62.0°F16.7°C 67% 7.0 mph ENE11.3 kmh ENE 10.0 mph16.1 kmh 30.05 in1017.6 mb 0.01 in0.3 mm 0.00 in0.0 mm 0.11 in2.8 mm
05:29 PM 73.9°F23.3°C 62.2°F16.8°C 67% 9.0 mph ENE14.5 kmh ENE 10.0 mph16.1 kmh 30.05 in1017.6 mb 0.01 in0.3 mm 0.00 in0.0 mm 0.11 in2.8 mm
05:30 PM 73.9°F23.3°C 62.2°F16.8°C 67% 8.0 mph E12.9 kmh E 10.0 mph16.1 kmh 30.05 in1017.6 mb 0.01 in0.3 mm 0.00 in0.0 mm 0.11 in2.8 mm
05:31 PM 73.9°F23.3°C 62.2°F16.8°C 67% 5.0 mph ENE8.0 kmh ENE 8.0 mph12.9 kmh 30.05 in1017.6 mb 0.01 in0.3 mm 0.00 in0.0 mm 0.11 in2.8 mm
05:32 PM 73.9°F23.3°C 62.2°F16.8°C 67% 6.0 mph ENE9.7 kmh ENE 10.0 mph16.1 kmh 30.05 in1017.6 mb 0.01 in0.3 mm 0.00 in0.0 mm 0.11 in2.8 mm
05:33 PM 73.8°F23.2°C 62.1°F16.7°C 67% 7.0 mph ENE11.3 kmh ENE 9.0 mph14.5 kmh 30.05 in1017.6 mb 0.01 in0.3 mm 0.00 in0.0 mm 0.11 in2.8 mm
05:34 PM 73.8°F23.2°C 62.1°F16.7°C 67% 3.7 mph ENE6.0 kmh ENE 4.0 mph6.4 kmh 30.05 in1017.6 mb 0.01 in0.3 mm 0.00 in0.0 mm 0.11 in2.8 mm
05:35 PM 73.7°F23.2°C 62.0°F16.7°C 67% 6.0 mph ENE9.7 kmh ENE 12.0 mph19.3 kmh 30.05 in1017.6 mb 0.01 in0.3 mm 0.00 in0.0 mm 0.11 in2.8 mm
05:36 PM 73.7°F23.2°C 61.6°F16.4°C 66% 10.0 mph ENE16.1 kmh ENE 13.0 mph20.9 kmh 30.05 in1017.6 mb 0.01 in0.3 mm 0.00 in0.0 mm 0.11 in2.8 mm
05:37 PM 73.6°F23.1°C 61.5°F16.4°C 66% 11.0 mph ENE17.7 kmh ENE 14.0 mph22.5 kmh 30.05 in1017.6 mb 0.01 in0.3 mm 0.00 in0.0 mm 0.11 in2.8 mm
05:38 PM 73.5°F23.1°C 61.0°F16.1°C 65% 10.0 mph E16.1 kmh E 14.0 mph22.5 kmh 30.05 in1017.6 mb 0.01 in0.3 mm 0.00 in0.0 mm 0.11 in2.8 mm
05:39 PM 73.5°F23.1°C 61.4°F16.3°C 66% 9.0 mph E14.5 kmh E 11.0 mph17.7 kmh 30.05 in1017.6 mb 0.01 in0.3 mm 0.00 in0.0 mm 0.11 in2.8 mm
05:40 PM 73.4°F23.0°C 61.3°F16.3°C 66% 8.0 mph ENE12.9 kmh ENE 11.0 mph17.7 kmh 30.05 in1017.6 mb 0.01 in0.3 mm 0.00 in0.0 mm 0.11 in2.8 mm
05:41 PM 73.3°F22.9°C 61.2°F16.2°C 66% 8.0 mph ENE12.9 kmh ENE 12.0 mph19.3 kmh 30.05 in1017.6 mb 0.01 in0.3 mm 0.00 in0.0 mm 0.11 in2.8 mm
05:42 PM 73.2°F22.9°C 61.1°F16.2°C 66% 11.0 mph ENE17.7 kmh ENE 13.0 mph20.9 kmh 30.05 in1017.6 mb 0.01 in0.3 mm 0.00 in0.0 mm 0.11 in2.8 mm
05:43 PM 73.2°F22.9°C 61.1°F16.2°C 66% 10.0 mph E16.1 kmh E 13.0 mph20.9 kmh 30.05 in1017.6 mb 0.01 in0.3 mm 0.00 in0.0 mm 0.11 in2.8 mm
05:44 PM 73.2°F22.9°C 61.1°F16.2°C 66% 12.0 mph E19.3 kmh E 15.0 mph24.1 kmh 30.05 in1017.6 mb 0.01 in0.3 mm 0.00 in0.0 mm 0.11 in2.8 mm
05:45 PM 73.1°F22.8°C 61.1°F16.2°C 66% 9.0 mph E14.5 kmh E 12.0 mph19.3 kmh 30.05 in1017.6 mb 0.01 in0.3 mm 0.00 in0.0 mm 0.11 in2.8 mm
05:46 PM 73.1°F22.8°C 61.1°F16.2°C 66% 11.0 mph E17.7 kmh E 14.0 mph22.5 kmh 30.05 in1017.6 mb 0.01 in0.3 mm 0.00 in0.0 mm 0.11 in2.8 mm
05:47 PM 73.1°F22.8°C 61.5°F16.4°C 67% 8.0 mph E12.9 kmh E 8.0 mph12.9 kmh 30.05 in1017.6 mb 0.01 in0.3 mm 0.00 in0.0 mm 0.11 in2.8 mm
05:48 PM 73.1°F22.8°C 61.5°F16.4°C 67% 9.0 mph E14.5 kmh E 12.0 mph19.3 kmh 30.05 in1017.6 mb 0.01 in0.3 mm 0.00 in0.0 mm 0.11 in2.8 mm
05:49 PM 73.1°F22.8°C 61.5°F16.4°C 67% 8.0 mph E12.9 kmh E 10.0 mph16.1 kmh 30.05 in1017.6 mb 0.01 in0.3 mm 0.00 in0.0 mm 0.11 in2.8 mm
05:50 PM 73.1°F22.8°C 61.5°F16.4°C 67% 11.0 mph ENE17.7 kmh ENE 13.0 mph20.9 kmh 30.05 in1017.6 mb 0.01 in0.3 mm 0.00 in0.0 mm 0.11 in2.8 mm
05:51 PM 73.1°F22.8°C 61.5°F16.4°C 67% 8.0 mph ENE12.9 kmh ENE 11.0 mph17.7 kmh 30.05 in1017.6 mb 0.01 in0.3 mm 0.00 in0.0 mm 0.11 in2.8 mm
05:52 PM 73.2°F22.9°C 61.6°F16.4°C 67% 7.0 mph ENE11.3 kmh ENE 10.0 mph16.1 kmh 30.05 in1017.6 mb 0.00 in0.0 mm 0.00 in0.0 mm 0.11 in2.8 mm
05:53 PM 73.3°F22.9°C 61.7°F16.5°C 67% 6.0 mph ENE9.7 kmh ENE 9.0 mph14.5 kmh 30.05 in1017.6 mb 0.00 in0.0 mm 0.00 in0.0 mm 0.11 in2.8 mm
05:54 PM 73.3°F22.9°C 61.7°F16.5°C 67% 8.0 mph E12.9 kmh E 10.0 mph16.1 kmh 30.05 in1017.6 mb 0.00 in0.0 mm 0.00 in0.0 mm 0.11 in2.8 mm
05:55 PM 73.4°F23.0°C 61.8°F16.6°C 67% 8.0 mph ENE12.9 kmh ENE 11.0 mph17.7 kmh 30.04 in1017.3 mb 0.00 in0.0 mm 0.00 in0.0 mm 0.11 in2.8 mm
05:56 PM 73.5°F23.1°C 61.9°F16.6°C 67% 7.0 mph E11.3 kmh E 9.0 mph14.5 kmh 30.04 in1017.3 mb 0.00 in0.0 mm 0.00 in0.0 mm 0.11 in2.8 mm
05:57 PM 73.5°F23.1°C 61.9°F16.6°C 67% 8.0 mph ENE12.9 kmh ENE 11.0 mph17.7 kmh 30.04 in1017.3 mb 0.00 in0.0 mm 0.00 in0.0 mm 0.11 in2.8 mm
05:58 PM 73.6°F23.1°C 62.0°F16.7°C 67% 7.0 mph E11.3 kmh E 10.0 mph16.1 kmh 30.04 in1017.3 mb 0.00 in0.0 mm 0.00 in0.0 mm 0.11 in2.8 mm
05:59 PM 73.6°F23.1°C 62.0°F16.7°C 67% 8.0 mph E12.9 kmh E 11.0 mph17.7 kmh 30.04 in1017.3 mb 0.00 in0.0 mm 0.00 in0.0 mm 0.11 in2.8 mm
06:00 PM 73.7°F23.2°C 62.0°F16.7°C 67% 8.0 mph ENE12.9 kmh ENE 11.0 mph17.7 kmh 30.04 in1017.3 mb 0.00 in0.0 mm 0.00 in0.0 mm 0.11 in2.8 mm
06:01 PM 73.8°F23.2°C 62.1°F16.7°C 67% 7.0 mph ENE11.3 kmh ENE 9.0 mph14.5 kmh 30.04 in1017.3 mb 0.00 in0.0 mm 0.00 in0.0 mm 0.11 in2.8 mm
06:02 PM 73.8°F23.2°C 61.7°F16.5°C 66% 5.0 mph E8.0 kmh E 7.0 mph11.3 kmh 30.04 in1017.3 mb 0.00 in0.0 mm 0.00 in0.0 mm 0.11 in2.8 mm
06:03 PM 73.9°F23.3°C 62.2°F16.8°C 67% 5.0 mph E8.0 kmh E 8.0 mph12.9 kmh 30.04 in1017.3 mb 0.00 in0.0 mm 0.00 in0.0 mm 0.11 in2.8 mm
06:04 PM 73.9°F23.3°C 62.2°F16.8°C 67% 4.0 mph E6.4 kmh E 6.0 mph9.7 kmh 30.04 in1017.3 mb 0.00 in0.0 mm 0.00 in0.0 mm 0.11 in2.8 mm
06:05 PM 73.9°F23.3°C 62.2°F16.8°C 67% 9.6 mph ENE15.4 kmh ENE 10.0 mph16.1 kmh 30.04 in1017.3 mb 0.00 in0.0 mm 0.00 in0.0 mm 0.11 in2.8 mm
06:06 PM 73.9°F23.3°C 62.2°F16.8°C 67% 8.0 mph ENE12.9 kmh ENE 10.0 mph16.1 kmh 30.04 in1017.3 mb 0.00 in0.0 mm 0.00 in0.0 mm 0.11 in2.8 mm
06:07 PM 74.0°F23.3°C 62.3°F16.8°C 67% 8.0 mph ENE12.9 kmh ENE 11.0 mph17.7 kmh 30.04 in1017.3 mb 0.00 in0.0 mm 0.00 in0.0 mm 0.11 in2.8 mm
06:08 PM 74.0°F23.3°C 62.3°F16.8°C 67% 10.0 mph E16.1 kmh E 11.0 mph17.7 kmh 30.04 in1017.3 mb 0.00 in0.0 mm 0.00 in0.0 mm 0.11 in2.8 mm
06:09 PM 74.0°F23.3°C 61.9°F16.6°C 66% 11.0 mph ENE17.7 kmh ENE 15.0 mph24.1 kmh 30.04 in1017.3 mb 0.00 in0.0 mm 0.00 in0.0 mm 0.11 in2.8 mm
06:10 PM 74.0°F23.3°C 61.9°F16.6°C 66% 13.0 mph E20.9 kmh E 16.0 mph25.7 kmh 30.04 in1017.3 mb 0.00 in0.0 mm 0.00 in0.0 mm 0.11 in2.8 mm
06:11 PM 73.9°F23.3°C 61.8°F16.6°C 66% 10.0 mph E16.1 kmh E 11.0 mph17.7 kmh 30.04 in1017.3 mb 0.00 in0.0 mm 0.00 in0.0 mm 0.11 in2.8 mm
06:12 PM 73.9°F23.3°C 61.8°F16.6°C 66% 8.0 mph E12.9 kmh E 10.0 mph16.1 kmh 30.04 in1017.3 mb 0.00 in0.0 mm 0.00 in0.0 mm 0.11 in2.8 mm
06:13 PM 73.9°F23.3°C 62.2°F16.8°C 67% 9.0 mph E14.5 kmh E 13.0 mph20.9 kmh 30.04 in1017.3 mb 0.00 in0.0 mm 0.00 in0.0 mm 0.11 in2.8 mm
06:14 PM 73.9°F23.3°C 61.8°F16.6°C 66% 7.0 mph E11.3 kmh E 9.0 mph14.5 kmh 30.04 in1017.3 mb 0.00 in0.0 mm 0.00 in0.0 mm 0.11 in2.8 mm
06:15 PM 73.9°F23.3°C 62.2°F16.8°C 67% 8.0 mph ENE12.9 kmh ENE 10.0 mph16.1 kmh 30.04 in1017.3 mb 0.00 in0.0 mm 0.00 in0.0 mm 0.11 in2.8 mm
06:16 PM 73.9°F23.3°C 62.2°F16.8°C 67% 8.0 mph ENE12.9 kmh ENE 11.0 mph17.7 kmh 30.04 in1017.3 mb 0.00 in0.0 mm 0.00 in0.0 mm 0.11 in2.8 mm
06:17 PM 73.9°F23.3°C 62.2°F16.8°C 67% 8.0 mph ENE12.9 kmh ENE 9.0 mph14.5 kmh 30.04 in1017.3 mb 0.00 in0.0 mm 0.00 in0.0 mm 0.11 in2.8 mm
06:18 PM 73.9°F23.3°C 62.2°F16.8°C 67% 7.0 mph ENE11.3 kmh ENE 9.0 mph14.5 kmh 30.04 in1017.3 mb 0.00 in0.0 mm 0.00 in0.0 mm 0.11 in2.8 mm
06:19 PM 73.9°F23.3°C 62.7°F17.1°C 68% 9.0 mph ENE14.5 kmh ENE 12.0 mph19.3 kmh 30.04 in1017.3 mb 0.00 in0.0 mm 0.00 in0.0 mm 0.11 in2.8 mm
06:20 PM 73.9°F23.3°C 62.7°F17.1°C 68% 9.0 mph ENE14.5 kmh ENE 12.0 mph19.3 kmh 30.04 in1017.3 mb 0.00 in0.0 mm 0.00 in0.0 mm 0.11 in2.8 mm
06:21 PM 73.9°F23.3°C 62.2°F16.8°C 67% 10.0 mph E16.1 kmh E 12.0 mph19.3 kmh 30.04 in1017.3 mb 0.00 in0.0 mm 0.00 in0.0 mm 0.11 in2.8 mm
06:22 PM 73.8°F23.2°C 62.1°F16.7°C 67% 11.0 mph ENE17.7 kmh ENE 14.0 mph22.5 kmh 30.04 in1017.3 mb 0.00 in0.0 mm 0.00 in0.0 mm 0.11 in2.8 mm
06:26 PM 73.7°F23.2°C 62.5°F16.9°C 68% 9.0 mph ENE14.5 kmh ENE 13.0 mph20.9 kmh 30.04 in1017.3 mb 0.00 in0.0 mm 0.00 in0.0 mm 0.11 in2.8 mm
06:27 PM 73.7°F23.2°C 62.5°F16.9°C 68% 11.0 mph ENE17.7 kmh ENE 13.0 mph20.9 kmh 30.04 in1017.3 mb 0.00 in0.0 mm 0.00 in0.0 mm 0.11 in2.8 mm
06:28 PM 73.7°F23.2°C 62.0°F16.7°C 67% 10.0 mph ENE16.1 kmh ENE 12.0 mph19.3 kmh 30.04 in1017.3 mb 0.00 in0.0 mm 0.00 in0.0 mm 0.11 in2.8 mm
06:29 PM 73.7°F23.2°C 62.5°F16.9°C 68% 9.0 mph ENE14.5 kmh ENE 12.0 mph19.3 kmh 30.04 in1017.3 mb 0.00 in0.0 mm 0.00 in0.0 mm 0.11 in2.8 mm
06:30 PM 73.7°F23.2°C 62.0°F16.7°C 67% 10.0 mph E16.1 kmh E 13.0 mph20.9 kmh 30.04 in1017.3 mb 0.00 in0.0 mm 0.00 in0.0 mm 0.11 in2.8 mm
06:31 PM 73.7°F23.2°C 62.5°F16.9°C 68% 9.0 mph ENE14.5 kmh ENE 12.0 mph19.3 kmh 30.04 in1017.3 mb 0.00 in0.0 mm 0.00 in0.0 mm 0.11 in2.8 mm
06:32 PM 73.6°F23.1°C 62.4°F16.9°C 68% 9.0 mph ENE14.5 kmh ENE 11.0 mph17.7 kmh 30.04 in1017.3 mb 0.00 in0.0 mm 0.00 in0.0 mm 0.11 in2.8 mm
06:33 PM 73.6°F23.1°C 62.4°F16.9°C 68% 8.0 mph E12.9 kmh E 10.0 mph16.1 kmh 30.04 in1017.3 mb 0.00 in0.0 mm 0.00 in0.0 mm 0.11 in2.8 mm
06:34 PM 73.7°F23.2°C 62.5°F16.9°C 68% 8.0 mph ENE12.9 kmh ENE 9.0 mph14.5 kmh 30.04 in1017.3 mb 0.00 in0.0 mm 0.00 in0.0 mm 0.11 in2.8 mm
06:35 PM 73.6°F23.1°C 62.4°F16.9°C 68% 8.0 mph ENE12.9 kmh ENE 13.0 mph20.9 kmh 30.04 in1017.3 mb 0.00 in0.0 mm 0.00 in0.0 mm 0.11 in2.8 mm
06:36 PM 73.7°F23.2°C 62.5°F16.9°C 68% 12.0 mph ENE19.3 kmh ENE 15.0 mph24.1 kmh 30.04 in1017.3 mb 0.00 in0.0 mm 0.00 in0.0 mm 0.11 in2.8 mm
06:37 PM 73.6°F23.1°C 62.4°F16.9°C 68% 11.0 mph ENE17.7 kmh ENE 13.0 mph20.9 kmh 30.04 in1017.3 mb 0.00 in0.0 mm 0.00 in0.0 mm 0.11 in2.8 mm
06:38 PM 73.7°F23.2°C 62.5°F16.9°C 68% 10.0 mph ENE16.1 kmh ENE 15.0 mph24.1 kmh 30.04 in1017.3 mb 0.00 in0.0 mm 0.00 in0.0 mm 0.11 in2.8 mm
06:39 PM 73.6°F23.1°C 62.4°F16.9°C 68% 9.0 mph ENE14.5 kmh ENE 12.0 mph19.3 kmh 30.04 in1017.3 mb 0.00 in0.0 mm 0.00 in0.0 mm 0.11 in2.8 mm
06:40 PM 73.6°F23.1°C 62.4°F16.9°C 68% 12.0 mph ENE19.3 kmh ENE 14.0 mph22.5 kmh 30.04 in1017.3 mb 0.00 in0.0 mm 0.00 in0.0 mm 0.11 in2.8 mm
06:41 PM 73.6°F23.1°C 62.0°F16.7°C 67% 11.0 mph ENE17.7 kmh ENE 14.0 mph22.5 kmh 30.04 in1017.3 mb 0.00 in0.0 mm 0.00 in0.0 mm 0.11 in2.8 mm
06:42 PM 73.6°F23.1°C 62.0°F16.7°C 67% 11.0 mph ENE17.7 kmh ENE 13.0 mph20.9 kmh 30.04 in1017.3 mb 0.00 in0.0 mm 0.00 in0.0 mm 0.11 in2.8 mm
06:43 PM 73.6°F23.1°C 62.0°F16.7°C 67% 12.0 mph ENE19.3 kmh ENE 15.0 mph24.1 kmh 30.04 in1017.3 mb 0.00 in0.0 mm 0.00 in0.0 mm 0.11 in2.8 mm
06:44 PM 73.6°F23.1°C 62.0°F16.7°C 67% 12.0 mph ENE19.3 kmh ENE 15.0 mph24.1 kmh 30.04 in1017.3 mb 0.00 in0.0 mm 0.00 in0.0 mm 0.11 in2.8 mm
06:45 PM 73.6°F23.1°C 62.0°F16.7°C 67% 11.0 mph ENE17.7 kmh ENE 14.0 mph22.5 kmh 30.04 in1017.3 mb 0.00 in0.0 mm 0.00 in0.0 mm 0.11 in2.8 mm
06:46 PM 73.5°F23.1°C 61.9°F16.6°C 67% 9.0 mph ENE14.5 kmh ENE 12.0 mph19.3 kmh 30.04 in1017.3 mb 0.00 in0.0 mm 0.00 in0.0 mm 0.11 in2.8 mm
06:47 PM 73.6°F23.1°C 62.0°F16.7°C 67% 11.0 mph E17.7 kmh E 13.0 mph20.9 kmh 30.04 in1017.3 mb 0.00 in0.0 mm 0.00 in0.0 mm 0.11 in2.8 mm
06:48 PM 73.5°F23.1°C 61.9°F16.6°C 67% 10.0 mph E16.1 kmh E 14.0 mph22.5 kmh 30.04 in1017.3 mb 0.00 in0.0 mm 0.00 in0.0 mm 0.11 in2.8 mm
06:49 PM 73.5°F23.1°C 61.9°F16.6°C 67% 10.0 mph E16.1 kmh E 14.0 mph22.5 kmh 30.04 in1017.3 mb 0.00 in0.0 mm 0.00 in0.0 mm 0.11 in2.8 mm
06:50 PM 73.5°F23.1°C 61.9°F16.6°C 67% 9.0 mph E14.5 kmh E 14.0 mph22.5 kmh 30.04 in1017.3 mb 0.00 in0.0 mm 0.00 in0.0 mm 0.11 in2.8 mm
06:51 PM 73.5°F23.1°C 61.9°F16.6°C 67% 7.0 mph ENE11.3 kmh ENE 11.0 mph17.7 kmh 30.04 in1017.3 mb 0.00 in0.0 mm 0.00 in0.0 mm 0.11 in2.8 mm
06:52 PM 73.5°F23.1°C 61.9°F16.6°C 67% 11.0 mph E17.7 kmh E 14.0 mph22.5 kmh 30.04 in1017.3 mb 0.00 in0.0 mm 0.00 in0.0 mm 0.11 in2.8 mm
06:53 PM 73.5°F23.1°C 61.9°F16.6°C 67% 10.0 mph ENE16.1 kmh ENE 14.0 mph22.5 kmh 30.04 in1017.3 mb 0.00 in0.0 mm 0.00 in0.0 mm 0.11 in2.8 mm
06:54 PM 73.5°F23.1°C 61.9°F16.6°C 67% 8.0 mph E12.9 kmh E 11.0 mph17.7 kmh 30.04 in1017.3 mb 0.00 in0.0 mm 0.00 in0.0 mm 0.11 in2.8 mm
06:55 PM 73.5°F23.1°C 61.9°F16.6°C 67% 7.0 mph ENE11.3 kmh ENE 9.0 mph14.5 kmh 30.04 in1017.3 mb 0.00 in0.0 mm 0.00 in0.0 mm 0.11 in2.8 mm
06:56 PM 73.5°F23.1°C 61.9°F16.6°C 67% 8.0 mph ENE12.9 kmh ENE 12.0 mph19.3 kmh 30.04 in1017.3 mb 0.00 in0.0 mm 0.00 in0.0 mm 0.11 in2.8 mm
06:57 PM 73.5°F23.1°C 62.3°F16.8°C 68% 7.0 mph E11.3 kmh E 9.0 mph14.5 kmh 30.04 in1017.3 mb 0.00 in0.0 mm 0.00 in0.0 mm 0.11 in2.8 mm
06:58 PM 73.5°F23.1°C 62.3°F16.8°C 68% 7.0 mph E11.3 kmh E 10.0 mph16.1 kmh 30.04 in1017.3 mb 0.00 in0.0 mm 0.00 in0.0 mm 0.11 in2.8 mm
06:59 PM 73.5°F23.1°C 62.3°F16.8°C 68% 9.0 mph E14.5 kmh E 11.0 mph17.7 kmh 30.03 in1016.9 mb 0.00 in0.0 mm 0.00 in0.0 mm 0.11 in2.8 mm
07:00 PM 73.4°F23.0°C 62.2°F16.8°C 68% 8.0 mph E12.9 kmh E 11.0 mph17.7 kmh 30.04 in1017.3 mb 0.00 in0.0 mm 0.00 in0.0 mm 0.11 in2.8 mm
07:01 PM 73.4°F23.0°C 62.2°F16.8°C 68% 13.0 mph E20.9 kmh E 16.0 mph25.7 kmh 30.04 in1017.3 mb 0.00 in0.0 mm 0.00 in0.0 mm 0.11 in2.8 mm
07:02 PM 73.4°F23.0°C 61.8°F16.6°C 67% 11.0 mph E17.7 kmh E 13.0 mph20.9 kmh 30.04 in1017.3 mb 0.00 in0.0 mm 0.00 in0.0 mm 0.11 in2.8 mm
07:03 PM 73.4°F23.0°C 62.2°F16.8°C 68% 8.0 mph E12.9 kmh E 11.0 mph17.7 kmh 30.04 in1017.3 mb 0.00 in0.0 mm 0.00 in0.0 mm 0.11 in2.8 mm
07:04 PM 73.3°F22.9°C 62.1°F16.7°C 68% 8.0 mph E12.9 kmh E 11.0 mph17.7 kmh 30.04 in1017.3 mb 0.00 in0.0 mm 0.00 in0.0 mm 0.11 in2.8 mm
07:05 PM 73.3°F22.9°C 62.1°F16.7°C 68% 7.0 mph ENE11.3 kmh ENE 10.0 mph16.1 kmh 30.04 in1017.3 mb 0.00 in0.0 mm 0.00 in0.0 mm 0.11 in2.8 mm
07:06 PM 73.2°F22.9°C 62.0°F16.7°C 68% 8.0 mph E12.9 kmh E 10.0 mph16.1 kmh 30.04 in1017.3 mb 0.00 in0.0 mm 0.00 in0.0 mm 0.11 in2.8 mm
07:07 PM 73.2°F22.9°C 62.0°F16.7°C 68% 9.0 mph ENE14.5 kmh ENE 13.0 mph20.9 kmh 30.04 in1017.3 mb 0.00 in0.0 mm 0.00 in0.0 mm 0.11 in2.8 mm
07:08 PM 73.2°F22.9°C 62.0°F16.7°C 68% 11.0 mph E17.7 kmh E 13.0 mph20.9 kmh 30.04 in1017.3 mb 0.00 in0.0 mm 0.00 in0.0 mm 0.11 in2.8 mm
07:09 PM 73.1°F22.8°C 61.9°F16.6°C 68% 9.0 mph E14.5 kmh E 12.0 mph19.3 kmh 30.04 in1017.3 mb 0.00 in0.0 mm 0.00 in0.0 mm 0.11 in2.8 mm
07:10 PM 73.1°F22.8°C 61.9°F16.6°C 68% 9.0 mph E14.5 kmh E 12.0 mph19.3 kmh 30.04 in1017.3 mb 0.00 in0.0 mm 0.00 in0.0 mm 0.11 in2.8 mm
07:11 PM 73.0°F22.8°C 62.2°F16.8°C 69% 9.0 mph ENE14.5 kmh ENE 13.0 mph20.9 kmh 30.04 in1017.3 mb 0.00 in0.0 mm 0.00 in0.0 mm 0.11 in2.8 mm
07:12 PM 73.0°F22.8°C 62.2°F16.8°C 69% 9.0 mph ENE14.5 kmh ENE 12.0 mph19.3 kmh 30.04 in1017.3 mb 0.00 in0.0 mm 0.00 in0.0 mm 0.11 in2.8 mm
07:13 PM 72.9°F22.7°C 62.1°F16.7°C 69% 10.0 mph E16.1 kmh E 12.0 mph19.3 kmh 30.04 in1017.3 mb 0.00 in0.0 mm 0.00 in0.0 mm 0.11 in2.8 mm
07:14 PM 72.8°F22.7°C 62.0°F16.7°C 69% 10.0 mph E16.1 kmh E 12.0 mph19.3 kmh 30.04 in1017.3 mb 0.00 in0.0 mm 0.00 in0.0 mm 0.11 in2.8 mm
07:15 PM 72.8°F22.7°C 62.0°F16.7°C 69% 9.0 mph ENE14.5 kmh ENE 12.0 mph19.3 kmh 30.04 in1017.3 mb 0.00 in0.0 mm 0.00 in0.0 mm 0.11 in2.8 mm
07:16 PM 72.8°F22.7°C 62.0°F16.7°C 69% 8.0 mph ENE12.9 kmh ENE 11.0 mph17.7 kmh 30.04 in1017.3 mb 0.00 in0.0 mm 0.00 in0.0 mm 0.11 in2.8 mm
07:17 PM 72.8°F22.7°C 62.0°F16.7°C 69% 8.0 mph E12.9 kmh E 11.0 mph17.7 kmh 30.04 in1017.3 mb 0.00 in0.0 mm 0.00 in0.0 mm 0.11 in2.8 mm
07:18 PM 72.7°F22.6°C 61.9°F16.6°C 69% 10.0 mph ENE16.1 kmh ENE 13.0 mph20.9 kmh 30.04 in1017.3 mb 0.00 in0.0 mm 0.00 in0.0 mm 0.11 in2.8 mm
07:19 PM 72.7°F22.6°C 61.9°F16.6°C 69% 10.0 mph E16.1 kmh E 12.0 mph19.3 kmh 30.04 in1017.3 mb 0.00 in0.0 mm 0.00 in0.0 mm 0.11 in2.8 mm
07:20 PM 72.6°F22.6°C 61.8°F16.6°C 69% 7.0 mph E11.3 kmh E 9.0 mph14.5 kmh 30.04 in1017.3 mb 0.00 in0.0 mm 0.00 in0.0 mm 0.11 in2.8 mm
07:21 PM 72.6°F22.6°C 61.8°F16.6°C 69% 9.0 mph E14.5 kmh E 12.0 mph19.3 kmh 30.04 in1017.3 mb 0.00 in0.0 mm 0.00 in0.0 mm 0.11 in2.8 mm
07:22 PM 72.6°F22.6°C 61.8°F16.6°C 69% 11.0 mph ENE17.7 kmh ENE 14.0 mph22.5 kmh 30.04 in1017.3 mb 0.00 in0.0 mm 0.00 in0.0 mm 0.11 in2.8 mm
07:23 PM 72.5°F22.5°C 61.7°F16.5°C 69% 11.0 mph ENE17.7 kmh ENE 13.0 mph20.9 kmh 30.04 in1017.3 mb 0.00 in0.0 mm 0.00 in0.0 mm 0.11 in2.8 mm
07:24 PM 72.5°F22.5°C 61.7°F16.5°C 69% 9.0 mph ENE14.5 kmh ENE 11.0 mph17.7 kmh 30.04 in1017.3 mb 0.00 in0.0 mm 0.00 in0.0 mm 0.11 in2.8 mm
07:25 PM 72.4°F22.4°C 61.6°F16.4°C 69% 8.0 mph ENE12.9 kmh ENE 10.0 mph16.1 kmh 30.04 in1017.3 mb 0.00 in0.0 mm 0.00 in0.0 mm 0.11 in2.8 mm
07:26 PM 72.4°F22.4°C 61.6°F16.4°C 69% 12.0 mph E19.3 kmh E 14.0 mph22.5 kmh 30.04 in1017.3 mb 0.00 in0.0 mm 0.00 in0.0 mm 0.11 in2.8 mm
07:27 PM 72.4°F22.4°C 61.6°F16.4°C 69% 10.0 mph E16.1 kmh E 13.0 mph20.9 kmh 30.04 in1017.3 mb 0.00 in0.0 mm 0.00 in0.0 mm 0.11 in2.8 mm
07:28 PM 72.4°F22.4°C 62.0°F16.7°C 70% 7.0 mph ENE11.3 kmh ENE 10.0 mph16.1 kmh 30.04 in1017.3 mb 0.00 in0.0 mm 0.00 in0.0 mm 0.11 in2.8 mm
07:29 PM 72.3°F22.4°C 62.0°F16.7°C 70% 6.0 mph E9.7 kmh E 9.0 mph14.5 kmh 30.04 in1017.3 mb 0.00 in0.0 mm 0.00 in0.0 mm 0.11 in2.8 mm
07:30 PM 72.3°F22.4°C 62.0°F16.7°C 70% 8.0 mph ENE12.9 kmh ENE 11.0 mph17.7 kmh 30.04 in1017.3 mb 0.00 in0.0 mm 0.00 in0.0 mm 0.11 in2.8 mm
07:31 PM 72.3°F22.4°C 62.0°F16.7°C 70% 11.0 mph ENE17.7 kmh ENE 14.0 mph22.5 kmh 30.04 in1017.3 mb 0.00 in0.0 mm 0.00 in0.0 mm 0.11 in2.8 mm
07:32 PM 72.2°F22.3°C 61.9°F16.6°C 70% 11.0 mph ENE17.7 kmh ENE 15.0 mph24.1 kmh 30.04 in1017.3 mb 0.00 in0.0 mm 0.00 in0.0 mm 0.11 in2.8 mm
07:33 PM 72.2°F22.3°C 61.9°F16.6°C 70% 10.0 mph ENE16.1 kmh ENE 15.0 mph24.1 kmh 30.04 in1017.3 mb 0.00 in0.0 mm 0.00 in0.0 mm 0.11 in2.8 mm
07:34 PM 72.2°F22.3°C 61.9°F16.6°C 70% 8.0 mph ENE12.9 kmh ENE 10.0 mph16.1 kmh 30.04 in1017.3 mb 0.00 in0.0 mm 0.00 in0.0 mm 0.11 in2.8 mm
07:35 PM 72.2°F22.3°C 61.9°F16.6°C 70% 11.0 mph ENE17.7 kmh ENE 13.0 mph20.9 kmh 30.04 in1017.3 mb 0.00 in0.0 mm 0.00 in0.0 mm 0.11 in2.8 mm
07:37 PM 72.1°F22.3°C 62.2°F16.8°C 71% 10.0 mph ENE16.1 kmh ENE 13.0 mph20.9 kmh 30.04 in1017.3 mb 0.00 in0.0 mm 0.00 in0.0 mm 0.11 in2.8 mm
07:38 PM 72.1°F22.3°C 62.2°F16.8°C 71% 7.0 mph E11.3 kmh E 9.0 mph14.5 kmh 30.04 in1017.3 mb 0.00 in0.0 mm 0.00 in0.0 mm 0.11 in2.8 mm
07:39 PM 72.0°F22.2°C 62.1°F16.7°C 71% 9.0 mph ENE14.5 kmh ENE 12.0 mph19.3 kmh 30.04 in1017.3 mb 0.00 in0.0 mm 0.00 in0.0 mm 0.11 in2.8 mm
07:40 PM 72.0°F22.2°C 62.1°F16.7°C 71% 9.0 mph ENE14.5 kmh ENE 10.0 mph16.1 kmh 30.04 in1017.3 mb 0.00 in0.0 mm 0.00 in0.0 mm 0.11 in2.8 mm
07:41 PM 71.9°F22.2°C 62.0°F16.7°C 71% 8.0 mph ENE12.9 kmh ENE 9.0 mph14.5 kmh 30.04 in1017.3 mb 0.00 in0.0 mm 0.00 in0.0 mm 0.11 in2.8 mm
07:42 PM 71.9°F22.2°C 62.0°F16.7°C 71% 10.0 mph ENE16.1 kmh ENE 13.0 mph20.9 kmh 30.05 in1017.6 mb 0.00 in0.0 mm 0.00 in0.0 mm 0.11 in2.8 mm
07:43 PM 71.9°F22.2°C 62.0°F16.7°C 71% 9.0 mph ENE14.5 kmh ENE 12.0 mph19.3 kmh 30.04 in1017.3 mb 0.00 in0.0 mm 0.00 in0.0 mm 0.11 in2.8 mm
07:44 PM 71.8°F22.1°C 61.9°F16.6°C 71% 9.0 mph ENE14.5 kmh ENE 12.0 mph19.3 kmh 30.05 in1017.6 mb 0.00 in0.0 mm 0.00 in0.0 mm 0.11 in2.8 mm
07:45 PM 71.8°F22.1°C 62.3°F16.8°C 72% 8.0 mph ENE12.9 kmh ENE 11.0 mph17.7 kmh 30.05 in1017.6 mb 0.00 in0.0 mm 0.00 in0.0 mm 0.11 in2.8 mm
07:46 PM 71.8°F22.1°C 62.3°F16.8°C 72% 8.0 mph ENE12.9 kmh ENE 10.0 mph16.1 kmh 30.05 in1017.6 mb 0.00 in0.0 mm 0.00 in0.0 mm 0.11 in2.8 mm
07:47 PM 71.7°F22.1°C 62.2°F16.8°C 72% 7.0 mph ENE11.3 kmh ENE 12.0 mph19.3 kmh 30.05 in1017.6 mb 0.00 in0.0 mm 0.00 in0.0 mm 0.11 in2.8 mm
07:48 PM 71.8°F22.1°C 62.3°F16.8°C 72% 9.0 mph ENE14.5 kmh ENE 11.0 mph17.7 kmh 30.05 in1017.6 mb 0.00 in0.0 mm 0.00 in0.0 mm 0.11 in2.8 mm
07:49 PM 71.7°F22.1°C 62.2°F16.8°C 72% 7.0 mph ENE11.3 kmh ENE 10.0 mph16.1 kmh 30.05 in1017.6 mb 0.00 in0.0 mm 0.00 in0.0 mm 0.11 in2.8 mm
07:50 PM 71.6°F22.0°C 62.1°F16.7°C 72% 9.0 mph ENE14.5 kmh ENE 12.0 mph19.3 kmh 30.05 in1017.6 mb 0.00 in0.0 mm 0.00 in0.0 mm 0.11 in2.8 mm
07:51 PM 71.6°F22.0°C 62.1°F16.7°C 72% 7.0 mph ENE11.3 kmh ENE 9.0 mph14.5 kmh 30.05 in1017.6 mb 0.00 in0.0 mm 0.00 in0.0 mm 0.11 in2.8 mm
07:52 PM 71.6°F22.0°C 62.1°F16.7°C 72% 7.0 mph ENE11.3 kmh ENE 11.0 mph17.7 kmh 30.05 in1017.6 mb 0.00 in0.0 mm 0.00 in0.0 mm 0.11 in2.8 mm
07:53 PM 71.5°F21.9°C 62.0°F16.7°C 72% 9.0 mph ENE14.5 kmh ENE 13.0 mph20.9 kmh 30.05 in1017.6 mb 0.00 in0.0 mm 0.00 in0.0 mm 0.11 in2.8 mm
07:54 PM 71.5°F21.9°C 62.4°F16.9°C 73% 7.0 mph ENE11.3 kmh ENE 10.0 mph16.1 kmh 30.05 in1017.6 mb 0.00 in0.0 mm 0.00 in0.0 mm 0.11 in2.8 mm
07:55 PM 71.4°F21.9°C 62.3°F16.8°C 73% 8.0 mph ENE12.9 kmh ENE 10.0 mph16.1 kmh 30.05 in1017.6 mb 0.00 in0.0 mm 0.00 in0.0 mm 0.11 in2.8 mm
07:56 PM 71.4°F21.9°C 62.3°F16.8°C 73% 8.0 mph E12.9 kmh E 9.0 mph14.5 kmh 30.05 in1017.6 mb 0.00 in0.0 mm 0.00 in0.0 mm 0.11 in2.8 mm
07:57 PM 71.4°F21.9°C 62.3°F16.8°C 73% 8.0 mph ENE12.9 kmh ENE 11.0 mph17.7 kmh 30.05 in1017.6 mb 0.00 in0.0 mm 0.00 in0.0 mm 0.11 in2.8 mm
07:58 PM 71.3°F21.8°C 62.2°F16.8°C 73% 9.0 mph ENE14.5 kmh ENE 13.0 mph20.9 kmh 30.05 in1017.6 mb 0.00 in0.0 mm 0.00 in0.0 mm 0.11 in2.8 mm
07:59 PM 71.3°F21.8°C 62.2°F16.8°C 73% 8.0 mph ENE12.9 kmh ENE 10.0 mph16.1 kmh 30.05 in1017.6 mb 0.00 in0.0 mm 0.00 in0.0 mm 0.11 in2.8 mm
08:00 PM 71.3°F21.8°C 62.2°F16.8°C 73% 9.0 mph ENE14.5 kmh ENE 10.0 mph16.1 kmh 30.05 in1017.6 mb 0.00 in0.0 mm 0.00 in0.0 mm 0.11 in2.8 mm
08:01 PM 71.3°F21.8°C 62.2°F16.8°C 73% 8.0 mph ENE12.9 kmh ENE 11.0 mph17.7 kmh 30.05 in1017.6 mb 0.00 in0.0 mm 0.00 in0.0 mm 0.11 in2.8 mm
08:02 PM 71.2°F21.8°C 62.1°F16.7°C 73% 7.0 mph E11.3 kmh E 10.0 mph16.1 kmh 30.05 in1017.6 mb 0.00 in0.0 mm 0.00 in0.0 mm 0.11 in2.8 mm
08:03 PM 71.2°F21.8°C 62.1°F16.7°C 73% 7.0 mph ENE11.3 kmh ENE 9.0 mph14.5 kmh 30.05 in1017.6 mb 0.00 in0.0 mm 0.00 in0.0 mm 0.11 in2.8 mm
08:04 PM 71.2°F21.8°C 62.1°F16.7°C 73% 7.0 mph ENE11.3 kmh ENE 9.0 mph14.5 kmh 30.05 in1017.6 mb 0.00 in0.0 mm 0.00 in0.0 mm 0.11 in2.8 mm
08:05 PM 71.2°F21.8°C 62.1°F16.7°C 73% 7.0 mph E11.3 kmh E 10.0 mph16.1 kmh 30.05 in1017.6 mb 0.00 in0.0 mm 0.00 in0.0 mm 0.11 in2.8 mm
08:06 PM 71.1°F21.7°C 62.0°F16.7°C 73% 6.0 mph E9.7 kmh E 8.0 mph12.9 kmh 30.05 in1017.6 mb 0.00 in0.0 mm 0.00 in0.0 mm 0.11 in2.8 mm
08:07 PM 71.1°F21.7°C 62.0°F16.7°C 73% 9.0 mph E14.5 kmh E 11.0 mph17.7 kmh 30.05 in1017.6 mb 0.00 in0.0 mm 0.00 in0.0 mm 0.11 in2.8 mm
08:08 PM 71.0°F21.7°C 62.3°F16.8°C 74% 8.0 mph ENE12.9 kmh ENE 10.0 mph16.1 kmh 30.05 in1017.6 mb 0.00 in0.0 mm 0.00 in0.0 mm 0.11 in2.8 mm
08:10 PM 71.0°F21.7°C 62.3°F16.8°C 74% 9.0 mph E14.5 kmh E 11.0 mph17.7 kmh 30.05 in1017.6 mb 0.00 in0.0 mm 0.00 in0.0 mm 0.11 in2.8 mm
08:11 PM 70.9°F21.6°C 62.2°F16.8°C 74% 8.0 mph E12.9 kmh E 11.0 mph17.7 kmh 30.05 in1017.6 mb 0.00 in0.0 mm 0.00 in0.0 mm 0.11 in2.8 mm
08:12 PM 70.8°F21.6°C 62.1°F16.7°C 74% 10.0 mph E16.1 kmh E 11.0 mph17.7 kmh 30.05 in1017.6 mb 0.00 in0.0 mm 0.00 in0.0 mm 0.11 in2.8 mm
08:13 PM 70.8°F21.6°C 62.1°F16.7°C 74% 7.0 mph E11.3 kmh E 10.0 mph16.1 kmh 30.05 in1017.6 mb 0.00 in0.0 mm 0.00 in0.0 mm 0.11 in2.8 mm
08:14 PM 70.8°F21.6°C 62.1°F16.7°C 74% 6.0 mph E9.7 kmh E 9.0 mph14.5 kmh 30.05 in1017.6 mb 0.00 in0.0 mm 0.00 in0.0 mm 0.11 in2.8 mm
08:15 PM 70.8°F21.6°C 62.1°F16.7°C 74% 7.0 mph E11.3 kmh E 9.0 mph14.5 kmh 30.05 in1017.6 mb 0.00 in0.0 mm 0.00 in0.0 mm 0.11 in2.8 mm
08:16 PM 70.7°F21.5°C 62.0°F16.7°C 74% 7.0 mph E11.3 kmh E 10.0 mph16.1 kmh 30.05 in1017.6 mb 0.00 in0.0 mm 0.00 in0.0 mm 0.11 in2.8 mm
08:17 PM 70.6°F21.4°C 61.9°F16.6°C 74% 9.0 mph ENE14.5 kmh ENE 11.0 mph17.7 kmh 30.05 in1017.6 mb 0.00 in0.0 mm 0.00 in0.0 mm 0.11 in2.8 mm
08:18 PM 70.6°F21.4°C 61.9°F16.6°C 74% 7.0 mph E11.3 kmh E 10.0 mph16.1 kmh 30.05 in1017.6 mb 0.00 in0.0 mm 0.00 in0.0 mm 0.11 in2.8 mm
08:19 PM 70.6°F21.4°C 61.9°F16.6°C 74% 8.0 mph E12.9 kmh E 11.0 mph17.7 kmh 30.05 in1017.6 mb 0.00 in0.0 mm 0.00 in0.0 mm 0.11 in2.8 mm
08:20 PM 70.5°F21.4°C 62.2°F16.8°C 75% 8.0 mph E12.9 kmh E 10.0 mph16.1 kmh 30.05 in1017.6 mb 0.00 in0.0 mm 0.00 in0.0 mm 0.11 in2.8 mm
08:21 PM 70.5°F21.4°C 61.8°F16.6°C 74% 7.0 mph ENE11.3 kmh ENE 10.0 mph16.1 kmh 30.05 in1017.6 mb 0.00 in0.0 mm 0.00 in0.0 mm 0.11 in2.8 mm
08:22 PM 70.4°F21.3°C 62.1°F16.7°C 75% 8.0 mph E12.9 kmh E 11.0 mph17.7 kmh 30.05 in1017.6 mb 0.00 in0.0 mm 0.00 in0.0 mm 0.11 in2.8 mm
08:23 PM 70.4°F21.3°C 62.1°F16.7°C 75% 8.0 mph E12.9 kmh E 9.0 mph14.5 kmh 30.05 in1017.6 mb 0.00 in0.0 mm 0.00 in0.0 mm 0.11 in2.8 mm
08:24 PM 70.3°F21.3°C 62.0°F16.7°C 75% 8.0 mph E12.9 kmh E 10.0 mph16.1 kmh 30.05 in1017.6 mb 0.00 in0.0 mm 0.00 in0.0 mm 0.11 in2.8 mm
08:25 PM 70.3°F21.3°C 62.0°F16.7°C 75% 8.0 mph E12.9 kmh E 10.0 mph16.1 kmh 30.05 in1017.6 mb 0.00 in0.0 mm 0.00 in0.0 mm 0.11 in2.8 mm
08:26 PM 70.2°F21.2°C 61.9°F16.6°C 75% 7.0 mph E11.3 kmh E 9.0 mph14.5 kmh 30.05 in1017.6 mb 0.00 in0.0 mm 0.00 in0.0 mm 0.11 in2.8 mm
08:27 PM 70.2°F21.2°C 61.9°F16.6°C 75% 8.0 mph E12.9 kmh E 12.0 mph19.3 kmh 30.05 in1017.6 mb 0.00 in0.0 mm 0.00 in0.0 mm 0.11 in2.8 mm
08:28 PM 70.1°F21.2°C 61.8°F16.6°C 75% 10.0 mph E16.1 kmh E 13.0 mph20.9 kmh 30.05 in1017.6 mb 0.00 in0.0 mm 0.00 in0.0 mm 0.11 in2.8 mm
08:29 PM 70.1°F21.2°C 61.8°F16.6°C 75% 9.0 mph E14.5 kmh E 11.0 mph17.7 kmh 30.05 in1017.6 mb 0.00 in0.0 mm 0.00 in0.0 mm 0.11 in2.8 mm
08:30 PM 70.0°F21.1°C 61.7°F16.5°C 75% 9.0 mph E14.5 kmh E 12.0 mph19.3 kmh 30.06 in1017.9 mb 0.00 in0.0 mm 0.00 in0.0 mm 0.11 in2.8 mm
08:31 PM 70.0°F21.1°C 61.7°F16.5°C 75% 8.0 mph ENE12.9 kmh ENE 11.0 mph17.7 kmh 30.06 in1017.9 mb 0.00 in0.0 mm 0.00 in0.0 mm 0.11 in2.8 mm
08:32 PM 70.0°F21.1°C 61.7°F16.5°C 75% 8.0 mph E12.9 kmh E 11.0 mph17.7 kmh 30.05 in1017.6 mb 0.00 in0.0 mm 0.00 in0.0 mm 0.11 in2.8 mm
08:33 PM 69.9°F21.1°C 61.6°F16.4°C 75% 10.0 mph E16.1 kmh E 12.0 mph19.3 kmh 30.06 in1017.9 mb 0.00 in0.0 mm 0.00 in0.0 mm 0.11 in2.8 mm
08:34 PM 69.8°F21.0°C 61.5°F16.4°C 75% 9.0 mph E14.5 kmh E 12.0 mph19.3 kmh 30.06 in1017.9 mb 0.00 in0.0 mm 0.00 in0.0 mm 0.11 in2.8 mm
08:35 PM 69.8°F21.0°C 61.5°F16.4°C 75% 9.0 mph E14.5 kmh E 13.0 mph20.9 kmh 30.06 in1017.9 mb 0.00 in0.0 mm 0.00 in0.0 mm 0.11 in2.8 mm
08:36 PM 69.7°F20.9°C 61.4°F16.3°C 75% 11.0 mph E17.7 kmh E 15.0 mph24.1 kmh 30.06 in1017.9 mb 0.00 in0.0 mm 0.00 in0.0 mm 0.11 in2.8 mm
08:37 PM 69.7°F20.9°C 61.4°F16.3°C 75% 10.0 mph E16.1 kmh E 13.0 mph20.9 kmh 30.06 in1017.9 mb 0.00 in0.0 mm 0.00 in0.0 mm 0.11 in2.8 mm
08:38 PM 69.7°F20.9°C 61.4°F16.3°C 75% 10.0 mph E16.1 kmh E 12.0 mph19.3 kmh 30.06 in1017.9 mb 0.00 in0.0 mm 0.00 in0.0 mm 0.11 in2.8 mm
08:39 PM 69.7°F20.9°C 61.0°F16.1°C 74% 10.0 mph E16.1 kmh E 13.0 mph20.9 kmh 30.06 in1017.9 mb 0.00 in0.0 mm 0.00 in0.0 mm 0.11 in2.8 mm
08:40 PM 69.5°F20.8°C 60.8°F16.0°C 74% 9.0 mph E14.5 kmh E 11.0 mph17.7 kmh 30.06 in1017.9 mb 0.00 in0.0 mm 0.00 in0.0 mm 0.11 in2.8 mm
08:41 PM 69.6°F20.9°C 60.9°F16.1°C 74% 8.0 mph E12.9 kmh E 10.0 mph16.1 kmh 30.06 in1017.9 mb 0.00 in0.0 mm 0.00 in0.0 mm 0.11 in2.8 mm
08:42 PM 69.5°F20.8°C 60.8°F16.0°C 74% 10.0 mph E16.1 kmh E 14.0 mph22.5 kmh 30.06 in1017.9 mb 0.00 in0.0 mm 0.00 in0.0 mm 0.11 in2.8 mm
08:43 PM 69.5°F20.8°C 60.8°F16.0°C 74% 10.0 mph E16.1 kmh E 13.0 mph20.9 kmh 30.06 in1017.9 mb 0.00 in0.0 mm 0.00 in0.0 mm 0.11 in2.8 mm
08:45 PM 69.4°F20.8°C 60.7°F15.9°C 74% 13.0 mph E20.9 kmh E 15.0 mph24.1 kmh 30.06 in1017.9 mb 0.00 in0.0 mm 0.00 in0.0 mm 0.11 in2.8 mm
08:46 PM 69.5°F20.8°C 60.5°F15.8°C 73% 12.0 mph E19.3 kmh E 15.0 mph24.1 kmh 30.06 in1017.9 mb 0.00 in0.0 mm 0.00 in0.0 mm 0.11 in2.8 mm
08:47 PM 69.4°F20.8°C 60.4°F15.8°C 73% 12.0 mph E19.3 kmh E 15.0 mph24.1 kmh 30.06 in1017.9 mb 0.00 in0.0 mm 0.00 in0.0 mm 0.11 in2.8 mm
08:48 PM 69.4°F20.8°C 60.4°F15.8°C 73% 12.0 mph E19.3 kmh E 15.0 mph24.1 kmh 30.06 in1017.9 mb 0.00 in0.0 mm 0.00 in0.0 mm 0.11 in2.8 mm
08:49 PM 69.4°F20.8°C 60.4°F15.8°C 73% 11.0 mph E17.7 kmh E 14.0 mph22.5 kmh 30.06 in1017.9 mb 0.00 in0.0 mm 0.00 in0.0 mm 0.11 in2.8 mm
08:50 PM 69.4°F20.8°C 60.4°F15.8°C 73% 11.0 mph E17.7 kmh E 16.0 mph25.7 kmh 30.06 in1017.9 mb 0.00 in0.0 mm 0.00 in0.0 mm 0.11 in2.8 mm
08:51 PM 69.3°F20.7°C 60.3°F15.7°C 73% 11.0 mph E17.7 kmh E 15.0 mph24.1 kmh 30.06 in1017.9 mb 0.00 in0.0 mm 0.00 in0.0 mm 0.11 in2.8 mm
08:52 PM 69.2°F20.7°C 60.2°F15.7°C 73% 11.0 mph E17.7 kmh E 14.0 mph22.5 kmh 30.06 in1017.9 mb 0.00 in0.0 mm 0.00 in0.0 mm 0.11 in2.8 mm
08:53 PM 69.2°F20.7°C 60.2°F15.7°C 73% 12.0 mph E19.3 kmh E 15.0 mph24.1 kmh 30.06 in1017.9 mb 0.00 in0.0 mm 0.00 in0.0 mm 0.11 in2.8 mm
08:54 PM 69.1°F20.6°C 60.1°F15.6°C 73% 10.0 mph E16.1 kmh E 13.0 mph20.9 kmh 30.06 in1017.9 mb 0.00 in0.0 mm 0.00 in0.0 mm 0.11 in2.8 mm
08:55 PM 69.1°F20.6°C 60.1°F15.6°C 73% 11.0 mph E17.7 kmh E 15.0 mph24.1 kmh 30.06 in1017.9 mb 0.00 in0.0 mm 0.00 in0.0 mm 0.11 in2.8 mm
08:56 PM 69.0°F20.6°C 60.0°F15.6°C 73% 11.0 mph E17.7 kmh E 14.0 mph22.5 kmh 30.06 in1017.9 mb 0.00 in0.0 mm 0.00 in0.0 mm 0.11 in2.8 mm
08:57 PM 69.0°F20.6°C 60.0°F15.6°C 73% 8.0 mph E12.9 kmh E 12.0 mph19.3 kmh 30.06 in1017.9 mb 0.00 in0.0 mm 0.00 in0.0 mm 0.11 in2.8 mm
08:58 PM 69.0°F20.6°C 60.0°F15.6°C 73% 9.0 mph E14.5 kmh E 11.0 mph17.7 kmh 30.06 in1017.9 mb 0.00 in0.0 mm 0.00 in0.0 mm 0.11 in2.8 mm
08:59 PM 68.9°F20.5°C 59.9°F15.5°C 73% 10.0 mph E16.1 kmh E 13.0 mph20.9 kmh 30.06 in1017.9 mb 0.00 in0.0 mm 0.00 in0.0 mm 0.11 in2.8 mm
09:00 PM 68.9°F20.5°C 59.9°F15.5°C 73% 9.0 mph E14.5 kmh E 13.0 mph20.9 kmh 30.06 in1017.9 mb 0.00 in0.0 mm 0.00 in0.0 mm 0.11 in2.8 mm
09:01 PM 68.8°F20.4°C 59.8°F15.4°C 73% 12.0 mph E19.3 kmh E 15.0 mph24.1 kmh 30.06 in1017.9 mb 0.00 in0.0 mm 0.00 in0.0 mm 0.11 in2.8 mm
09:02 PM 68.8°F20.4°C 59.8°F15.4°C 73% 11.0 mph E17.7 kmh E 14.0 mph22.5 kmh 30.06 in1017.9 mb 0.00 in0.0 mm 0.00 in0.0 mm 0.11 in2.8 mm
09:03 PM 68.7°F20.4°C 59.7°F15.4°C 73% 10.0 mph E16.1 kmh E 12.0 mph19.3 kmh 30.06 in1017.9 mb 0.00 in0.0 mm 0.00 in0.0 mm 0.11 in2.8 mm
09:04 PM 68.6°F20.3°C 59.6°F15.3°C 73% 10.0 mph E16.1 kmh E 16.0 mph25.7 kmh 30.06 in1017.9 mb 0.00 in0.0 mm 0.00 in0.0 mm 0.11 in2.8 mm
09:05 PM 68.6°F20.3°C 59.6°F15.3°C 73% 10.0 mph E16.1 kmh E 12.0 mph19.3 kmh 30.06 in1017.9 mb 0.00 in0.0 mm 0.00 in0.0 mm 0.11 in2.8 mm
09:06 PM 68.5°F20.3°C 59.9°F15.5°C 74% 11.0 mph E17.7 kmh E 14.0 mph22.5 kmh 30.06 in1017.9 mb 0.00 in0.0 mm 0.00 in0.0 mm 0.11 in2.8 mm
09:07 PM 68.5°F20.3°C 59.9°F15.5°C 74% 9.0 mph E14.5 kmh E 14.0 mph22.5 kmh 30.06 in1017.9 mb 0.00 in0.0 mm 0.00 in0.0 mm 0.11 in2.8 mm
09:08 PM 68.4°F20.2°C 59.8°F15.4°C 74% 10.0 mph E16.1 kmh E 13.0 mph20.9 kmh 30.06 in1017.9 mb 0.00 in0.0 mm 0.00 in0.0 mm 0.11 in2.8 mm
09:09 PM 68.4°F20.2°C 59.8°F15.4°C 74% 10.0 mph E16.1 kmh E 12.0 mph19.3 kmh 30.06 in1017.9 mb 0.00 in0.0 mm 0.00 in0.0 mm 0.11 in2.8 mm
09:10 PM 68.3°F20.2°C 59.7°F15.4°C 74% 10.0 mph E16.1 kmh E 13.0 mph20.9 kmh 30.06 in1017.9 mb 0.00 in0.0 mm 0.00 in0.0 mm 0.11 in2.8 mm
09:11 PM 68.2°F20.1°C 59.6°F15.3°C 74% 11.0 mph E17.7 kmh E 13.0 mph20.9 kmh 30.06 in1017.9 mb 0.00 in0.0 mm 0.00 in0.0 mm 0.11 in2.8 mm
09:12 PM 68.2°F20.1°C 59.6°F15.3°C 74% 10.0 mph E16.1 kmh E 13.0 mph20.9 kmh 30.06 in1017.9 mb 0.00 in0.0 mm 0.00 in0.0 mm 0.11 in2.8 mm
09:13 PM 68.1°F20.1°C 59.9°F15.5°C 75% 8.0 mph E12.9 kmh E 11.0 mph17.7 kmh 30.06 in1017.9 mb 0.00 in0.0 mm 0.00 in0.0 mm 0.11 in2.8 mm
09:14 PM 68.1°F20.1°C 59.9°F15.5°C 75% 10.0 mph E16.1 kmh E 11.0 mph17.7 kmh 30.06 in1017.9 mb 0.00 in0.0 mm 0.00 in0.0 mm 0.11 in2.8 mm
09:15 PM 68.0°F20.0°C 59.8°F15.4°C 75% 10.0 mph E16.1 kmh E 12.0 mph19.3 kmh 30.06 in1017.9 mb 0.00 in0.0 mm 0.00 in0.0 mm 0.11 in2.8 mm
09:16 PM 67.9°F19.9°C 59.7°F15.4°C 75% 8.0 mph E12.9 kmh E 11.0 mph17.7 kmh 30.06 in1017.9 mb 0.00 in0.0 mm 0.00 in0.0 mm 0.11 in2.8 mm
09:17 PM 67.9°F19.9°C 59.7°F15.4°C 75% 9.0 mph E14.5 kmh E 14.0 mph22.5 kmh 30.06 in1017.9 mb 0.00 in0.0 mm 0.00 in0.0 mm 0.11 in2.8 mm
09:18 PM 67.7°F19.8°C 59.5°F15.3°C 75% 10.0 mph E16.1 kmh E 12.0 mph19.3 kmh 30.06 in1017.9 mb 0.00 in0.0 mm 0.00 in0.0 mm 0.11 in2.8 mm
09:19 PM 67.7°F19.8°C 59.5°F15.3°C 75% 10.0 mph E16.1 kmh E 12.0 mph19.3 kmh 30.06 in1017.9 mb 0.00 in0.0 mm 0.00 in0.0 mm 0.11 in2.8 mm
09:20 PM 67.6°F19.8°C 59.4°F15.2°C 75% 9.0 mph E14.5 kmh E 12.0 mph19.3 kmh 30.06 in1017.9 mb 0.00 in0.0 mm 0.00 in0.0 mm 0.11 in2.8 mm
09:21 PM 67.6°F19.8°C 59.4°F15.2°C 75% 10.0 mph E16.1 kmh E 12.0 mph19.3 kmh 30.06 in1017.9 mb 0.00 in0.0 mm 0.00 in0.0 mm 0.11 in2.8 mm
09:22 PM 67.6°F19.8°C 59.8°F15.4°C 76% 10.0 mph E16.1 kmh E 12.0 mph19.3 kmh 30.06 in1017.9 mb 0.00 in0.0 mm 0.00 in0.0 mm 0.11 in2.8 mm
09:23 PM 67.5°F19.7°C 59.7°F15.4°C 76% 9.0 mph E14.5 kmh E 11.0 mph17.7 kmh 30.06 in1017.9 mb 0.00 in0.0 mm 0.00 in0.0 mm 0.11 in2.8 mm
09:24 PM 67.4°F19.7°C 59.6°F15.3°C 76% 10.0 mph E16.1 kmh E 12.0 mph19.3 kmh 30.06 in1017.9 mb 0.00 in0.0 mm 0.00 in0.0 mm 0.11 in2.8 mm
09:25 PM 67.4°F19.7°C 59.6°F15.3°C 76% 10.0 mph E16.1 kmh E 13.0 mph20.9 kmh 30.06 in1017.9 mb 0.00 in0.0 mm 0.00 in0.0 mm 0.11 in2.8 mm
09:26 PM 67.3°F19.6°C 59.5°F15.3°C 76% 9.0 mph E14.5 kmh E 10.0 mph16.1 kmh 30.06 in1017.9 mb 0.00 in0.0 mm 0.00 in0.0 mm 0.11 in2.8 mm
09:27 PM 67.3°F19.6°C 59.5°F15.3°C 76% 9.0 mph E14.5 kmh E 10.0 mph16.1 kmh 30.06 in1017.9 mb 0.00 in0.0 mm 0.00 in0.0 mm 0.11 in2.8 mm
09:28 PM 67.2°F19.6°C 59.4°F15.2°C 76% 9.0 mph E14.5 kmh E 10.0 mph16.1 kmh 30.06 in1017.9 mb 0.00 in0.0 mm 0.00 in0.0 mm 0.11 in2.8 mm
09:29 PM 67.2°F19.6°C 59.4°F15.2°C 76% 9.0 mph E14.5 kmh E 10.0 mph16.1 kmh 30.06 in1017.9 mb 0.00 in0.0 mm 0.00 in0.0 mm 0.11 in2.8 mm
09:30 PM 67.1°F19.5°C 59.3°F15.2°C 76% 9.0 mph E14.5 kmh E 11.0 mph17.7 kmh 30.06 in1017.9 mb 0.00 in0.0 mm 0.00 in0.0 mm 0.11 in2.8 mm
09:31 PM 67.1°F19.5°C 59.6°F15.3°C 77% 9.0 mph E14.5 kmh E 11.0 mph17.7 kmh 30.06 in1017.9 mb 0.00 in0.0 mm 0.00 in0.0 mm 0.11 in2.8 mm
09:32 PM 67.1°F19.5°C 59.6°F15.3°C 77% 8.0 mph E12.9 kmh E 11.0 mph17.7 kmh 30.06 in1017.9 mb 0.00 in0.0 mm 0.00 in0.0 mm 0.11 in2.8 mm
09:33 PM 67.0°F19.4°C 59.5°F15.3°C 77% 9.0 mph E14.5 kmh E 13.0 mph20.9 kmh 30.06 in1017.9 mb 0.00 in0.0 mm 0.00 in0.0 mm 0.11 in2.8 mm
09:34 PM 67.0°F19.4°C 59.5°F15.3°C 77% 9.0 mph E14.5 kmh E 11.0 mph17.7 kmh 30.06 in1017.9 mb 0.00 in0.0 mm 0.00 in0.0 mm 0.11 in2.8 mm
09:35 PM 66.9°F19.4°C 59.4°F15.2°C 77% 8.0 mph E12.9 kmh E 12.0 mph19.3 kmh 30.06 in1017.9 mb 0.00 in0.0 mm 0.00 in0.0 mm 0.11 in2.8 mm
09:36 PM 66.9°F19.4°C 59.4°F15.2°C 77% 9.0 mph E14.5 kmh E 11.0 mph17.7 kmh 30.06 in1017.9 mb 0.00 in0.0 mm 0.00 in0.0 mm 0.11 in2.8 mm
09:37 PM 66.8°F19.3°C 59.4°F15.2°C 77% 8.0 mph E12.9 kmh E 9.0 mph14.5 kmh 30.06 in1017.9 mb 0.00 in0.0 mm 0.00 in0.0 mm 0.11 in2.8 mm
09:38 PM 66.8°F19.3°C 59.4°F15.2°C 77% 8.0 mph E12.9 kmh E 9.0 mph14.5 kmh 30.06 in1017.9 mb 0.00 in0.0 mm 0.00 in0.0 mm 0.11 in2.8 mm
09:39 PM 66.8°F19.3°C 59.7°F15.4°C 78% 9.2 mph E14.8 kmh E 12.0 mph19.3 kmh 30.06 in1017.9 mb 0.00 in0.0 mm 0.00 in0.0 mm 0.11 in2.8 mm
09:40 PM 66.7°F19.3°C 59.6°F15.3°C 78% 9.0 mph E14.5 kmh E 11.0 mph17.7 kmh 30.06 in1017.9 mb 0.00 in0.0 mm 0.00 in0.0 mm 0.11 in2.8 mm
09:41 PM 66.6°F19.2°C 59.5°F15.3°C 78% 9.0 mph E14.5 kmh E 11.0 mph17.7 kmh 30.06 in1017.9 mb 0.00 in0.0 mm 0.00 in0.0 mm 0.11 in2.8 mm
09:42 PM 66.6°F19.2°C 59.5°F15.3°C 78% 9.0 mph E14.5 kmh E 11.0 mph17.7 kmh 30.06 in1017.9 mb 0.00 in0.0 mm 0.00 in0.0 mm 0.11 in2.8 mm
09:43 PM 66.5°F19.2°C 59.4°F15.2°C 78% 9.0 mph E14.5 kmh E 12.0 mph19.3 kmh 30.06 in1017.9 mb 0.00 in0.0 mm 0.00 in0.0 mm 0.11 in2.8 mm
09:44 PM 66.5°F19.2°C 59.4°F15.2°C 78% 8.0 mph E12.9 kmh E 12.0 mph19.3 kmh 30.06 in1017.9 mb 0.00 in0.0 mm 0.00 in0.0 mm 0.11 in2.8 mm
09:45 PM 66.5°F19.2°C 59.4°F15.2°C 78% 9.0 mph E14.5 kmh E 11.0 mph17.7 kmh 30.06 in1017.9 mb 0.00 in0.0 mm 0.00 in0.0 mm 0.11 in2.8 mm
09:46 PM 66.4°F19.1°C 59.3°F15.2°C 78% 9.0 mph E14.5 kmh E 11.0 mph17.7 kmh 30.06 in1017.9 mb 0.00 in0.0 mm 0.00 in0.0 mm 0.11 in2.8 mm
09:47 PM 66.3°F19.1°C 59.2°F15.1°C 78% 9.0 mph E14.5 kmh E 11.0 mph17.7 kmh 30.06 in1017.9 mb 0.00 in0.0 mm 0.00 in0.0 mm 0.11 in2.8 mm
09:48 PM 66.3°F19.1°C 59.2°F15.1°C 78% 8.0 mph E12.9 kmh E 12.0 mph19.3 kmh 30.06 in1017.9 mb 0.00 in0.0 mm 0.00 in0.0 mm 0.11 in2.8 mm
09:49 PM 66.3°F19.1°C 59.2°F15.1°C 78% 9.0 mph E14.5 kmh E 11.0 mph17.7 kmh 30.06 in1017.9 mb 0.00 in0.0 mm 0.00 in0.0 mm 0.11 in2.8 mm
09:50 PM 66.2°F19.0°C 59.5°F15.3°C 79% 10.0 mph E16.1 kmh E 12.0 mph19.3 kmh 30.06 in1017.9 mb 0.00 in0.0 mm 0.00 in0.0 mm 0.11 in2.8 mm
09:51 PM 66.1°F18.9°C 59.4°F15.2°C 79% 10.0 mph E16.1 kmh E 13.0 mph20.9 kmh 30.06 in1017.9 mb 0.00 in0.0 mm 0.00 in0.0 mm 0.11 in2.8 mm
09:52 PM 66.2°F19.0°C 59.5°F15.3°C 79% 10.0 mph E16.1 kmh E 13.0 mph20.9 kmh 30.06 in1017.9 mb 0.00 in0.0 mm 0.00 in0.0 mm 0.11 in2.8 mm
09:53 PM 66.2°F19.0°C 59.5°F15.3°C 79% 9.0 mph E14.5 kmh E 11.0 mph17.7 kmh 30.06 in1017.9 mb 0.00 in0.0 mm 0.00 in0.0 mm 0.11 in2.8 mm
09:54 PM 66.1°F18.9°C 59.4°F15.2°C 79% 10.0 mph E16.1 kmh E 13.0 mph20.9 kmh 30.06 in1017.9 mb 0.00 in0.0 mm 0.00 in0.0 mm 0.11 in2.8 mm
09:55 PM 66.1°F18.9°C 59.4°F15.2°C 79% 8.7 mph E14.0 kmh E 10.0 mph16.1 kmh 30.06 in1017.9 mb 0.00 in0.0 mm 0.00 in0.0 mm 0.11 in2.8 mm
09:56 PM 66.1°F18.9°C 59.4°F15.2°C 79% 9.0 mph E14.5 kmh E 12.0 mph19.3 kmh 30.06 in1017.9 mb 0.00 in0.0 mm 0.00 in0.0 mm 0.11 in2.8 mm
09:57 PM 66.0°F18.9°C 59.3°F15.2°C 79% 9.0 mph E14.5 kmh E 12.0 mph19.3 kmh 30.06 in1017.9 mb 0.00 in0.0 mm 0.00 in0.0 mm 0.11 in2.8 mm
09:58 PM 66.1°F18.9°C 59.4°F15.2°C 79% 10.0 mph E16.1 kmh E 12.0 mph19.3 kmh 30.06 in1017.9 mb 0.00 in0.0 mm 0.00 in0.0 mm 0.11 in2.8 mm
09:59 PM 66.1°F18.9°C 59.4°F15.2°C 79% 10.0 mph E16.1 kmh E 12.0 mph19.3 kmh 30.06 in1017.9 mb 0.00 in0.0 mm 0.00 in0.0 mm 0.11 in2.8 mm
10:00 PM 66.0°F18.9°C 59.3°F15.2°C 79% 10.0 mph E16.1 kmh E 14.0 mph22.5 kmh 30.06 in1017.9 mb 0.00 in0.0 mm 0.00 in0.0 mm 0.11 in2.8 mm
10:01 PM 66.1°F18.9°C 59.4°F15.2°C 79% 11.0 mph E17.7 kmh E 14.0 mph22.5 kmh 30.06 in1017.9 mb 0.00 in0.0 mm 0.00 in0.0 mm 0.11 in2.8 mm
10:02 PM 66.1°F18.9°C 59.4°F15.2°C 79% 9.0 mph E14.5 kmh E 11.0 mph17.7 kmh 30.06 in1017.9 mb 0.00 in0.0 mm 0.00 in0.0 mm 0.11 in2.8 mm
10:03 PM 66.1°F18.9°C 59.4°F15.2°C 79% 10.0 mph E16.1 kmh E 13.0 mph20.9 kmh 30.06 in1017.9 mb 0.00 in0.0 mm 0.00 in0.0 mm 0.11 in2.8 mm
10:04 PM 66.2°F19.0°C 59.5°F15.3°C 79% 10.7 mph E17.2 kmh E 14.0 mph22.5 kmh 30.06 in1017.9 mb 0.00 in0.0 mm 0.00 in0.0 mm 0.11 in2.8 mm
10:05 PM 66.1°F18.9°C 59.4°F15.2°C 79% 11.0 mph E17.7 kmh E 13.0 mph20.9 kmh 30.06 in1017.9 mb 0.00 in0.0 mm 0.00 in0.0 mm 0.11 in2.8 mm
10:06 PM 66.2°F19.0°C 59.5°F15.3°C 79% 12.0 mph E19.3 kmh E 14.0 mph22.5 kmh 30.06 in1017.9 mb 0.00 in0.0 mm 0.00 in0.0 mm 0.11 in2.8 mm
10:07 PM 66.3°F19.1°C 59.6°F15.3°C 79% 11.0 mph E17.7 kmh E 16.0 mph25.7 kmh 30.06 in1017.9 mb 0.00 in0.0 mm 0.00 in0.0 mm 0.11 in2.8 mm
10:08 PM 66.2°F19.0°C 59.5°F15.3°C 79% 9.0 mph E14.5 kmh E 12.0 mph19.3 kmh 30.06 in1017.9 mb 0.00 in0.0 mm 0.00 in0.0 mm 0.11 in2.8 mm
10:09 PM 66.3°F19.1°C 59.6°F15.3°C 79% 10.0 mph E16.1 kmh E 13.0 mph20.9 kmh 30.06 in1017.9 mb 0.00 in0.0 mm 0.00 in0.0 mm 0.11 in2.8 mm
10:10 PM 66.3°F19.1°C 59.6°F15.3°C 79% 11.0 mph E17.7 kmh E 15.0 mph24.1 kmh 30.06 in1017.9 mb 0.00 in0.0 mm 0.00 in0.0 mm 0.11 in2.8 mm
10:11 PM 66.3°F19.1°C 59.6°F15.3°C 79% 11.0 mph E17.7 kmh E 16.0 mph25.7 kmh 30.06 in1017.9 mb 0.00 in0.0 mm 0.00 in0.0 mm 0.11 in2.8 mm
10:12 PM 66.3°F19.1°C 59.6°F15.3°C 79% 11.0 mph E17.7 kmh E 15.0 mph24.1 kmh 30.06 in1017.9 mb 0.00 in0.0 mm 0.00 in0.0 mm 0.11 in2.8 mm
10:13 PM 66.3°F19.1°C 59.6°F15.3°C 79% 10.5 mph ESE16.9 kmh ESE 11.0 mph17.7 kmh 30.06 in1017.9 mb 0.00 in0.0 mm 0.00 in0.0 mm 0.11 in2.8 mm
10:14 PM 66.3°F19.1°C 59.6°F15.3°C 79% 11.0 mph E17.7 kmh E 14.0 mph22.5 kmh 30.06 in1017.9 mb 0.00 in0.0 mm 0.00 in0.0 mm 0.11 in2.8 mm
10:15 PM 66.4°F19.1°C 59.7°F15.4°C 79% 12.0 mph E19.3 kmh E 15.0 mph24.1 kmh 30.06 in1017.9 mb 0.00 in0.0 mm 0.00 in0.0 mm 0.11 in2.8 mm
10:16 PM 66.3°F19.1°C 59.6°F15.3°C 79% 12.0 mph E19.3 kmh E 14.0 mph22.5 kmh 30.06 in1017.9 mb 0.00 in0.0 mm 0.00 in0.0 mm 0.11 in2.8 mm
10:17 PM 66.3°F19.1°C 59.6°F15.3°C 79% 10.0 mph E16.1 kmh E 13.0 mph20.9 kmh 30.06 in1017.9 mb 0.00 in0.0 mm 0.00 in0.0 mm 0.11 in2.8 mm
10:18 PM 66.3°F19.1°C 59.6°F15.3°C 79% 11.0 mph E17.7 kmh E 16.0 mph25.7 kmh 30.06 in1017.9 mb 0.00 in0.0 mm 0.00 in0.0 mm 0.11 in2.8 mm
10:19 PM 66.3°F19.1°C 59.6°F15.3°C 79% 11.0 mph E17.7 kmh E 15.0 mph24.1 kmh 30.06 in1017.9 mb 0.00 in0.0 mm 0.00 in0.0 mm 0.11 in2.8 mm
10:20 PM 66.3°F19.1°C 59.9°F15.5°C 80% 10.0 mph E16.1 kmh E 13.0 mph20.9 kmh 30.06 in1017.9 mb 0.00 in0.0 mm 0.00 in0.0 mm 0.11 in2.8 mm
10:21 PM 66.4°F19.1°C 60.0°F15.6°C 80% 9.0 mph E14.5 kmh E 13.0 mph20.9 kmh 30.06 in1017.9 mb 0.00 in0.0 mm 0.00 in0.0 mm 0.11 in2.8 mm
10:22 PM 66.3°F19.1°C 59.9°F15.5°C 80% 11.0 mph E17.7 kmh E 14.0 mph22.5 kmh 30.06 in1017.9 mb 0.00 in0.0 mm 0.00 in0.0 mm 0.11 in2.8 mm
10:23 PM 66.3°F19.1°C 59.9°F15.5°C 80% 11.0 mph E17.7 kmh E 15.0 mph24.1 kmh 30.06 in1017.9 mb 0.00 in0.0 mm 0.00 in0.0 mm 0.11 in2.8 mm
10:24 PM 66.3°F19.1°C 59.9°F15.5°C 80% 10.0 mph E16.1 kmh E 14.0 mph22.5 kmh 30.06 in1017.9 mb 0.00 in0.0 mm 0.00 in0.0 mm 0.11 in2.8 mm
10:25 PM 66.3°F19.1°C 59.9°F15.5°C 80% 11.0 mph E17.7 kmh E 14.0 mph22.5 kmh 30.06 in1017.9 mb 0.00 in0.0 mm 0.00 in0.0 mm 0.11 in2.8 mm
10:26 PM 66.3°F19.1°C 59.9°F15.5°C 80% 10.0 mph E16.1 kmh E 14.0 mph22.5 kmh 30.06 in1017.9 mb 0.00 in0.0 mm 0.00 in0.0 mm 0.11 in2.8 mm
10:27 PM 66.3°F19.1°C 59.9°F15.5°C 80% 11.0 mph E17.7 kmh E 13.0 mph20.9 kmh 30.06 in1017.9 mb 0.00 in0.0 mm 0.00 in0.0 mm 0.11 in2.8 mm
10:28 PM 66.3°F19.1°C 59.9°F15.5°C 80% 11.0 mph E17.7 kmh E 13.0 mph20.9 kmh 30.06 in1017.9 mb 0.00 in0.0 mm 0.00 in0.0 mm 0.11 in2.8 mm
10:29 PM 66.3°F19.1°C 59.9°F15.5°C 80% 12.0 mph E19.3 kmh E 15.0 mph24.1 kmh 30.06 in1017.9 mb 0.00 in0.0 mm 0.00 in0.0 mm 0.11 in2.8 mm
10:30 PM 66.2°F19.0°C 59.8°F15.4°C 80% 12.0 mph E19.3 kmh E 15.0 mph24.1 kmh 30.06 in1017.9 mb 0.00 in0.0 mm 0.00 in0.0 mm 0.11 in2.8 mm
10:31 PM 66.2°F19.0°C 59.8°F15.4°C 80% 10.0 mph E16.1 kmh E 11.0 mph17.7 kmh 30.06 in1017.9 mb 0.00 in0.0 mm 0.00 in0.0 mm 0.11 in2.8 mm
10:32 PM 66.2°F19.0°C 59.8°F15.4°C 80% 11.0 mph E17.7 kmh E 15.0 mph24.1 kmh 30.06 in1017.9 mb 0.00 in0.0 mm 0.00 in0.0 mm 0.11 in2.8 mm
10:33 PM 66.2°F19.0°C 59.8°F15.4°C 80% 11.0 mph E17.7 kmh E 15.0 mph24.1 kmh 30.06 in1017.9 mb 0.00 in0.0 mm 0.00 in0.0 mm 0.11 in2.8 mm
10:34 PM 66.2°F19.0°C 59.8°F15.4°C 80% 10.0 mph E16.1 kmh E 14.0 mph22.5 kmh 30.06 in1017.9 mb 0.00 in0.0 mm 0.00 in0.0 mm 0.11 in2.8 mm
10:35 PM 66.1°F18.9°C 59.7°F15.4°C 80% 9.9 mph E15.9 kmh E 12.0 mph19.3 kmh 30.06 in1017.9 mb 0.00 in0.0 mm 0.00 in0.0 mm 0.11 in2.8 mm
10:36 PM 66.1°F18.9°C 59.7°F15.4°C 80% 9.0 mph E14.5 kmh E 13.0 mph20.9 kmh 30.06 in1017.9 mb 0.00 in0.0 mm 0.00 in0.0 mm 0.11 in2.8 mm
10:37 PM 66.1°F18.9°C 59.7°F15.4°C 80% 11.0 mph E17.7 kmh E 14.0 mph22.5 kmh 30.06 in1017.9 mb 0.00 in0.0 mm 0.00 in0.0 mm 0.11 in2.8 mm
10:38 PM 66.0°F18.9°C 59.6°F15.3°C 80% 9.0 mph E14.5 kmh E 11.0 mph17.7 kmh 30.06 in1017.9 mb 0.00 in0.0 mm 0.00 in0.0 mm 0.11 in2.8 mm
10:39 PM 66.0°F18.9°C 59.6°F15.3°C 80% 11.0 mph E17.7 kmh E 13.0 mph20.9 kmh 30.06 in1017.9 mb 0.00 in0.0 mm 0.00 in0.0 mm 0.11 in2.8 mm
10:40 PM 66.0°F18.9°C 60.0°F15.6°C 81% 9.0 mph E14.5 kmh E 14.0 mph22.5 kmh 30.06 in1017.9 mb 0.00 in0.0 mm 0.00 in0.0 mm 0.11 in2.8 mm
10:41 PM 66.0°F18.9°C 60.0°F15.6°C 81% 9.0 mph E14.5 kmh E 14.0 mph22.5 kmh 30.06 in1017.9 mb 0.00 in0.0 mm 0.00 in0.0 mm 0.11 in2.8 mm
10:42 PM 65.9°F18.8°C 59.9°F15.5°C 81% 10.0 mph E16.1 kmh E 12.0 mph19.3 kmh 30.06 in1017.9 mb 0.00 in0.0 mm 0.00 in0.0 mm 0.11 in2.8 mm
10:43 PM 65.9°F18.8°C 59.9°F15.5°C 81% 10.0 mph E16.1 kmh E 12.0 mph19.3 kmh 30.06 in1017.9 mb 0.00 in0.0 mm 0.00 in0.0 mm 0.11 in2.8 mm
10:44 PM 65.9°F18.8°C 59.9°F15.5°C 81% 7.5 mph E12.1 kmh E 8.0 mph12.9 kmh 30.06 in1017.9 mb 0.00 in0.0 mm 0.00 in0.0 mm 0.11 in2.8 mm
10:45 PM 65.9°F18.8°C 59.9°F15.5°C 81% 8.0 mph E12.9 kmh E 11.0 mph17.7 kmh 30.06 in1017.9 mb 0.00 in0.0 mm 0.00 in0.0 mm 0.11 in2.8 mm
10:46 PM 65.9°F18.8°C 59.9°F15.5°C 81% 9.0 mph E14.5 kmh E 11.0 mph17.7 kmh 30.06 in1017.9 mb 0.00 in0.0 mm 0.00 in0.0 mm 0.11 in2.8 mm
10:47 PM 65.9°F18.8°C 59.9°F15.5°C 81% 9.2 mph E14.8 kmh E 12.0 mph19.3 kmh 30.06 in1017.9 mb 0.00 in0.0 mm 0.00 in0.0 mm 0.11 in2.8 mm
10:48 PM 65.9°F18.8°C 59.9°F15.5°C 81% 8.0 mph E12.9 kmh E 11.0 mph17.7 kmh 30.06 in1017.9 mb 0.00 in0.0 mm 0.00 in0.0 mm 0.11 in2.8 mm
10:49 PM 65.9°F18.8°C 59.9°F15.5°C 81% 10.0 mph E16.1 kmh E 15.0 mph24.1 kmh 30.06 in1017.9 mb 0.00 in0.0 mm 0.00 in0.0 mm 0.11 in2.8 mm
10:50 PM 65.9°F18.8°C 59.9°F15.5°C 81% 10.0 mph E16.1 kmh E 14.0 mph22.5 kmh 30.06 in1017.9 mb 0.00 in0.0 mm 0.00 in0.0 mm 0.11 in2.8 mm
10:51 PM 65.9°F18.8°C 59.9°F15.5°C 81% 10.0 mph E16.1 kmh E 13.0 mph20.9 kmh 30.06 in1017.9 mb 0.00 in0.0 mm 0.00 in0.0 mm 0.11 in2.8 mm
10:52 PM 65.9°F18.8°C 59.9°F15.5°C 81% 9.0 mph E14.5 kmh E 12.0 mph19.3 kmh 30.06 in1017.9 mb 0.00 in0.0 mm 0.00 in0.0 mm 0.11 in2.8 mm
10:53 PM 65.9°F18.8°C 59.9°F15.5°C 81% 7.0 mph E11.3 kmh E 10.0 mph16.1 kmh 30.06 in1017.9 mb 0.00 in0.0 mm 0.00 in0.0 mm 0.11 in2.8 mm
10:54 PM 65.9°F18.8°C 59.9°F15.5°C 81% 10.0 mph E16.1 kmh E 13.0 mph20.9 kmh 30.06 in1017.9 mb 0.00 in0.0 mm 0.00 in0.0 mm 0.11 in2.8 mm
10:55 PM 65.9°F18.8°C 59.9°F15.5°C 81% 10.0 mph E16.1 kmh E 12.0 mph19.3 kmh 30.06 in1017.9 mb 0.00 in0.0 mm 0.00 in0.0 mm 0.11 in2.8 mm
10:56 PM 65.9°F18.8°C 59.9°F15.5°C 81% 10.0 mph E16.1 kmh E 12.0 mph19.3 kmh 30.06 in1017.9 mb 0.00 in0.0 mm 0.00 in0.0 mm 0.11 in2.8 mm
10:57 PM 65.9°F18.8°C 59.9°F15.5°C 81% 10.0 mph E16.1 kmh E 14.0 mph22.5 kmh 30.06 in1017.9 mb 0.00 in0.0 mm 0.00 in0.0 mm 0.11 in2.8 mm
10:58 PM 65.9°F18.8°C 59.9°F15.5°C 81% 8.0 mph E12.9 kmh E 11.0 mph17.7 kmh 30.06 in1017.9 mb 0.00 in0.0 mm 0.00 in0.0 mm 0.11 in2.8 mm
10:59 PM 65.9°F18.8°C 59.9°F15.5°C 81% 9.0 mph E14.5 kmh E 12.0 mph19.3 kmh 30.06 in1017.9 mb 0.00 in0.0 mm 0.00 in0.0 mm 0.11 in2.8 mm
11:00 PM 65.8°F18.8°C 59.8°F15.4°C 81% 9.0 mph E14.5 kmh E 11.0 mph17.7 kmh 30.06 in1017.9 mb 0.00 in0.0 mm 0.00 in0.0 mm 0.11 in2.8 mm
11:01 PM 65.8°F18.8°C 59.8°F15.4°C 81% 8.0 mph E12.9 kmh E 9.0 mph14.5 kmh 30.06 in1017.9 mb 0.00 in0.0 mm 0.00 in0.0 mm 0.11 in2.8 mm
11:02 PM 65.8°F18.8°C 59.8°F15.4°C 81% 8.0 mph E12.9 kmh E 10.0 mph16.1 kmh 30.06 in1017.9 mb 0.00 in0.0 mm 0.00 in0.0 mm 0.11 in2.8 mm
11:03 PM 65.7°F18.7°C 59.7°F15.4°C 81% 8.0 mph E12.9 kmh E 11.0 mph17.7 kmh 30.06 in1017.9 mb 0.00 in0.0 mm 0.00 in0.0 mm 0.11 in2.8 mm
11:04 PM 65.7°F18.7°C 60.0°F15.6°C 82% 7.0 mph E11.3 kmh E 11.0 mph17.7 kmh 30.06 in1017.9 mb 0.00 in0.0 mm 0.00 in0.0 mm 0.11 in2.8 mm
11:05 PM 65.7°F18.7°C 60.0°F15.6°C 82% 8.0 mph E12.9 kmh E 10.0 mph16.1 kmh 30.06 in1017.9 mb 0.00 in0.0 mm 0.00 in0.0 mm 0.11 in2.8 mm
11:06 PM 65.7°F18.7°C 60.0°F15.6°C 82% 10.0 mph E16.1 kmh E 11.0 mph17.7 kmh 30.06 in1017.9 mb 0.00 in0.0 mm 0.00 in0.0 mm 0.11 in2.8 mm
11:07 PM 65.7°F18.7°C 60.0°F15.6°C 82% 9.0 mph E14.5 kmh E 12.0 mph19.3 kmh 30.06 in1017.9 mb 0.00 in0.0 mm 0.00 in0.0 mm 0.11 in2.8 mm
11:08 PM 65.6°F18.7°C 60.0°F15.6°C 82% 8.0 mph E12.9 kmh E 10.0 mph16.1 kmh 30.06 in1017.9 mb 0.00 in0.0 mm 0.00 in0.0 mm 0.11 in2.8 mm
11:09 PM 65.6°F18.7°C 60.0°F15.6°C 82% 10.4 mph E16.7 kmh E 11.0 mph17.7 kmh 30.06 in1017.9 mb 0.00 in0.0 mm 0.00 in0.0 mm 0.11 in2.8 mm
11:10 PM 65.6°F18.7°C 60.0°F15.6°C 82% 10.0 mph E16.1 kmh E 12.0 mph19.3 kmh 30.06 in1017.9 mb 0.00 in0.0 mm 0.00 in0.0 mm 0.11 in2.8 mm
11:11 PM 65.6°F18.7°C 60.0°F15.6°C 82% 10.0 mph E16.1 kmh E 12.0 mph19.3 kmh 30.06 in1017.9 mb 0.00 in0.0 mm 0.00 in0.0 mm 0.11 in2.8 mm
11:12 PM 65.5°F18.6°C 59.9°F15.5°C 82% 9.0 mph E14.5 kmh E 13.0 mph20.9 kmh 30.06 in1017.9 mb 0.00 in0.0 mm 0.00 in0.0 mm 0.11 in2.8 mm
11:13 PM 65.5°F18.6°C 59.9°F15.5°C 82% 10.0 mph E16.1 kmh E 13.0 mph20.9 kmh 30.06 in1017.9 mb 0.00 in0.0 mm 0.00 in0.0 mm 0.11 in2.8 mm
11:14 PM 65.4°F18.6°C 59.8°F15.4°C 82% 11.0 mph E17.7 kmh E 14.0 mph22.5 kmh 30.06 in1017.9 mb 0.00 in0.0 mm 0.00 in0.0 mm 0.11 in2.8 mm
11:15 PM 65.4°F18.6°C 59.8°F15.4°C 82% 11.0 mph E17.7 kmh E 13.0 mph20.9 kmh 30.06 in1017.9 mb 0.00 in0.0 mm 0.00 in0.0 mm 0.11 in2.8 mm
11:16 PM 65.4°F18.6°C 59.8°F15.4°C 82% 11.0 mph E17.7 kmh E 14.0 mph22.5 kmh 30.06 in1017.9 mb 0.00 in0.0 mm 0.00 in0.0 mm 0.11 in2.8 mm
11:17 PM 65.4°F18.6°C 59.8°F15.4°C 82% 10.0 mph E16.1 kmh E 14.0 mph22.5 kmh 30.06 in1017.9 mb 0.00 in0.0 mm 0.00 in0.0 mm 0.11 in2.8 mm
11:18 PM 65.4°F18.6°C 59.8°F15.4°C 82% 11.3 mph E18.2 kmh E 13.0 mph20.9 kmh 30.06 in1017.9 mb 0.00 in0.0 mm 0.00 in0.0 mm 0.11 in2.8 mm
11:19 PM 65.4°F18.6°C 59.8°F15.4°C 82% 8.0 mph E12.9 kmh E 11.0 mph17.7 kmh 30.06 in1017.9 mb 0.00 in0.0 mm 0.00 in0.0 mm 0.11 in2.8 mm
11:20 PM 65.4°F18.6°C 59.8°F15.4°C 82% 10.0 mph E16.1 kmh E 12.0 mph19.3 kmh 30.05 in1017.6 mb 0.00 in0.0 mm 0.00 in0.0 mm 0.11 in2.8 mm
11:21 PM 65.4°F18.6°C 59.8°F15.4°C 82% 8.0 mph E12.9 kmh E 12.0 mph19.3 kmh 30.05 in1017.6 mb 0.00 in0.0 mm 0.00 in0.0 mm 0.11 in2.8 mm
11:22 PM 65.3°F18.5°C 59.7°F15.4°C 82% 9.0 mph E14.5 kmh E 11.0 mph17.7 kmh 30.05 in1017.6 mb 0.00 in0.0 mm 0.00 in0.0 mm 0.11 in2.8 mm
11:23 PM 65.3°F18.5°C 59.7°F15.4°C 82% 9.0 mph E14.5 kmh E 12.0 mph19.3 kmh 30.05 in1017.6 mb 0.00 in0.0 mm 0.00 in0.0 mm 0.11 in2.8 mm
11:24 PM 65.3°F18.5°C 59.7°F15.4°C 82% 10.0 mph E16.1 kmh E 12.0 mph19.3 kmh 30.05 in1017.6 mb 0.00 in0.0 mm 0.00 in0.0 mm 0.11 in2.8 mm
11:25 PM 65.3°F18.5°C 59.7°F15.4°C 82% 9.0 mph E14.5 kmh E 13.0 mph20.9 kmh 30.05 in1017.6 mb 0.00 in0.0 mm 0.00 in0.0 mm 0.11 in2.8 mm
11:26 PM 65.3°F18.5°C 59.7°F15.4°C 82% 9.7 mph E15.6 kmh E 13.0 mph20.9 kmh 30.05 in1017.6 mb 0.00 in0.0 mm 0.00 in0.0 mm 0.11 in2.8 mm
11:27 PM 65.3°F18.5°C 59.7°F15.4°C 82% 9.0 mph E14.5 kmh E 10.0 mph16.1 kmh 30.05 in1017.6 mb 0.00 in0.0 mm 0.00 in0.0 mm 0.11 in2.8 mm
11:28 PM 65.3°F18.5°C 59.7°F15.4°C 82% 9.0 mph E14.5 kmh E 11.0 mph17.7 kmh 30.05 in1017.6 mb 0.00 in0.0 mm 0.00 in0.0 mm 0.11 in2.8 mm
11:29 PM 65.3°F18.5°C 59.7°F15.4°C 82% 9.0 mph E14.5 kmh E 12.0 mph19.3 kmh 30.05 in1017.6 mb 0.00 in0.0 mm 0.00 in0.0 mm 0.11 in2.8 mm
11:30 PM 65.3°F18.5°C 59.7°F15.4°C 82% 9.0 mph E14.5 kmh E 12.0 mph19.3 kmh 30.05 in1017.6 mb 0.00 in0.0 mm 0.00 in0.0 mm 0.11 in2.8 mm
11:31 PM 65.3°F18.5°C 59.7°F15.4°C 82% 9.0 mph E14.5 kmh E 11.0 mph17.7 kmh 30.06 in1017.9 mb 0.00 in0.0 mm 0.00 in0.0 mm 0.11 in2.8 mm
11:32 PM 65.4°F18.6°C 59.8°F15.4°C 82% 8.0 mph E12.9 kmh E 12.0 mph19.3 kmh 30.05 in1017.6 mb 0.00 in0.0 mm 0.00 in0.0 mm 0.11 in2.8 mm
11:33 PM 65.3°F18.5°C 59.7°F15.4°C 82% 9.0 mph E14.5 kmh E 11.0 mph17.7 kmh 30.05 in1017.6 mb 0.00 in0.0 mm 0.00 in0.0 mm 0.11 in2.8 mm
11:34 PM 65.3°F18.5°C 59.7°F15.4°C 82% 9.0 mph E14.5 kmh E 11.0 mph17.7 kmh 30.05 in1017.6 mb 0.00 in0.0 mm 0.00 in0.0 mm 0.11 in2.8 mm
11:35 PM 65.3°F18.5°C 59.7°F15.4°C 82% 8.0 mph E12.9 kmh E 10.0 mph16.1 kmh 30.05 in1017.6 mb 0.00 in0.0 mm 0.00 in0.0 mm 0.11 in2.8 mm
11:36 PM 65.3°F18.5°C 59.7°F15.4°C 82% 9.0 mph E14.5 kmh E 11.0 mph17.7 kmh 30.05 in1017.6 mb 0.00 in0.0 mm 0.00 in0.0 mm 0.11 in2.8 mm
11:37 PM 65.3°F18.5°C 59.7°F15.4°C 82% 9.0 mph E14.5 kmh E 11.0 mph17.7 kmh 30.05 in1017.6 mb 0.00 in0.0 mm 0.00 in0.0 mm 0.11 in2.8 mm
11:38 PM 65.3°F18.5°C 59.7°F15.4°C 82% 9.0 mph E14.5 kmh E 12.0 mph19.3 kmh 30.05 in1017.6 mb 0.00 in0.0 mm 0.00 in0.0 mm 0.11 in2.8 mm
11:39 PM 65.2°F18.4°C 59.6°F15.3°C 82% 9.0 mph E14.5 kmh E 11.0 mph17.7 kmh 30.05 in1017.6 mb 0.00 in0.0 mm 0.00 in0.0 mm 0.11 in2.8 mm
11:40 PM 65.2°F18.4°C 59.6°F15.3°C 82% 9.0 mph E14.5 kmh E 11.0 mph17.7 kmh 30.05 in1017.6 mb 0.00 in0.0 mm 0.00 in0.0 mm 0.11 in2.8 mm
11:41 PM 65.2°F18.4°C 59.6°F15.3°C 82% 10.0 mph E16.1 kmh E 13.0 mph20.9 kmh 30.05 in1017.6 mb 0.00 in0.0 mm 0.00 in0.0 mm 0.11 in2.8 mm
11:42 PM 65.2°F18.4°C 59.6°F15.3°C 82% 8.9 mph E14.3 kmh E 11.0 mph17.7 kmh 30.05 in1017.6 mb 0.00 in0.0 mm 0.00 in0.0 mm 0.11 in2.8 mm
11:43 PM 65.1°F18.4°C 59.5°F15.3°C 82% 8.0 mph E12.9 kmh E 10.0 mph16.1 kmh 30.05 in1017.6 mb 0.00 in0.0 mm 0.00 in0.0 mm 0.11 in2.8 mm
11:44 PM 65.1°F18.4°C 59.5°F15.3°C 82% 8.0 mph E12.9 kmh E 10.0 mph16.1 kmh 30.05 in1017.6 mb 0.00 in0.0 mm 0.00 in0.0 mm 0.11 in2.8 mm
11:45 PM 65.1°F18.4°C 59.5°F15.3°C 82% 8.0 mph E12.9 kmh E 11.0 mph17.7 kmh 30.05 in1017.6 mb 0.00 in0.0 mm 0.00 in0.0 mm 0.11 in2.8 mm
11:46 PM 65.0°F18.3°C 59.4°F15.2°C 82% 8.0 mph E12.9 kmh E 10.0 mph16.1 kmh 30.05 in1017.6 mb 0.00 in0.0 mm 0.00 in0.0 mm 0.11 in2.8 mm
11:47 PM 65.1°F18.4°C 59.5°F15.3°C 82% 8.0 mph E12.9 kmh E 11.0 mph17.7 kmh 30.05 in1017.6 mb 0.00 in0.0 mm 0.00 in0.0 mm 0.11 in2.8 mm
11:48 PM 65.1°F18.4°C 59.5°F15.3°C 82% 8.0 mph E12.9 kmh E 10.0 mph16.1 kmh 30.05 in1017.6 mb 0.00 in0.0 mm 0.00 in0.0 mm 0.11 in2.8 mm
11:49 PM 65.1°F18.4°C 59.5°F15.3°C 82% 8.0 mph E12.9 kmh E 10.0 mph16.1 kmh 30.05 in1017.6 mb 0.00 in0.0 mm 0.00 in0.0 mm 0.11 in2.8 mm
11:50 PM 65.1°F18.4°C 59.5°F15.3°C 82% 8.0 mph E12.9 kmh E 12.0 mph19.3 kmh 30.05 in1017.6 mb 0.00 in0.0 mm 0.00 in0.0 mm 0.11 in2.8 mm
11:51 PM 65.2°F18.4°C 59.6°F15.3°C 82% 10.0 mph E16.1 kmh E 12.0 mph19.3 kmh 30.05 in1017.6 mb 0.00 in0.0 mm 0.00 in0.0 mm 0.11 in2.8 mm
11:52 PM 65.2°F18.4°C 59.6°F15.3°C 82% 9.0 mph E14.5 kmh E 11.0 mph17.7 kmh 30.05 in1017.6 mb 0.00 in0.0 mm 0.00 in0.0 mm 0.11 in2.8 mm
11:53 PM 65.2°F18.4°C 59.6°F15.3°C 82% 9.0 mph E14.5 kmh E 11.0 mph17.7 kmh 30.05 in1017.6 mb 0.00 in0.0 mm 0.00 in0.0 mm 0.11 in2.8 mm
11:54 PM 65.2°F18.4°C 59.6°F15.3°C 82% 7.0 mph E11.3 kmh E 10.0 mph16.1 kmh 30.05 in1017.6 mb 0.00 in0.0 mm 0.00 in0.0 mm 0.11 in2.8 mm
11:55 PM 65.2°F18.4°C 59.6°F15.3°C 82% 9.0 mph E14.5 kmh E 12.0 mph19.3 kmh 30.05 in1017.6 mb 0.00 in0.0 mm 0.00 in0.0 mm 0.11 in2.8 mm
11:56 PM 65.2°F18.4°C 59.6°F15.3°C 82% 8.0 mph E12.9 kmh E 10.0 mph16.1 kmh 30.05 in1017.6 mb 0.00 in0.0 mm 0.00 in0.0 mm 0.11 in2.8 mm
11:57 PM 65.3°F18.5°C 59.7°F15.4°C 82% 8.0 mph E12.9 kmh E 11.0 mph17.7 kmh 30.05 in1017.6 mb 0.00 in0.0 mm 0.00 in0.0 mm 0.11 in2.8 mm
11:58 PM 65.2°F18.4°C 59.2°F15.1°C 81% 8.0 mph E12.9 kmh E 9.0 mph14.5 kmh 30.05 in1017.6 mb 0.00 in0.0 mm 0.00 in0.0 mm 0.11 in2.8 mm
11:59 PM 65.3°F18.5°C 59.3°F15.2°C 81% 7.0 mph E11.3 kmh E 10.0 mph16.1 kmh 30.05 in1017.6 mb 0.00 in0.0 mm 0.00 in0.0 mm 0.11 in2.8 mm